Provisional Data: Snake Creek near Lawsville Center, PA


Please select a monitoring station.
Please select start date.
Please select start date.

Toggle Unit: C/F Toggle Unit: C/F
Sample Time Temperature (C) Temperature (F) Specific Conductivity (mS/cm) pH   Turbidity (NTU+) DO (mg/L)
5/4/2021 12:00:00 AM 11.51 52.718 0.08 7.08 6.81 8.51
5/4/2021 12:15:00 AM 11.48 52.664 0.08 7.08 6.74 8.74
5/4/2021 12:30:00 AM 11.46 52.628 0.08 7.1 7 8.62
5/4/2021 12:45:00 AM 11.44 52.592 0.08 7.1 7.01 8.79
5/4/2021 1:00:00 AM 11.42 52.556 0.08 7.09 7.21 8.99
5/4/2021 1:15:00 AM 11.39 52.502 0.08 7.1 7.2 8.64
5/4/2021 1:30:00 AM 11.37 52.466 0.08 7.12 7.21 9.06
5/4/2021 1:45:00 AM 11.36 52.448 0.08 7.08 6.95 8.82
5/4/2021 2:00:00 AM 11.34 52.412 0.08 7.1 6.82 8.85
5/4/2021 2:15:00 AM 11.32 52.376 0.08 7.09 6.56 8.94
5/4/2021 2:30:00 AM 11.3 52.34 0.08 7.08 6.53 8.74
5/4/2021 2:45:00 AM 11.29 52.322 0.08 7.1 6.7 8.99
5/4/2021 3:00:00 AM 11.27 52.286 0.08 7.08 6.63 8.82
5/4/2021 3:15:00 AM 11.25 52.25 0.08 7.08 6.26 8.69
5/4/2021 3:30:00 AM 11.23 52.214 0.08 7.1 9.17 9.24
5/4/2021 3:45:00 AM 11.21 52.178 0.08 7.11 9.6 9.5
5/4/2021 4:00:00 AM 11.2 52.16 0.08 7.08 7.53 9.25
5/4/2021 4:15:00 AM 11.19 52.142 0.08 7.08 6.99 9.14
5/4/2021 4:30:00 AM 11.17 52.106 0.08 7.08 6.91 9.13
5/4/2021 4:45:00 AM 11.16 52.088 0.08 7.1 21.87 9.4
5/4/2021 5:00:00 AM 11.14 52.052 0.08 7.08 60.61 9.42
5/4/2021 5:15:00 AM 11.14 52.052 0.08 7.09 13.5 9.45
5/4/2021 5:30:00 AM 11.12 52.016 0.08 7.1 21.26 9.45
5/4/2021 5:45:00 AM 11.12 52.016 0.081 7.05 9.31 8.97
5/4/2021 6:00:00 AM 11.1 51.98 0.08 7.06 7.08 8.99
5/4/2021 6:15:00 AM 11.09 51.962 0.08 7.06 7.67 8.99
5/4/2021 6:30:00 AM 11.08 51.944 0.081 7.03 6.25 8.96
5/4/2021 6:45:00 AM 11.08 51.944 0.081 7.07 6.41 8.71
5/4/2021 7:00:00 AM 11.07 51.926 0.081 7.08 5.92 8.81
5/4/2021 7:15:00 AM 11.07 51.926 0.081 7.07 5.78 8.91
5/4/2021 7:30:00 AM 11.07 51.926 0.081 7.11 5.75 9.23
5/4/2021 7:45:00 AM 11.07 51.926 0.081 7.09 5.58 9.26
5/4/2021 8:00:00 AM 11.08 51.944 0.081 7.09 5.48 9.31
5/4/2021 8:15:00 AM 11.09 51.962 0.081 7.08 5.01 9.3
5/4/2021 8:30:00 AM 11.1 51.98 0.081 7.1 4.77 9.37
5/4/2021 8:45:00 AM 11.12 52.016 0.081 7.14 4.79 9.5
5/4/2021 9:00:00 AM 11.14 52.052 0.081 7.08 4.72 9.13
5/4/2021 9:15:00 AM 11.17 52.106 0.081 7.11 4.7 9.31
5/4/2021 9:30:00 AM 11.22 52.196 0.081 7.15 4.6 9.52
5/4/2021 9:45:00 AM 11.27 52.286 0.081 7.13 4.48 9.44
5/4/2021 10:00:00 AM 11.33 52.394 0.081 7.18 4.31 9.76
5/4/2021 10:15:00 AM 11.39 52.502 0.081 7.2 4.41 9.79
5/4/2021 10:30:00 AM 11.46 52.628 0.081 7.26 4.42 9.86
5/4/2021 10:45:00 AM 11.54 52.772 0.081 7.25 4.54 9.93
5/4/2021 11:00:00 AM 11.63 52.934 0.08 7.27 4.48 10.01
5/4/2021 11:15:00 AM 11.73 53.114 0.081 7.29 4.31 9.97
5/4/2021 11:30:00 AM 11.87 53.366 0.081 7.34 4.37 9.95
5/4/2021 11:45:00 AM 12 53.6 0.081 7.39 4.17 9.96
5/4/2021 12:00:00 PM 12.18 53.924 0.081 7.45 4.31 10.02
5/4/2021 12:15:00 PM 12.41 54.338 0.081 7.48 4.38 10.08
5/4/2021 12:30:00 PM 12.53 54.554 0.08 7.41 4.29 9.93
5/4/2021 12:45:00 PM 12.68 54.824 0.08 7.46 4.09 9.99
5/4/2021 1:00:00 PM 12.88 55.184 0.08 7.49 4.04 10.01
5/4/2021 1:15:00 PM 13.14 55.652 0.08 7.65 4.05 9.99
5/4/2021 1:30:00 PM 13.37 56.066 0.08 7.6 4.12 9.93
5/4/2021 1:45:00 PM 13.6 56.48 0.08 7.58 4.05 9.89
5/4/2021 2:00:00 PM 13.82 56.876 0.08 7.57 4.06 9.88
5/4/2021 2:15:00 PM 14.07 57.326 0.08 7.66 4.01 9.85
5/4/2021 2:30:00 PM 14.36 57.848 0.08 7.67 5.1 9.72
5/4/2021 2:45:00 PM 14.69 58.442 0.08 7.69 19.38 10.05
5/4/2021 3:00:00 PM 14.88 58.784 0.08 7.68 17.75 9.55
5/4/2021 3:15:00 PM 15.02 59.036 0.08 7.67 20.57 9.92
5/4/2021 3:30:00 PM 15.18 59.324 0.08 7.7 17.77 9.99
5/4/2021 3:45:00 PM 15.43 59.774 0.08 7.69 57.3 9.91
5/4/2021 4:00:00 PM 15.58 60.044 0.08 7.62 17.65 9.75
5/4/2021 4:15:00 PM 15.74 60.332 0.08 7.62 15.17 9.69
5/4/2021 4:30:00 PM 15.78 60.404 0.08 7.62 11.96 9.49
5/4/2021 4:45:00 PM 15.76 60.368 0.08 7.58 15.31 9.47
5/4/2021 5:00:00 PM 15.72 60.296 0.08 7.43 11.33 9.11
5/4/2021 5:15:00 PM 15.67 60.206 0.08 7.47 14.94 9.22
5/4/2021 5:30:00 PM 15.63 60.134 0.08 7.38 6.63 8.34
5/4/2021 5:45:00 PM 15.58 60.044 0.08 7.33 7.23 8.28
5/4/2021 6:00:00 PM 15.53 59.954 0.081 7.3 5.18 8.14
5/4/2021 6:15:00 PM 15.47 59.846 0.081 7.3 4.83 8.36
5/4/2021 6:30:00 PM 15.39 59.702 0.081 7.3 5.14 7.99
5/4/2021 6:45:00 PM 15.31 59.558 0.082 7.29 4.78 7.96
5/4/2021 7:00:00 PM 15.21 59.378 0.081 7.23 4.64 7.71
5/4/2021 7:15:00 PM 15.11 59.198 0.082 7.21 5.3 7.53
5/4/2021 7:30:00 PM 15.03 59.054 0.082 7.18 5.2 7.27
5/4/2021 7:45:00 PM 14.94 58.892 0.082 7.19 11.49 8.15
5/4/2021 8:00:00 PM 14.84 58.712 0.082 7.18 61.13 8.51
5/4/2021 8:15:00 PM 14.75 58.55 0.082 7.14 29.32 8.72
5/4/2021 8:30:00 PM 14.7 58.46 0.082 7.14 11.2 8.67
5/4/2021 8:45:00 PM 14.66 58.388 0.082 7.11 8.27 8.18
5/4/2021 9:00:00 PM 14.59 58.262 0.082 7.07 6.16 7.75
5/4/2021 9:15:00 PM 14.53 58.154 0.082 7.07 5.43 7.68
5/4/2021 9:30:00 PM 14.47 58.046 0.083 7.05 5.39 7.35
5/4/2021 9:45:00 PM 14.41 57.938 0.083 7.03 4.91 7.63
5/4/2021 10:00:00 PM 14.33 57.794 0.083 7.06 5.13 7.39
5/4/2021 10:15:00 PM 14.27 57.686 0.083 7.07 4.68 7.75
5/4/2021 10:30:00 PM 14.2 57.56 0.083 7.07 7.51 8.43
5/4/2021 10:45:00 PM 14.14 57.452 0.083 7.04 5.32 7.7
5/4/2021 11:00:00 PM 14.07 57.326 0.083 7.04 4.7 7.73
5/4/2021 11:15:00 PM 14.01 57.218 0.083 7.05 4.75 7.8
5/4/2021 11:30:00 PM 13.96 57.128 0.084 7.05 4.88 7.95
5/4/2021 11:45:00 PM 13.92 57.056 0.084 7.03 4.59 7.99
5/5/2021 12:00:00 AM 13.87 56.966 0.084 7.06 4.52 8.01
5/5/2021 12:15:00 AM 13.82 56.876 0.084 7.06 4.52 8.12
5/5/2021 12:30:00 AM 13.78 56.804 0.084 7.06 4.44 8.2
5/5/2021 12:45:00 AM 13.74 56.732 0.084 7.07 4.49 8.24
5/5/2021 1:00:00 AM 13.7 56.66 0.085 7.06 4.69 8.23
5/5/2021 1:15:00 AM 13.66 56.588 0.085 7.05 4.81 8.34
5/5/2021 1:30:00 AM 13.62 56.516 0.085 7.06 4.87 8.18
5/5/2021 1:45:00 AM 13.59 56.462 0.085 7.06 4.97 8.04
5/5/2021 2:00:00 AM 13.55 56.39 0.085 7.06 4.95 8.08
5/5/2021 2:15:00 AM 13.52 56.336 0.085 7.06 5.25 8.24
5/5/2021 2:30:00 AM 13.49 56.282 0.085 7.06 5.22 8.24
5/5/2021 2:45:00 AM 13.47 56.246 0.085 7.06 5.49 8.22
5/5/2021 3:00:00 AM 13.45 56.21 0.085 7.07 5.77 8.29
5/5/2021 3:15:00 AM 13.43 56.174 0.085 7.07 5.66 8.28
5/5/2021 3:30:00 AM 13.4 56.12 0.086 7.06 5.87 8.39
5/5/2021 3:45:00 AM 13.37 56.066 0.086 7.06 6.19 8.32
5/5/2021 4:00:00 AM 13.35 56.03 0.086 7.07 5.9 8.06
5/5/2021 4:15:00 AM 13.32 55.976 0.086 7.07 6.33 8.49
5/5/2021 4:30:00 AM 13.29 55.922 0.086 7.08 6.41 8.52
5/5/2021 4:45:00 AM 13.27 55.886 0.086 7.08 6.36 8.65
5/5/2021 5:00:00 AM 13.23 55.814 0.086 7.08 12.64 8.89
5/5/2021 5:15:00 AM 13.2 55.76 0.085 7.09 80.04 8.97
5/5/2021 5:30:00 AM 13.17 55.706 0.085 7.09 74.23 9.02
5/5/2021 5:45:00 AM 13.14 55.652 0.085 7.09 18.87 8.97
5/5/2021 6:00:00 AM 13.12 55.616 0.085 7.06 14.87 8.9
5/5/2021 6:15:00 AM 13.1 55.58 0.085 7.08 17.32 8.82
5/5/2021 6:30:00 AM 13.08 55.544 0.086 7.07 10.08 8.81
5/5/2021 6:45:00 AM 13.06 55.508 0.086 7.08 6.36 8.37
5/5/2021 7:00:00 AM 13.05 55.49 0.085 7.07 5.73 8.31
5/5/2021 7:15:00 AM 13.04 55.472 0.086 7.11 5.57 8.58
5/5/2021 7:30:00 AM 13.02 55.436 0.085 7.12 5.88 8.41
5/5/2021 7:45:00 AM 13.01 55.418 0.085 7.15 6.39 9.13
5/5/2021 8:00:00 AM 13.01 55.418 0.084 7.17 4.83 9.13
5/5/2021 8:15:00 AM 13.01 55.418 0.084 7.19 4.85 9.03
5/5/2021 8:30:00 AM 13.02 55.436 0.084 7.2 5.13 9.14
5/5/2021 8:45:00 AM 13.01 55.418 0.084 7.22 4.82 8.83
5/5/2021 9:00:00 AM 13.02 55.436 0.084 7.23 4.4 8.91
5/5/2021 9:15:00 AM 13.02 55.436 0.084 7.23 4.6 8.87
5/5/2021 9:30:00 AM 13.03 55.454 0.084 7.25 4.3 9.3
5/5/2021 9:45:00 AM 13.06 55.508 0.084 7.24 4.51 9.16
5/5/2021 10:00:00 AM 13.09 55.562 0.084 7.26 4.26 9.25
5/5/2021 10:15:00 AM 13.1 55.58 0.084 7.28 4.52 9.23
5/5/2021 10:30:00 AM 13.11 55.598 0.084 7.28 4.24 9.38
5/5/2021 10:45:00 AM 13.13 55.634 0.084 7.26 4.14 9.2
5/5/2021 11:00:00 AM 13.14 55.652 0.083 7.32 4.14 9.38
5/5/2021 11:15:00 AM 13.15 55.67 0.083 7.3 4.28 9.06
5/5/2021 11:30:00 AM 13.14 55.652 0.083 7.31 4.44 9.07
5/5/2021 11:45:00 AM 13.14 55.652 0.083 7.28 4.32 9
5/5/2021 12:00:00 PM 13.12 55.616 0.083 7.3 4.36 8.97
5/5/2021 12:15:00 PM 13.11 55.598 0.083 7.28 4.52 8.98
5/5/2021 12:30:00 PM 13.1 55.58 0.083 7.27 5.56 8.97
5/5/2021 12:45:00 PM 13.09 55.562 0.082 7.28 5.66 9.05
5/5/2021 1:00:00 PM 13.08 55.544 0.082 7.3 7.17 8.86
5/5/2021 1:15:00 PM 13.06 55.508 0.082 7.31 8.16 9.25
5/5/2021 1:30:00 PM 13.04 55.472 0.082 7.33 8.92 8.94
5/5/2021 1:45:00 PM 13.03 55.454 0.082 7.33 9.54 9.13
5/5/2021 2:00:00 PM 13.01 55.418 0.082 7.39 10.95 9.44
5/5/2021 2:15:00 PM 13.01 55.418 0.082 7.39 12.26 9.1
5/5/2021 2:30:00 PM 12.99 55.382 0.082 7.4 12.43 9.31
5/5/2021 2:45:00 PM 12.96 55.328 0.082 7.41 12.24 9.36
5/5/2021 3:00:00 PM 12.94 55.292 0.083 7.4 11.77 9.27
5/5/2021 3:15:00 PM 12.91 55.238 0.083 7.31 11.65 9.37
5/5/2021 3:30:00 PM 12.87 55.166 0.082 7.33 16.41 9.61
5/5/2021 3:45:00 PM 12.83 55.094 0.081 7.38 14.2 9.64
5/5/2021 4:00:00 PM 12.8 55.04 0.081 7.32 12.39 9.27
5/5/2021 4:15:00 PM 12.78 55.004 0.081 7.37 12.15 9.66
5/5/2021 4:30:00 PM 12.76 54.968 0.081 7.29 12.05 9.55
5/5/2021 4:45:00 PM 12.73 54.914 0.081 7.32 13.69 9.51
5/5/2021 5:00:00 PM 12.69 54.842 0.081 7.26 13.93 9.35
5/5/2021 5:15:00 PM 12.64 54.752 0.081 7.29 14.07 9.35
5/5/2021 5:30:00 PM 12.58 54.644 0.081 7.22 13.68 9.41
5/5/2021 5:45:00 PM 12.54 54.572 0.081 7.22 13.23 9.33
5/5/2021 6:00:00 PM 12.48 54.464 0.081 7.21 12.78 9.13
5/5/2021 6:15:00 PM 12.43 54.374 0.082 7.24 24.5 9.33
5/5/2021 6:30:00 PM 12.39 54.302 0.081 7.22 13.66 9.16
5/5/2021 6:45:00 PM 12.33 54.194 0.081 7.2 12.29 8.85
5/5/2021 7:00:00 PM 12.29 54.122 0.081 7.19 11.46 9.11
5/5/2021 7:15:00 PM 12.23 54.014 0.081 7.18 10.72 9.1
5/5/2021 7:30:00 PM 12.18 53.924 0.081 7.17 9.94 9.59
5/5/2021 7:45:00 PM 12.13 53.834 0.081 7.12 10.33 9.01
5/5/2021 8:00:00 PM 12.06 53.708 0.081 7.15 10.43 9.33
5/5/2021 8:15:00 PM 12 53.6 0.081 7.17 10.77 9.22
5/5/2021 8:30:00 PM 11.91 53.438 0.081 7.17 18.22 9.32
5/5/2021 8:45:00 PM 11.88 53.384 0.081 7.2 12.23 9.34
5/5/2021 9:00:00 PM 11.82 53.276 0.08 7.19 11.55 9.01
5/5/2021 9:15:00 PM 11.77 53.186 0.081 7.15 11.38 9.24
5/5/2021 9:30:00 PM 11.73 53.114 0.081 7.15 11.19 9.31
5/5/2021 9:45:00 PM 11.69 53.042 0.082 7.18 10.7 9.02
5/5/2021 10:00:00 PM 11.64 52.952 0.082 7.17 10.32 9.39
5/5/2021 10:15:00 PM 11.62 52.916 0.083 7.16 10.14 9.33
5/5/2021 10:30:00 PM 11.58 52.844 0.084 7.15 9.67 9.14
5/5/2021 10:45:00 PM 11.52 52.736 0.086 7.16 10.29 9.36
5/5/2021 11:00:00 PM 11.47 52.646 0.089 7.16 10.91 9.31
5/5/2021 11:15:00 PM 11.41 52.538 0.089 7.14 12.17 9.41
5/5/2021 11:30:00 PM 11.38 52.484 0.088 7.15 12.4 9.21
5/5/2021 11:45:00 PM 11.33 52.394 0.087 7.17 12.52 9.55
5/6/2021 12:00:00 AM 11.29 52.322 0.085 7.13 11.58 9.48
5/6/2021 12:15:00 AM 11.26 52.268 0.083 7.15 10.26 9.3
5/6/2021 12:30:00 AM 11.21 52.178 0.081 7.12 9.32 9.44
5/6/2021 12:45:00 AM 11.16 52.088 0.08 7.13 8.75 9.54
5/6/2021 1:00:00 AM 11.11 51.998 0.08 7.12 8.03 9.7
5/6/2021 1:15:00 AM 11.07 51.926 0.08 7.13 7.84 9.7
5/6/2021 1:30:00 AM 11.02 51.836 0.079 7.14 7.32 9.08
5/6/2021 1:45:00 AM 10.98 51.764 0.079 7.11 7.01 9.49
5/6/2021 2:00:00 AM 10.93 51.674 0.079 7.14 7.06 9.66
5/6/2021 2:15:00 AM 10.88 51.584 0.079 7.12 8.27 9.47
5/6/2021 2:30:00 AM 10.81 51.458 0.079 7.13 6.88 9.52
5/6/2021 2:45:00 AM 10.75 51.35 0.079 7.15 9.24 9.83
5/6/2021 3:00:00 AM 10.71 51.278 0.079 7.13 7.6 9.59
5/6/2021 3:15:00 AM 10.67 51.206 0.079 7.12 7.24 9.7
5/6/2021 3:30:00 AM 10.62 51.116 0.079 7.14 9.45 9.62
5/6/2021 3:45:00 AM 10.57 51.026 0.079 7.13 7.95 9.77
5/6/2021 4:00:00 AM 10.5 50.9 0.079 7.14 12.22 9.8
5/6/2021 4:15:00 AM 10.45 50.81 0.079 7.15 109.59 9.88
5/6/2021 4:30:00 AM 10.4 50.72 0.079 7.14 17.58 9.82
5/6/2021 4:45:00 AM 10.36 50.648 0.079 7.13 17.6 9.79
5/6/2021 5:00:00 AM 10.31 50.558 0.079 7.14 23.4 9.84
5/6/2021 5:15:00 AM 10.28 50.504 0.08 7.11 12.91 9.69
5/6/2021 5:30:00 AM 10.26 50.468 0.08 7.1 9.55 9.61
5/6/2021 5:45:00 AM 10.22 50.396 0.08 7.1 8.14 9.57
5/6/2021 6:00:00 AM 10.19 50.342 0.08 7.07 7.12 9.69
5/6/2021 6:15:00 AM 10.17 50.306 0.08 7.07 6.56 9.67
5/6/2021 6:30:00 AM 10.13 50.234 0.08 7.08 5.96 9.41
5/6/2021 6:45:00 AM 10.11 50.198 0.08 7.09 5.77 9.53
5/6/2021 7:00:00 AM 10.08 50.144 0.08 7.1 6.16 9.16
5/6/2021 7:15:00 AM 10.05 50.09 0.08 7.13 5.62 9.84
5/6/2021 7:30:00 AM 10.02 50.036 0.081 7.14 5.34 10.11
5/6/2021 7:45:00 AM 9.98 49.964 0.08 7.14 5.58 10.23
5/6/2021 8:00:00 AM 9.94 49.892 0.08 7.14 5.53 9.8
5/6/2021 8:15:00 AM 9.91 49.838 0.08 7.19 5.15 9.91
5/6/2021 8:30:00 AM 9.91 49.838 0.08 7.19 5.14 10.37
5/6/2021 8:45:00 AM 9.89 49.802 0.08 7.22 5.16 10.01
5/6/2021 9:00:00 AM 9.89 49.802 0.08 7.19 5.1 9.9
5/6/2021 9:15:00 AM 9.92 49.856 0.08 7.2 4.98 10.24
5/6/2021 9:30:00 AM 9.97 49.946 0.08 7.19 5.11 9.73
5/6/2021 9:45:00 AM 10.04 50.072 0.08 7.26 4.78 10.18
5/6/2021 10:00:00 AM 10.18 50.324 0.08 7.35 4.7 10.64
5/6/2021 10:15:00 AM 10.31 50.558 0.08 7.24 4.78 10.45
5/6/2021 10:30:00 AM 10.43 50.774 0.08 7.39 4.64 10.66
5/6/2021 10:45:00 AM 10.51 50.918 0.08 7.36 4.63 10.16
5/6/2021 11:00:00 AM 10.64 51.152 0.08 7.29 4.84 10.35
5/6/2021 11:15:00 AM 10.78 51.404 0.08 7.37 5.1 10.33
5/6/2021 11:30:00 AM 10.92 51.656 0.08 7.3 4.58 10.19
5/6/2021 11:45:00 AM 11.1 51.98 0.08 7.32 4.42 10.25
5/6/2021 12:00:00 PM 11.33 52.394 0.08 7.29 4.58 10.19
5/6/2021 12:15:00 PM 11.58 52.844 0.08 7.37 5.6 10.46
5/6/2021 12:30:00 PM 11.83 53.294 0.08 7.35 4.53 10.25
5/6/2021 12:45:00 PM 12.1 53.78 0.081 7.23 4.27 10.17
5/6/2021 1:00:00 PM 12.38 54.284 0.08 7.26 4.3 10.07
5/6/2021 1:15:00 PM 12.61 54.698 0.081 7.3 4.38 9.96
5/6/2021 1:30:00 PM 12.82 55.076 0.08 7.35 4.37 10.09
5/6/2021 1:45:00 PM 13.04 55.472 0.08 7.25 4.58 10.19
5/6/2021 2:00:00 PM 13.2 55.76 0.08 7.38 9.82 10.13
5/6/2021 2:15:00 PM 13.34 56.012 0.08 7.34 4.98 9.76
5/6/2021 2:30:00 PM 13.53 56.354 0.08 7.28 5.03 9.71
5/6/2021 2:45:00 PM 13.74 56.732 0.08 7.29 4.28 9.81
5/6/2021 3:00:00 PM 13.92 57.056 0.08 7.2 4.27 9.59
5/6/2021 3:15:00 PM 14.12 57.416 0.08 7.16 4.08 9.59
5/6/2021 3:30:00 PM 14.36 57.848 0.08 7.3 20.3 9.42
5/6/2021 3:45:00 PM 14.46 58.028 0.079 7.22 7.07 9.51
5/6/2021 4:00:00 PM 14.62 58.316 0.079 7.47 15.84 9.82
5/6/2021 4:15:00 PM 14.66 58.388 0.079 7.46 6.89 9.35
5/6/2021 4:30:00 PM 14.66 58.388 0.079 7.34 44.17 8.93
5/6/2021 4:45:00 PM 14.64 58.352 0.079 7.32 5.35 9.27
5/6/2021 5:00:00 PM 14.61 58.298 0.079 7.29 4.83 9.11
5/6/2021 5:15:00 PM 14.55 58.19 0.08 7.25 4.69 9.22
5/6/2021 5:30:00 PM 14.45 58.01 0.079 7.25 4.53 9.48
5/6/2021 5:45:00 PM 14.35 57.83 0.079 7.23 5.04 9.33
5/6/2021 6:00:00 PM 14.2 57.56 0.08 7.15 4.18 9.37
5/6/2021 6:15:00 PM 14.07 57.326 0.08 7.13 4.22 9.03
5/6/2021 6:30:00 PM 13.91 57.038 0.08 7.26 7.86 9.44
5/6/2021 6:45:00 PM 13.81 56.858 0.08 7.24 5.29 9.23
5/6/2021 7:00:00 PM 13.66 56.588 0.081 7.21 4.72 9.58
5/6/2021 7:15:00 PM 13.5 56.3 0.081 7.22 5.45 9.64
5/6/2021 7:30:00 PM 13.33 55.994 0.081 7.18 4.58 8.53
5/6/2021 7:45:00 PM 13.16 55.688 0.082 7.17 7.21 9.13
5/6/2021 8:00:00 PM 13.02 55.436 0.082 7.09 4.93 9.15
5/6/2021 8:15:00 PM 12.82 55.076 0.082 7.17 10.44 9.24
5/6/2021 8:30:00 PM 12.63 54.734 0.083 7.18 138.42 9.26
5/6/2021 8:45:00 PM 12.52 54.536 0.083 7.16 19.63 9.15
5/6/2021 9:00:00 PM 12.41 54.338 0.083 7.12 8.56 8.93
5/6/2021 9:15:00 PM 12.28 54.104 0.084 7.02 5.19 8.97
5/6/2021 9:30:00 PM 12.15 53.87 0.084 7.01 5.58 8.89
5/6/2021 9:45:00 PM 12.03 53.654 0.084 7.07 4.8 9.12
5/6/2021 10:00:00 PM 11.9 53.42 0.084 7.02 4.73 8.87
5/6/2021 10:15:00 PM 11.77 53.186 0.084 7 4.93 8.88
5/6/2021 10:30:00 PM 11.62 52.916 0.085 7.02 4.87 8.92
5/6/2021 10:45:00 PM 11.5 52.7 0.085 6.99 4.35 9.19
5/6/2021 11:00:00 PM 11.38 52.484 0.085 7 4.49 9.04
5/6/2021 11:15:00 PM 11.25 52.25 0.085 7.02 4.37 8.75
5/6/2021 11:30:00 PM 11.11 51.998 0.085 7.02 4.29 8.83
5/6/2021 11:45:00 PM 10.99 51.782 0.085 7.02 4.25 9.11
5/7/2021 12:00:00 AM 10.87 51.566 0.085 7.03 4.37 8.78
5/7/2021 12:15:00 AM 10.75 51.35 0.086 7.03 4.36 8.6
5/7/2021 12:30:00 AM 10.59 51.062 0.086 7.07 34.9 9.53
5/7/2021 12:45:00 AM 10.5 50.9 0.086 7.07 8.68 9.35
5/7/2021 1:00:00 AM 10.39 50.702 0.086 7.07 5.88 9.44
5/7/2021 1:15:00 AM 10.27 50.486 0.086 7.06 5.75 9.15
5/7/2021 1:30:00 AM 10.13 50.234 0.086 7.08 5.14 9.11
5/7/2021 1:45:00 AM 10.06 50.108 0.086 7.07 5.14 9.35
5/7/2021 2:00:00 AM 9.91 49.838 0.086 7.07 7.44 9.49
5/7/2021 2:15:00 AM 9.78 49.604 0.087 7.04 81.09 9.65
5/7/2021 2:30:00 AM 9.72 49.496 0.086 7.08 9.71 9.78
5/7/2021 2:45:00 AM 9.59 49.262 0.086 7.08 7.21 9.63
5/7/2021 3:00:00 AM 9.52 49.136 0.086 7.09 6.72 9.79
5/7/2021 3:15:00 AM 9.38 48.884 0.086 7.1 10.65 10.02
5/7/2021 3:30:00 AM 9.28 48.704 0.087 7.09 17.67 9.95
5/7/2021 3:45:00 AM 9.19 48.542 0.086 7.1 15.94 9.93
5/7/2021 4:00:00 AM 9.14 48.452 0.086 7.08 7.51 9.87
5/7/2021 4:15:00 AM 9.02 48.236 0.087 7.09 9.78 10.04
5/7/2021 4:30:00 AM 8.93 48.074 0.087 7.08 265.61 9.8
5/7/2021 4:45:00 AM 8.87 47.966 0.087 7.08 9.31 9.85
5/7/2021 5:00:00 AM 8.78 47.804 0.087 7.06 13.93 9.97
5/7/2021 5:15:00 AM 8.71 47.678 0.087 7.06 6.97 9.68
5/7/2021 5:30:00 AM 8.64 47.552 0.087 7.05 8.2 9.6
5/7/2021 5:45:00 AM 8.56 47.408 0.087 7.06 5.39 9.55
5/7/2021 6:00:00 AM 8.49 47.282 0.087 7.06 4.43 9.67
5/7/2021 6:15:00 AM 8.43 47.174 0.087 7.01 5.32 9.33
5/7/2021 6:30:00 AM 8.37 47.066 0.087 7.01 4.47 9.5
5/7/2021 6:45:00 AM 8.3 46.94 0.087 6.99 4.69 9.4
5/7/2021 7:00:00 AM 8.25 46.85 0.087 6.99 4.32 9.55
5/7/2021 7:15:00 AM 8.2 46.76 0.087 7.11 4.99 9.67
5/7/2021 7:30:00 AM 8.16 46.688 0.086 7.07 4.15 9.62
5/7/2021 7:45:00 AM 8.14 46.652 0.087 7.09 4.19 9.68
5/7/2021 8:00:00 AM 8.11 46.598 0.086 7.13 3.98 9.91
5/7/2021 8:15:00 AM 8.1 46.58 0.086 7.14 4.28 9.82
5/7/2021 8:30:00 AM 8.1 46.58 0.086 7.16 3.86 10.05
5/7/2021 8:45:00 AM 8.12 46.616 0.086 7.19 3.92 10.21
5/7/2021 9:00:00 AM 8.16 46.688 0.086 7.19 3.86 10.37
5/7/2021 9:15:00 AM 8.22 46.796 0.086 7.15 3.71 10.32
5/7/2021 9:30:00 AM 8.3 46.94 0.085 7.15 3.74 10.64
5/7/2021 9:45:00 AM 8.4 47.12 0.085 7.31 3.73 10.53
5/7/2021 10:00:00 AM 8.51 47.318 0.086 7.32 3.79 10.49
5/7/2021 10:15:00 AM 8.66 47.588 0.085 7.29 3.56 10.88
5/7/2021 10:30:00 AM 8.84 47.912 0.085 7.28 3.65 10.78
5/7/2021 10:45:00 AM 9.02 48.236 0.085 7.36 3.64 10.4
5/7/2021 11:00:00 AM 9.25 48.65 0.085 7.27 3.65 10.89
5/7/2021 11:15:00 AM 9.48 49.064 0.085 7.34 3.61 10.63
5/7/2021 11:30:00 AM 9.72 49.496 0.085 7.39 3.8 10.75
5/7/2021 11:45:00 AM 9.94 49.892 0.085 7.39 3.55 10.5
5/7/2021 12:00:00 PM 10.19 50.342 0.085 7.46 3.56 10.5
5/7/2021 12:15:00 PM 10.36 50.648 0.085 7.42 3.64 10.58
5/7/2021 12:30:00 PM 10.49 50.882 0.085 7.42 3.71 10.21
5/7/2021 12:45:00 PM 10.65 51.17 0.085 7.36 14.85 10.26
5/7/2021 1:00:00 PM 10.73 51.314 0.084 7.37 5 10.27
5/7/2021 1:15:00 PM 10.84 51.512 0.085 7.45 5.86 10.24
5/7/2021 1:30:00 PM 10.92 51.656 0.084 7.46 4.16 10.22
5/7/2021 1:45:00 PM 11.02 51.836 0.085 7.38 4.07 10.01
5/7/2021 2:00:00 PM 11.1 51.98 0.085 7.42 3.96 10
5/7/2021 2:15:00 PM 11.18 52.124 0.084 7.42 4.89 10.2
5/7/2021 2:30:00 PM 11.25 52.25 0.084 7.41 3.93 10.22
5/7/2021 2:45:00 PM 11.32 52.376 0.084 7.45 6.28 10.35
5/7/2021 3:00:00 PM 11.35 52.43 0.084 7.35 4.25 10.21
5/7/2021 3:15:00 PM 11.39 52.502 0.084 7.3 4.88 9.9
5/7/2021 3:30:00 PM 11.44 52.592 0.083 7.33 4.17 10.23
5/7/2021 3:45:00 PM 11.47 52.646 0.083 7.35 4.3 10.18
5/7/2021 4:00:00 PM 11.48 52.664 0.083 7.38 3.82 10.01
5/7/2021 4:15:00 PM 11.48 52.664 0.083 7.35 3.8 9.8
5/7/2021 4:30:00 PM 11.48 52.664 0.083 7.35 3.92 9.78
5/7/2021 4:45:00 PM 11.48 52.664 0.084 7.38 3.85 9.64
5/7/2021 5:00:00 PM 11.46 52.628 0.083 7.32 3.79 9.58
5/7/2021 5:15:00 PM 11.44 52.592 0.084 7.22 3.56 9.25
5/7/2021 5:30:00 PM 11.44 52.592 0.083 7.26 4.08 9.32
5/7/2021 5:45:00 PM 11.44 52.592 0.083 7.34 8.54 9.64
5/7/2021 6:00:00 PM 11.43 52.574 0.083 7.34 105.93 10.2
5/7/2021 6:15:00 PM 11.41 52.538 0.083 7.32 9.49 10.18
5/7/2021 6:30:00 PM 11.39 52.502 0.083 7.3 16.35 9.98
5/7/2021 6:45:00 PM 11.35 52.43 0.083 7.29 5.59 9.05
5/7/2021 7:00:00 PM 11.31 52.358 0.083 7.28 5.52 9.89
5/7/2021 7:15:00 PM 11.26 52.268 0.083 7.3 11.92 10.01
5/7/2021 7:30:00 PM 11.2 52.16 0.083 7.25 5.93 9.81
5/7/2021 7:45:00 PM 11.13 52.034 0.083 7.27 27.86 9.3
5/7/2021 8:00:00 PM 11.08 51.944 0.083 7.23 8.73 9.77
5/7/2021 8:15:00 PM 11.02 51.836 0.083 7.2 7.27 9.46
5/7/2021 8:30:00 PM 10.94 51.692 0.084 7.16 10.75 9.6
5/7/2021 8:45:00 PM 10.89 51.602 0.084 7.17 18.4 9.62
5/7/2021 9:00:00 PM 10.86 51.548 0.083 7.15 10.7 9.45
5/7/2021 9:15:00 PM 10.8 51.44 0.083 7.16 6.66 9.44
5/7/2021 9:30:00 PM 10.76 51.368 0.083 7.14 4.75 9.17
5/7/2021 9:45:00 PM 10.71 51.278 0.084 7.13 4.71 9.13
5/7/2021 10:00:00 PM 10.66 51.188 0.084 7.11 4.33 8.99
5/7/2021 10:15:00 PM 10.61 51.098 0.084 7.12 4.26 8.92
5/7/2021 10:30:00 PM 10.55 50.99 0.084 7.09 5.73 9.27
5/7/2021 10:45:00 PM 10.51 50.918 0.084 7.09 5.01 8.99
5/7/2021 11:00:00 PM 10.47 50.846 0.084 7.09 4.59 9.04
5/7/2021 11:15:00 PM 10.41 50.738 0.084 7.1 8.12 9.57
5/7/2021 11:30:00 PM 10.39 50.702 0.084 7.09 5.34 9.07
5/7/2021 11:45:00 PM 10.35 50.63 0.084 7.09 5.29 9.01
5/8/2021 12:00:00 AM 10.31 50.558 0.084 7.08 5.08 9.12
5/8/2021 12:15:00 AM 10.25 50.45 0.084 7.09 5.82 9.42
5/8/2021 12:30:00 AM 10.22 50.396 0.084 7.09 16.66 9.45
5/8/2021 12:45:00 AM 10.18 50.324 0.084 7.11 8.41 9.17
5/8/2021 1:00:00 AM 10.13 50.234 0.084 7.1 12.06 9.39
5/8/2021 1:15:00 AM 10.09 50.162 0.084 7.08 6.92 9.39
5/8/2021 1:30:00 AM 10.05 50.09 0.084 7.07 6.12 9.36
5/8/2021 1:45:00 AM 10.02 50.036 0.084 7.09 7.92 9.36
5/8/2021 2:00:00 AM 9.97 49.946 0.084 7.08 5.53 9.22
5/8/2021 2:15:00 AM 9.94 49.892 0.083 7.09 5.14 9.69
5/8/2021 2:30:00 AM 9.89 49.802 0.083 7.1 8.96 9.7
5/8/2021 2:45:00 AM 9.87 49.766 0.083 7.1 6.71 9.65
5/8/2021 3:00:00 AM 9.84 49.712 0.083 7.07 6.12 9.01
5/8/2021 3:15:00 AM 9.8 49.64 0.083 7.09 6.4 9.34
5/8/2021 3:30:00 AM 9.76 49.568 0.082 7.11 8.36 9.4
5/8/2021 3:45:00 AM 9.72 49.496 0.082 7.11 8.82 8.96
5/8/2021 4:00:00 AM 9.68 49.424 0.082 7.12 8.78 9.08
5/8/2021 4:15:00 AM 9.63 49.334 0.081 7.13 11.97 8.88
5/8/2021 4:30:00 AM 9.57 49.226 0.081 7.11 13.76 8.9
5/8/2021 4:45:00 AM 9.51 49.118 0.081 7.12 17.47 9.93
5/8/2021 5:00:00 AM 9.47 49.046 0.081 7.14 17.25 9.97
5/8/2021 5:15:00 AM 9.39 48.902 0.08 7.14 19.99 10
5/8/2021 5:30:00 AM 9.35 48.83 0.08 7.15 21.82 10.18
5/8/2021 5:45:00 AM 9.29 48.722 0.079 7.17 23.37 10.31
5/8/2021 6:00:00 AM 9.2 48.56 0.077 7.22 33.87 10.46
5/8/2021 6:15:00 AM 9.15 48.47 0.077 7.2 46.98 10.46
5/8/2021 6:30:00 AM 9.08 48.344 0.075 7.23 42.31 10.55
5/8/2021 6:45:00 AM 9.05 48.29 0.074 7.16 44.94 9.99
5/8/2021 7:00:00 AM 8.99 48.182 0.073 7.19 42.28 10.34
5/8/2021 7:15:00 AM 8.95 48.11 0.072 7.12 49.09 10.24
5/8/2021 7:30:00 AM 8.91 48.038 0.071 7.1 42.55 10.03
5/8/2021 7:45:00 AM 8.85 47.93 0.07 7.16 74.51 9.1
5/8/2021 8:00:00 AM 8.81 47.858 0.069 7.19 231.59 10.13
5/8/2021 8:15:00 AM 8.79 47.822 0.068 7.21 103.17 10.42
5/8/2021 8:30:00 AM 8.78 47.804 0.068 7.2 102.84 10.66
5/8/2021 8:45:00 AM 8.76 47.768 0.068 7.2 85.24 10.61
5/8/2021 9:00:00 AM 8.75 47.75 0.067 7.22 78.05 10.71
5/8/2021 9:15:00 AM 8.75 47.75 0.067 7.22 79.03 10.69
5/8/2021 9:30:00 AM 8.75 47.75 0.066 7.22 82.21 10.76
5/8/2021 9:45:00 AM 8.75 47.75 0.066 7.23 109.28 10.79
5/8/2021 10:00:00 AM 8.78 47.804 0.066 7.22 64.87 10.7
5/8/2021 10:15:00 AM 8.8 47.84 0.065 7.22 60.67 10.62
5/8/2021 10:30:00 AM 8.83 47.894 0.065 7.23 40.97 10.73
5/8/2021 10:45:00 AM 8.87 47.966 0.065 7.24 100.39 10.74
5/8/2021 11:00:00 AM 8.91 48.038 0.065 7.25 37.49 10.73
5/8/2021 11:15:00 AM 8.95 48.11 0.065 7.25 33.87 10.73
5/8/2021 11:30:00 AM 9.01 48.218 0.065 7.25 32.79 10.7
5/8/2021 11:45:00 AM 9.06 48.308 0.065 7.27 27.74 10.47
5/8/2021 12:00:00 PM 9.09 48.362 0.065 7.27 28.22 10.39
5/8/2021 12:15:00 PM 9.1 48.38 0.066 7.26 25.08 10.67
5/8/2021 12:30:00 PM 9.12 48.416 0.066 7.26 68.47 10.63
5/8/2021 12:45:00 PM 9.16 48.488 0.066 7.27 55.34 10.62
5/8/2021 1:00:00 PM 9.19 48.542 0.066 7.27 30.65 10.59
5/8/2021 1:15:00 PM 9.2 48.56 0.066 7.2 60.73 10.33
5/8/2021 1:30:00 PM 9.23 48.614 0.067 7.27 41.27 10.54
5/8/2021 1:45:00 PM 9.23 48.614 0.067 7.23 20.93 10.44
5/8/2021 2:00:00 PM 9.29 48.722 0.067 7.26 87.57 10.61
5/8/2021 2:15:00 PM 9.33 48.794 0.067 7.26 50.4 10.62
5/8/2021 2:30:00 PM 9.36 48.848 0.068 7.25 84.8 10.46
5/8/2021 2:45:00 PM 9.41 48.938 0.068 7.23 87.76 9.97
5/8/2021 3:00:00 PM 9.44 48.992 0.068 7.22 33.06 9.95
5/8/2021 3:15:00 PM 9.49 49.082 0.068 7.21 17.15 10.24
5/8/2021 3:30:00 PM 9.53 49.154 0.068 7.25 15.67 10.13
5/8/2021 3:45:00 PM 9.54 49.172 0.069 7.27 17.83 10.15
5/8/2021 4:00:00 PM 9.57 49.226 0.069 7.26 17.18 10.31
5/8/2021 4:15:00 PM 9.62 49.316 0.069 7.24 13.85 10.21
5/8/2021 4:30:00 PM 9.68 49.424 0.069 7.27 13.6 10.32
5/8/2021 4:45:00 PM 9.73 49.514 0.07 7.29 12.77 10.41
5/8/2021 5:00:00 PM 9.77 49.586 0.07 7.29 12.36 10.41
5/8/2021 5:15:00 PM 9.84 49.712 0.07 7.28 13.19 10.01
5/8/2021 5:30:00 PM 9.95 49.91 0.071 7.23 12.14 10.15
5/8/2021 5:45:00 PM 10 50 0.071 7.25 12.28 10.16
5/8/2021 6:00:00 PM 10.01 50.018 0.071 7.23 11.17 10.11
5/8/2021 6:15:00 PM 10.01 50.018 0.071 7.21 13.56 9.91
5/8/2021 6:30:00 PM 10 50 0.072 7.22 11.13 9.93
5/8/2021 6:45:00 PM 10.01 50.018 0.072 7.21 10.82 9.98
5/8/2021 7:00:00 PM 10 50 0.072 7.18 11.41 9.54
5/8/2021 7:15:00 PM 10 50 0.072 7.19 13.22 9.95
5/8/2021 7:30:00 PM 9.98 49.964 0.072 7.19 10.35 9.76
5/8/2021 7:45:00 PM 9.94 49.892 0.072 7.15 10.45 9.62
5/8/2021 8:00:00 PM 9.88 49.784 0.073 7.15 10.13 9.66
5/8/2021 8:15:00 PM 9.82 49.676 0.073 7.15 10.44 9.48
5/8/2021 8:30:00 PM 9.75 49.55 0.073 7.14 64.98 10.02
5/8/2021 8:45:00 PM 9.69 49.442 0.074 7.15 172.16 10.23
5/8/2021 9:00:00 PM 9.65 49.37 0.074 7.14 214.07 9.96
5/8/2021 9:15:00 PM 9.6 49.28 0.074 7.13 228.1 10
5/8/2021 9:30:00 PM 9.54 49.172 0.074 7.12 48.72 9.62
5/8/2021 9:45:00 PM 9.48 49.064 0.074 7.12 20.79 9.72
5/8/2021 10:00:00 PM 9.41 48.938 0.075 7.12 44.15 9.55
5/8/2021 10:15:00 PM 9.34 48.812 0.075 7.11 16.65 9.57
5/8/2021 10:30:00 PM 9.27 48.686 0.075 7.12 17.91 9.97
5/8/2021 10:45:00 PM 9.2 48.56 0.075 7.11 42.99 9.61
5/8/2021 11:00:00 PM 9.13 48.434 0.075 7.12 50.57 10.32
5/8/2021 11:15:00 PM 9.08 48.344 0.076 7.12 16.83 9.84
5/8/2021 11:30:00 PM 9 48.2 0.076 7.11 90.12 10.3
5/8/2021 11:45:00 PM 8.94 48.092 0.076 7.1 64.9 10.3
5/9/2021 12:00:00 AM 8.88 47.984 0.076 7.12 373.87 10.3
5/9/2021 12:15:00 AM 8.83 47.894 0.076 7.11 77.88 10.04
5/9/2021 12:30:00 AM 8.76 47.768 0.076 7.1 70.21 10.08
5/9/2021 12:45:00 AM 8.69 47.642 0.076 7.09 78.84 10.04
5/9/2021 1:00:00 AM 8.63 47.534 0.076 7.1 15.96 10.07
5/9/2021 1:15:00 AM 8.57 47.426 0.076 7.09 14.18 10.18
5/9/2021 1:30:00 AM 8.5 47.3 0.076 7.1 13.28 9.92
5/9/2021 1:45:00 AM 8.43 47.174 0.076 7.1 52.14 10.34
5/9/2021 2:00:00 AM 8.36 47.048 0.076 7.1 11.43 10.36
5/9/2021 2:15:00 AM 8.29 46.922 0.076 7.1 83.14 10.52
5/9/2021 2:30:00 AM 8.23 46.814 0.076 7.08 77.91 10.45
5/9/2021 2:45:00 AM 8.16 46.688 0.076 7.08 36.06 10.49
5/9/2021 3:00:00 AM 8.08 46.544 0.077 7.09 97.19 10.52
5/9/2021 3:15:00 AM 8.03 46.454 0.076 7.08 21.51 10.35
5/9/2021 3:30:00 AM 7.95 46.31 0.076 7.1 89.75 10.73
5/9/2021 3:45:00 AM 7.9 46.22 0.076 7.12 16.57 10.64
5/9/2021 4:00:00 AM 7.83 46.094 0.076 7.11 125.99 10.73
5/9/2021 4:15:00 AM 7.78 46.004 0.076 7.07 65.82 10.37
5/9/2021 4:30:00 AM 7.72 45.896 0.076 7.1 54.06 10.77
5/9/2021 4:45:00 AM 7.66 45.788 0.076 7.09 204.7 10.8
5/9/2021 5:00:00 AM 7.61 45.698 0.076 7.09 31.66 10.76
5/9/2021 5:15:00 AM 7.56 45.608 0.076 7.06 21.19 10.39
5/9/2021 5:30:00 AM 7.5 45.5 0.076 7.08 20.7 10.54
5/9/2021 5:45:00 AM 7.45 45.41 0.076 7.08 16.66 10.55
5/9/2021 6:00:00 AM 7.4 45.32 0.076 7.08 12 10.53
5/9/2021 6:15:00 AM 7.35 45.23 0.076 7.09 9.28 10.34
5/9/2021 6:30:00 AM 7.31 45.158 0.076 7.08 9.67 10.36
5/9/2021 6:45:00 AM 7.28 45.104 0.076 7.08 9.68 10.61
5/9/2021 7:00:00 AM 7.25 45.05 0.076 7.1 8.01 10.77
5/9/2021 7:15:00 AM 7.22 44.996 0.076 7.11 7.61 10.79
5/9/2021 7:30:00 AM 7.21 44.978 0.076 7.11 8.56 10.69
5/9/2021 7:45:00 AM 7.21 44.978 0.076 7.1 7.94 10.76
5/9/2021 8:00:00 AM 7.22 44.996 0.076 7.13 8.95 10.98
5/9/2021 8:15:00 AM 7.26 45.068 0.075 7.15 8.56 10.93
5/9/2021 8:30:00 AM 7.29 45.122 0.075 7.15 7.5 11.04
5/9/2021 8:45:00 AM 7.34 45.212 0.075 7.17 7.53 11.05
5/9/2021 9:00:00 AM 7.42 45.356 0.075 7.17 6.93 11.14
5/9/2021 9:15:00 AM 7.52 45.536 0.075 7.2 6.69 11.15
5/9/2021 9:30:00 AM 7.63 45.734 0.075 7.21 6.5 11.17
5/9/2021 9:45:00 AM 7.76 45.968 0.075 7.21 6.76 11.11
5/9/2021 10:00:00 AM 7.9 46.22 0.075 7.24 6.85 11.12
5/9/2021 10:15:00 AM 8.07 46.526 0.075 7.26 6.34 11.16
5/9/2021 10:30:00 AM 8.23 46.814 0.075 7.31 6.82 11.17
5/9/2021 10:45:00 AM 8.37 47.066 0.074 7.27 6.43 11.15
5/9/2021 11:00:00 AM 8.53 47.354 0.074 7.3 6.34 11.11
5/9/2021 11:15:00 AM 8.68 47.624 0.074 7.34 6.42 11.1
5/9/2021 11:30:00 AM 8.8 47.84 0.074 7.32 6.19 11.04
5/9/2021 11:45:00 AM 8.92 48.056 0.074 7.32 6.87 10.98
5/9/2021 12:00:00 PM 9.06 48.308 0.074 7.34 6.11 10.98
5/9/2021 12:15:00 PM 9.21 48.578 0.074 7.32 6.41 11.01
5/9/2021 12:30:00 PM 9.35 48.83 0.074 7.34 6.12 11.01
5/9/2021 12:45:00 PM 9.49 49.082 0.074 7.36 5.96 10.95
5/9/2021 1:00:00 PM 9.61 49.298 0.074 7.35 6.04 10.85
5/9/2021 1:15:00 PM 9.7 49.46 0.073 7.37 6.08 10.84
5/9/2021 1:30:00 PM 9.78 49.604 0.074 7.33 5.81 10.61
5/9/2021 1:45:00 PM 9.83 49.694 0.073 7.37 5.69 10.76
5/9/2021 2:00:00 PM 9.87 49.766 0.073 7.34 6.04 10.61
5/9/2021 2:15:00 PM 9.89 49.802 0.073 7.32 9.05 10.2
5/9/2021 2:30:00 PM 9.9 49.82 0.073 7.33 5.87 10.23
5/9/2021 2:45:00 PM 9.9 49.82 0.073 7.31 5.88 10.3
5/9/2021 3:00:00 PM 9.91 49.838 0.073 7.31 6.02 10.52
5/9/2021 3:15:00 PM 9.92 49.856 0.073 7.32 6.02 10.5
5/9/2021 3:30:00 PM 9.93 49.874 0.073 7.3 6.03 10.44
5/9/2021 3:45:00 PM 9.92 49.856 0.073 7.3 6.03 10.46
5/9/2021 4:00:00 PM 9.89 49.802 0.073 7.3 5.99 10.07
5/9/2021 4:15:00 PM 9.84 49.712 0.073 7.27 7.02 10.09
5/9/2021 4:30:00 PM 9.79 49.622 0.073 7.26 6.08 9.9
5/9/2021 4:45:00 PM 9.75 49.55 0.072 7.26 6.09 10.26
5/9/2021 5:00:00 PM 9.7 49.46 0.072 7.25 6.17 10.46
5/9/2021 5:15:00 PM 9.64 49.352 0.072 7.22 6.95 10.05
5/9/2021 5:30:00 PM 9.58 49.244 0.074 7.2 8.01 9.98
5/9/2021 5:45:00 PM 9.52 49.136 0.074 7.19 7.44 9.79
5/9/2021 6:00:00 PM 9.46 49.028 0.072 7.16 7.44 9.59
5/9/2021 6:15:00 PM 9.39 48.902 0.072 7.17 8.41 9.74
5/9/2021 6:30:00 PM 9.33 48.794 0.072 7.17 8.94 9.9
5/9/2021 6:45:00 PM 9.26 48.668 0.072 7.17 10.23 9.8
5/9/2021 7:00:00 PM 9.2 48.56 0.072 7.16 10.23 10
5/9/2021 7:15:00 PM 9.12 48.416 0.072 7.14 11.67 10.22
5/9/2021 7:30:00 PM 9.05 48.29 0.072 7.14 12.9 9.85
5/9/2021 7:45:00 PM 8.99 48.182 0.072 7.13 13.28 9.99
5/9/2021 8:00:00 PM 8.93 48.074 0.072 7.14 14.81 10.15
5/9/2021 8:15:00 PM 8.85 47.93 0.072 7.16 14.82 10.46
5/9/2021 8:30:00 PM 8.79 47.822 0.072 7.16 180.96 10.5
5/9/2021 8:45:00 PM 8.74 47.732 0.072 7.14 307.09 10.37
5/9/2021 9:00:00 PM 8.69 47.642 0.071 7.12 165.28 10.26
5/9/2021 9:15:00 PM 8.65 47.57 0.071 7.1 90.01 10.25
5/9/2021 9:30:00 PM 8.61 47.498 0.071 7.13 32.49 10.41
5/9/2021 9:45:00 PM 8.56 47.408 0.071 7.15 48.38 10.55
5/9/2021 10:00:00 PM 8.52 47.336 0.071 7.14 143.22 10.36
5/9/2021 10:15:00 PM 8.48 47.264 0.071 7.11 105.14 10.2
5/9/2021 10:30:00 PM 8.43 47.174 0.07 7.12 236.93 10.62
5/9/2021 10:45:00 PM 8.4 47.12 0.07 7.13 453.21 10.6
5/9/2021 11:00:00 PM 8.38 47.084 0.07 7.15 90.5 10.43
5/9/2021 11:15:00 PM 8.34 47.012 0.069 7.15 218.33 10.66
5/9/2021 11:30:00 PM 8.31 46.958 0.069 7.15 153.62 10.7
5/9/2021 11:45:00 PM 8.29 46.922 0.068 7.14 146.26 10.5
5/10/2021 12:00:00 AM 8.26 46.868 0.068 7.14 98.98 10.66
5/10/2021 12:15:00 AM 8.24 46.832 0.067 7.13 154.29 10.67
5/10/2021 12:30:00 AM 8.22 46.796 0.067 7.14 110.84 10.75
5/10/2021 12:45:00 AM 8.2 46.76 0.066 7.15 54.76 10.79
5/10/2021 1:00:00 AM 8.18 46.724 0.066 7.14 113.18 10.79
5/10/2021 1:15:00 AM 8.16 46.688 0.065 7.13 90.27 10.75
5/10/2021 1:30:00 AM 8.15 46.67 0.065 7.15 71.82 10.63
5/10/2021 1:45:00 AM 8.12 46.616 0.064 7.14 104.82 10.81
5/10/2021 2:00:00 AM 8.11 46.598 0.064 7.12 209.16 10.84
5/10/2021 2:15:00 AM 8.1 46.58 0.063 7.13 107.8 10.81
5/10/2021 2:30:00 AM 8.09 46.562 0.062 7.13 135.17 10.79
5/10/2021 2:45:00 AM 8.08 46.544 0.062 7.12 114.03 10.79
5/10/2021 3:00:00 AM 8.07 46.526 0.062 7.12 163.1 10.83
5/10/2021 3:15:00 AM 8.06 46.508 0.061 7.11 314.77 10.82
5/10/2021 3:30:00 AM 8.06 46.508 0.061 7.11 146.4 10.79
5/10/2021 3:45:00 AM 8.05 46.49 0.061 7.06 302.79 10.78
5/10/2021 4:00:00 AM 8.05 46.49 0.061 7.08 311.41 10.82
5/10/2021 4:15:00 AM 8.04 46.472 0.06 7.1 102.56 10.9
5/10/2021 4:30:00 AM 8.03 46.454 0.06 7.07 135.06 10.82
5/10/2021 4:45:00 AM 8.03 46.454 0.06 7.08 239.09 10.74
5/10/2021 5:00:00 AM 8.02 46.436 0.06 7.08 274 10.91
5/10/2021 5:15:00 AM 8.01 46.418 0.06 7.08 122.77 10.8
5/10/2021 5:30:00 AM 8.01 46.418 0.061 7.07 611.06 10.82
5/10/2021 5:45:00 AM 8 46.4 0.061 7.07 352.93 10.84
5/10/2021 6:00:00 AM 7.99 46.382 0.061 7.08 131.3 10.9
5/10/2021 6:15:00 AM 7.98 46.364 0.061 7.08 98.19 10.82
5/10/2021 6:30:00 AM 7.98 46.364 0.061 7.08 1165.92 10.89
5/10/2021 6:45:00 AM 7.97 46.346 0.062 7.08 964.47 10.81
5/10/2021 7:00:00 AM 7.97 46.346 0.062 7.07 77.92 10.83
5/10/2021 7:15:00 AM 7.97 46.346 0.062 7.06 153.66 10.81
5/10/2021 7:30:00 AM 7.97 46.346 0.062 7.06 95.03 10.78
5/10/2021 7:45:00 AM 7.97 46.346 0.062 7.07 155.18 10.8
5/10/2021 8:00:00 AM 7.97 46.346 0.062 7.07 296.16 10.85
5/10/2021 8:15:00 AM 7.98 46.364 0.063 7.08 68.34 10.88
5/10/2021 8:30:00 AM 8 46.4 0.063 7.09 74.12 10.91
5/10/2021 8:45:00 AM 8.01 46.418 0.064 7.1 385.92 10.94
5/10/2021 9:00:00 AM 8.02 46.436 0.064 7.1 85.1 10.93
5/10/2021 9:15:00 AM 8.04 46.472 0.065 7.09 63.01 10.79
5/10/2021 9:30:00 AM 8.06 46.508 0.065 7.11 180.49 10.95
5/10/2021 9:45:00 AM 8.11 46.598 0.065 7.12 87.92 10.99
5/10/2021 10:00:00 AM 8.18 46.724 0.065 7.14 139.71 11.01
5/10/2021 10:15:00 AM 8.23 46.814 0.066 7.14 58.22 11.01
5/10/2021 10:30:00 AM 8.28 46.904 0.066 7.15 46.69 10.97
5/10/2021 10:45:00 AM 8.33 46.994 0.066 7.15 26.29 10.97
5/10/2021 11:00:00 AM 8.37 47.066 0.067 7.14 55.57 10.96
5/10/2021 11:15:00 AM 8.4 47.12 0.067 7.14 21.97 10.84
5/10/2021 11:30:00 AM 8.45 47.21 0.067 7.14 45.15 10.8
5/10/2021 11:45:00 AM 8.48 47.264 0.067 7.16 18.9 10.9
5/10/2021 12:00:00 PM 8.51 47.318 0.068 7.16 19.31 10.89
5/10/2021 12:15:00 PM 8.54 47.372 0.068 7.17 20.74 10.83
5/10/2021 12:30:00 PM 8.6 47.48 0.068 7.16 23.33 10.8
5/10/2021 12:45:00 PM 8.68 47.624 0.069 7.17 92.8 10.83
5/10/2021 1:00:00 PM 8.84 47.912 0.069 7.19 134.98 10.85
5/10/2021 1:15:00 PM 8.92 48.056 0.069 7.19 44.25 10.85
5/10/2021 1:30:00 PM 8.97 48.146 0.069 7.19 17.69 10.75
5/10/2021 1:45:00 PM 9.03 48.254 0.069 7.19 19.06 10.69
5/10/2021 2:00:00 PM 9.24 48.632 0.069 7.2 89.43 10.74
5/10/2021 2:15:00 PM 9.46 49.028 0.069 7.21 113.57 10.71
5/10/2021 2:30:00 PM 9.6 49.28 0.069 7.21 22.92 10.71
5/10/2021 2:45:00 PM 9.7 49.46 0.069 7.15 16.85 10.39
5/10/2021 3:00:00 PM 9.85 49.73 0.069 7.23 17.57 10.62
5/10/2021 3:15:00 PM 9.97 49.946 0.069 7.26 18.22 10.77
5/10/2021 3:30:00 PM 10.1 50.18 0.069 7.26 16.41 10.71
5/10/2021 3:45:00 PM 10.19 50.342 0.069 7.25 15.62 10.58
5/10/2021 4:00:00 PM 10.39 50.702 0.069 7.26 15.42 10.6
5/10/2021 4:15:00 PM 10.58 51.044 0.069 7.25 17.32 10.51
5/10/2021 4:30:00 PM 10.63 51.134 0.069 7.23 16.2 10.44
5/10/2021 4:45:00 PM 10.65 51.17 0.07 7.21 15.85 10.37
5/10/2021 5:00:00 PM 10.64 51.152 0.07 7.22 20.37 10.34
5/10/2021 5:15:00 PM 10.62 51.116 0.07 7.21 15.74 10.26
5/10/2021 5:30:00 PM 10.59 51.062 0.07 7.2 14.98 10.16
5/10/2021 5:45:00 PM 10.56 51.008 0.07 7.15 14.28 10.04
5/10/2021 6:00:00 PM 10.54 50.972 0.069 7.19 14 10.1
5/10/2021 6:15:00 PM 10.49 50.882 0.069 7.18 13.81 10.26
5/10/2021 6:30:00 PM 10.44 50.792 0.07 7.17 13.98 9.99
5/10/2021 6:45:00 PM 10.4 50.72 0.07 7.15 13.62 10.11
5/10/2021 7:00:00 PM 10.36 50.648 0.07 7.13 13.05 10.06
5/10/2021 7:15:00 PM 10.31 50.558 0.07 7.12 14.14 10.03
5/10/2021 7:30:00 PM 10.25 50.45 0.07 7.13 143.17 10.24
5/10/2021 7:45:00 PM 10.21 50.378 0.069 7.09 183.07 10.08
5/10/2021 8:00:00 PM 10.15 50.27 0.07 7.07 75.65 9.57
5/10/2021 8:15:00 PM 10.09 50.162 0.07 7.05 329.02 9.89
5/10/2021 8:30:00 PM 10.01 50.018 0.07 7.05 298.87 9.55
5/10/2021 8:45:00 PM 9.91 49.838 0.07 7.05 491.56 10.16
5/10/2021 9:00:00 PM 9.84 49.712 0.07 7.06 799.76 10.23
5/10/2021 9:15:00 PM 9.76 49.568 0.07 7.04 1394.29 10.01
5/10/2021 9:30:00 PM 9.68 49.424 0.069 7.04 244.09 10
5/10/2021 9:45:00 PM 9.58 49.244 0.07 7.03 191.24 10.18
5/10/2021 10:00:00 PM 9.48 49.064 0.07 7.01 438.19 10.39
5/10/2021 10:15:00 PM 9.4 48.92 0.07 7.02 492.19 10.22
5/10/2021 10:30:00 PM 9.32 48.776 0.07 7 467.02 10.11
5/10/2021 10:45:00 PM 9.23 48.614 0.07 7.02 203.24 10.39
5/10/2021 11:00:00 PM 9.15 48.47 0.07 7.01 448.69 10.26
5/10/2021 11:15:00 PM 9.07 48.326 0.07 7 652.34 10.39
5/10/2021 11:30:00 PM 8.99 48.182 0.07 7 235.87 10.46
5/10/2021 11:45:00 PM 8.92 48.056 0.07 7.01 151.76 10.46
5/11/2021 12:00:00 AM 8.84 47.912 0.07 6.99 209.72 10.39
5/11/2021 12:15:00 AM 8.78 47.804 0.07 6.99 287.41 10.42
5/11/2021 12:30:00 AM 8.71 47.678 0.07 6.99 689.32 10.46
5/11/2021 12:45:00 AM 8.64 47.552 0.07 7 165.42 10.42
5/11/2021 1:00:00 AM 8.57 47.426 0.07 7 209.24 10.62
5/11/2021 1:15:00 AM 8.5 47.3 0.07 6.99 150.32 10.66
5/11/2021 1:30:00 AM 8.44 47.192 0.07 6.99 45.11 10.57
5/11/2021 1:45:00 AM 8.39 47.102 0.07 6.99 749.4 10.59
5/11/2021 2:00:00 AM 8.32 46.976 0.07 7 27.96 10.68
5/11/2021 2:15:00 AM 8.27 46.886 0.07 6.99 107.9 10.63
5/11/2021 2:30:00 AM 8.2 46.76 0.07 6.97 1436.19 10.73
5/11/2021 2:45:00 AM 8.15 46.67 0.07 6.99 84.36 10.68
5/11/2021 3:00:00 AM 8.1 46.58 0.07 6.99 116.45 10.46
5/11/2021 3:15:00 AM 8.05 46.49 0.069 7 107.15 10.25
5/11/2021 3:30:00 AM 8.01 46.418 0.069 6.99 94.77 10.64
5/11/2021 3:45:00 AM 7.97 46.346 0.069 7 26.62 10.63
5/11/2021 4:00:00 AM 7.93 46.274 0.069 7 15.78 10.82
5/11/2021 4:15:00 AM 7.88 46.184 0.069 7 18.2 10.75
5/11/2021 4:30:00 AM 7.84 46.112 0.069 7 23.01 10.83
5/11/2021 4:45:00 AM 7.79 46.022 0.069 7.01 9.74 10.64
5/11/2021 5:00:00 AM 7.75 45.95 0.069 7.01 16.49 10.82
5/11/2021 5:15:00 AM 7.7 45.86 0.069 7.01 18.17 10.74
5/11/2021 5:30:00 AM 7.65 45.77 0.069 7.01 16.84 10.62
5/11/2021 5:45:00 AM 7.6 45.68 0.069 7.01 15.45 10.91
5/11/2021 6:00:00 AM 7.55 45.59 0.069 7.01 14.3 10.89
5/11/2021 6:15:00 AM 7.5 45.5 0.07 7 14.45 10.87
5/11/2021 6:30:00 AM 7.45 45.41 0.069 7.01 12.55 10.89
5/11/2021 6:45:00 AM 7.41 45.338 0.069 7.02 9.86 10.91
5/11/2021 7:00:00 AM 7.36 45.248 0.069 7.03 12.96 11.03
5/11/2021 7:15:00 AM 7.33 45.194 0.069 7.03 11.98 10.98
5/11/2021 7:30:00 AM 7.3 45.14 0.069 7.04 11.88 10.99
5/11/2021 7:45:00 AM 7.28 45.104 0.069 7.06 12.29 11.07
5/11/2021 8:00:00 AM 7.29 45.122 0.069 7.07 10.8 11.14
5/11/2021 8:15:00 AM 7.31 45.158 0.069 7.08 12.04 11.11
5/11/2021 8:30:00 AM 7.35 45.23 0.069 7.1 11.7 11.22
5/11/2021 8:45:00 AM 7.4 45.32 0.069 7.1 10.85 11.22
5/11/2021 9:00:00 AM 7.48 45.464 0.07 7.12 9.85 11.2
5/11/2021 9:15:00 AM 7.58 45.644 0.069 7.13 11.35 11.27
5/11/2021 9:30:00 AM 7.69 45.842 0.069 7.15 9.88 11.23
5/11/2021 9:45:00 AM 7.83 46.094 0.069 7.17 9.33 11.27
5/11/2021 10:00:00 AM 7.97 46.346 0.069 7.18 10.25 11.29
5/11/2021 10:15:00 AM 8.15 46.67 0.069 7.2 9.32 11.28
5/11/2021 10:30:00 AM 8.33 46.994 0.069 7.2 9.58 11.24
5/11/2021 10:45:00 AM 8.52 47.336 0.069 7.22 9.23 11.21
5/11/2021 11:00:00 AM 8.74 47.732 0.069 7.23 9.67 11.17
5/11/2021 11:15:00 AM 8.97 48.146 0.069 7.24 8.82 11.16
5/11/2021 11:30:00 AM 9.2 48.56 0.069 7.25 9 11.12
5/11/2021 11:45:00 AM 9.39 48.902 0.069 7.25 8.83 11.06
5/11/2021 12:00:00 PM 9.5 49.1 0.069 7.25 8.82 11.02
5/11/2021 12:15:00 PM 9.55 49.19 0.069 7.25 8.65 10.96
5/11/2021 12:30:00 PM 9.65 49.37 0.069 7.25 10.75 10.93
5/11/2021 12:45:00 PM 9.82 49.676 0.069 7.28 9.91 10.95
5/11/2021 1:00:00 PM 9.94 49.892 0.069 7.28 10.61 10.92
5/11/2021 1:15:00 PM 10.11 50.198 0.069 7.29 10.46 10.89
5/11/2021 1:30:00 PM 10.17 50.306 0.069 7.29 10.37 10.9
5/11/2021 1:45:00 PM 10.26 50.468 0.069 7.29 9.58 10.89
5/11/2021 2:00:00 PM 10.34 50.612 0.069 7.29 9.79 10.85
5/11/2021 2:15:00 PM 10.35 50.63 0.069 7.28 9.93 10.81
5/11/2021 2:30:00 PM 10.48 50.864 0.069 7.29 9.02 10.81
5/11/2021 2:45:00 PM 10.55 50.99 0.069 7.27 9.29 10.71
5/11/2021 3:00:00 PM 10.75 51.35 0.069 7.29 9.13 10.75
5/11/2021 3:15:00 PM 10.82 51.476 0.069 7.29 9.17 10.69
5/11/2021 3:30:00 PM 10.87 51.566 0.069 7.29 9.1 10.66
5/11/2021 3:45:00 PM 10.96 51.728 0.069 7.3 9.59 10.7
5/11/2021 4:00:00 PM 10.95 51.71 0.069 7.28 9.55 10.66
5/11/2021 4:15:00 PM 10.95 51.71 0.069 7.26 10.21 10.56
5/11/2021 4:30:00 PM 10.89 51.602 0.069 7.25 9.36 10.54
5/11/2021 4:45:00 PM 10.86 51.548 0.069 7.25 9.46 10.55
5/11/2021 5:00:00 PM 10.88 51.584 0.069 7.25 9.21 10.56
5/11/2021 5:15:00 PM 10.85 51.53 0.069 7.26 8.99 10.56
5/11/2021 5:30:00 PM 10.81 51.458 0.069 7.26 9.53 10.54
5/11/2021 5:45:00 PM 10.81 51.458 0.069 7.24 8.9 10.56
5/11/2021 6:00:00 PM 10.8 51.44 0.07 7.24 9.14 10.55
5/11/2021 6:15:00 PM 10.75 51.35 0.07 7.25 8.81 10.61
5/11/2021 6:30:00 PM 10.66 51.188 0.07 7.24 8.84 10.51
5/11/2021 6:45:00 PM 10.57 51.026 0.07 7.21 8.47 10.51
5/11/2021 7:00:00 PM 10.47 50.846 0.07 7.2 8.83 10.45
5/11/2021 7:15:00 PM 10.38 50.684 0.07 7.18 8.84 10.44
5/11/2021 7:30:00 PM 10.27 50.486 0.071 7.16 9.37 10.2
5/11/2021 7:45:00 PM 10.13 50.234 0.071 7.13 10.23 10.11
5/11/2021 8:00:00 PM 10.01 50.018 0.071 7.11 8.58 9.7
5/11/2021 8:15:00 PM 9.87 49.766 0.071 7.1 9.58 9.64
5/11/2021 8:30:00 PM 9.72 49.496 0.071 7.06 904.67 10.34
5/11/2021 8:45:00 PM 9.61 49.298 0.072 7.07 2039.8 10.28
5/11/2021 9:00:00 PM 9.52 49.136 0.072 7.06 62.18 10.16
5/11/2021 9:15:00 PM 9.43 48.974 0.072 7.05 103.5 10.14
5/11/2021 9:30:00 PM 9.32 48.776 0.072 7.04 68.82 9.89
5/11/2021 9:45:00 PM 9.23 48.614 0.072 7.02 12.78 10.1
5/11/2021 10:00:00 PM 9.14 48.452 0.072 7.04 46.38 10.11
5/11/2021 10:15:00 PM 9.04 48.272 0.072 7.04 73.31 10.38
5/11/2021 10:30:00 PM 8.94 48.092 0.072 7.04 228.19 10.19
5/11/2021 10:45:00 PM 8.87 47.966 0.073 7.05 224.05 10.36
5/11/2021 11:00:00 PM 8.79 47.822 0.073 7.03 61.01 10.28
5/11/2021 11:15:00 PM 8.7 47.66 0.073 7.04 98.45 10.54
5/11/2021 11:30:00 PM 8.64 47.552 0.073 7.04 307.32 10.47
5/11/2021 11:45:00 PM 8.57 47.426 0.073 7.01 133.16 10.51
5/12/2021 12:00:00 AM 8.5 47.3 0.073 7.02 31.98 10.59
5/12/2021 12:15:00 AM 8.43 47.174 0.073 7.03 47.63 10.22
5/12/2021 12:30:00 AM 8.36 47.048 0.073 7.01 39.81 10.51
5/12/2021 12:45:00 AM 8.29 46.922 0.073 7.03 17.57 10.69
5/12/2021 1:00:00 AM 8.22 46.796 0.073 7.02 124.28 10.69
5/12/2021 1:15:00 AM 8.15 46.67 0.073 7.02 13.85 10.59
5/12/2021 1:30:00 AM 8.09 46.562 0.073 7.03 8.94 10.73
5/12/2021 1:45:00 AM 8.03 46.454 0.073 7.02 65.62 10.69
5/12/2021 2:00:00 AM 7.96 46.328 0.073 7.03 12.59 10.75
5/12/2021 2:15:00 AM 7.9 46.22 0.073 7.03 90.33 10.76
5/12/2021 2:30:00 AM 7.83 46.094 0.073 7.02 14.59 10.59
5/12/2021 2:45:00 AM 7.78 46.004 0.073 7.03 15.05 10.87
5/12/2021 3:00:00 AM 7.72 45.896 0.073 7.03 16.4 10.87
5/12/2021 3:15:00 AM 7.66 45.788 0.073 7.03 15.85 10.81
5/12/2021 3:30:00 AM 7.6 45.68 0.073 7.02 15.29 10.8
5/12/2021 3:45:00 AM 7.55 45.59 0.073 7.02 13.93 10.87
5/12/2021 4:00:00 AM 7.5 45.5 0.073 7.03 12.28 10.92
5/12/2021 4:15:00 AM 7.46 45.428 0.073 7.03 11.44 10.87
5/12/2021 4:30:00 AM 7.42 45.356 0.073 7.03 11.15 10.92
5/12/2021 4:45:00 AM 7.39 45.302 0.073 7.01 10.84 10.82
5/12/2021 5:00:00 AM 7.37 45.266 0.073 7.01 9.65 10.78
5/12/2021 5:15:00 AM 7.35 45.23 0.073 6.99 10.56 10.68
5/12/2021 5:30:00 AM 7.33 45.194 0.073 7 12.46 10.79
5/12/2021 5:45:00 AM 7.32 45.176 0.073 7.01 9.33 10.69
5/12/2021 6:00:00 AM 7.3 45.14 0.073 7 9.36 10.64
5/12/2021 6:15:00 AM 7.29 45.122 0.073 7.02 9.88 10.79
5/12/2021 6:30:00 AM 7.29 45.122 0.073 7.01 8.5 10.69
5/12/2021 6:45:00 AM 7.29 45.122 0.073 7.03 9.6 10.83
5/12/2021 7:00:00 AM 7.3 45.14 0.073 7.03 8.64 10.75
5/12/2021 7:15:00 AM 7.31 45.158 0.074 7.05 9.39 10.84
5/12/2021 7:30:00 AM 7.33 45.194 0.073 6.98 7.46 10.46
5/12/2021 7:45:00 AM 7.35 45.23 0.073 6.99 8.52 10.53
5/12/2021 8:00:00 AM 7.38 45.284 0.073 7.1 7.37 11.06
5/12/2021 8:15:00 AM 7.43 45.374 0.073 7.09 8.18 11.03
5/12/2021 8:30:00 AM 7.49 45.482 0.073 7.13 9.08 11.15
5/12/2021 8:45:00 AM 7.55 45.59 0.073 7.13 7.73 11.24
5/12/2021 9:00:00 AM 7.6 45.68 0.073 7.14 9.16 11.24
5/12/2021 9:15:00 AM 7.65 45.77 0.073 7.15 7.35 11.28
5/12/2021 9:30:00 AM 7.76 45.968 0.073 7.17 7.2 11.27
5/12/2021 9:45:00 AM 7.89 46.202 0.073 7.19 7.11 11.28
5/12/2021 10:00:00 AM 8.03 46.454 0.073 7.18 6.87 11.2
5/12/2021 10:15:00 AM 8.17 46.706 0.073 7.21 7.11 11.23
5/12/2021 10:30:00 AM 8.29 46.922 0.073 7.19 6.56 11.18
5/12/2021 10:45:00 AM 8.45 47.21 0.073 7.24 6.57 11.19
5/12/2021 11:00:00 AM 8.65 47.57 0.073 7.25 6.54 11.2
5/12/2021 11:15:00 AM 8.88 47.984 0.073 7.26 6.62 11.16
5/12/2021 11:30:00 AM 9.14 48.452 0.073 7.28 6.58 11.11
5/12/2021 11:45:00 AM 9.44 48.992 0.073 7.27 6.48 11.04
5/12/2021 12:00:00 PM 9.76 49.568 0.072 7.27 7.32 10.94
5/12/2021 12:15:00 PM 10.08 50.144 0.072 7.3 8.01 10.95
5/12/2021 12:30:00 PM 10.42 50.756 0.073 7.29 8.33 10.83
5/12/2021 12:45:00 PM 10.77 51.386 0.072 7.28 6.86 10.76
5/12/2021 1:00:00 PM 11.09 51.962 0.072 7.31 7.01 10.71
5/12/2021 1:15:00 PM 11.36 52.448 0.072 7.31 7.09 10.65
5/12/2021 1:30:00 PM 11.56 52.808 0.072 7.32 6.75 10.63
5/12/2021 1:45:00 PM 11.69 53.042 0.072 7.3 6.89 10.48
5/12/2021 2:00:00 PM 11.84 53.312 0.072 7.28 6.65 10.38
5/12/2021 2:15:00 PM 12.01 53.618 0.072 7.3 6.91 10.37
5/12/2021 2:30:00 PM 12.07 53.726 0.072 7.3 7.14 10.27
5/12/2021 2:45:00 PM 12.14 53.852 0.073 7.28 6.89 10.32
5/12/2021 3:00:00 PM 12.2 53.96 0.073 7.26 6.85 10.2
5/12/2021 3:15:00 PM 12.18 53.924 0.073 7.18 6.77 9.58
5/12/2021 3:30:00 PM 12.12 53.816 0.073 7.1 6.5 9.49
5/12/2021 3:45:00 PM 12.07 53.726 0.073 7.1 6.86 9.75
5/12/2021 4:00:00 PM 12.03 53.654 0.073 7.16 6.55 9.42
5/12/2021 4:15:00 PM 11.98 53.564 0.073 7.06 6.56 9.52
5/12/2021 4:30:00 PM 11.92 53.456 0.073 7.07 6.83 9.33
5/12/2021 4:45:00 PM 11.9 53.42 0.073 7.06 6.75 9.79
5/12/2021 5:00:00 PM 11.95 53.51 0.073 7.25 6.5 10.2
5/12/2021 5:15:00 PM 11.96 53.528 0.074 7.24 6.29 10.08
5/12/2021 5:30:00 PM 11.91 53.438 0.073 7.09 7.13 9.62
5/12/2021 5:45:00 PM 11.88 53.384 0.074 7.04 6.46 9.58
5/12/2021 6:00:00 PM 11.86 53.348 0.074 7.06 6.37 9.41
5/12/2021 6:15:00 PM 11.74 53.132 0.074 7.05 6.69 9.06
5/12/2021 6:30:00 PM 11.61 52.898 0.074 7.05 11.85 8.88
5/12/2021 6:45:00 PM 11.5 52.7 0.074 7.02 7.17 8.88
5/12/2021 7:00:00 PM 11.41 52.538 0.074 7.01 6.93 9.09
5/12/2021 7:15:00 PM 11.33 52.394 0.075 7.01 7.39 8.89
5/12/2021 7:30:00 PM 11.23 52.214 0.075 6.97 6.82 9.18
5/12/2021 7:45:00 PM 11.13 52.034 0.075 6.97 10.21 8.74
5/12/2021 8:00:00 PM 11.03 51.854 0.075 6.95 7.09 8.9
5/12/2021 8:15:00 PM 10.93 51.674 0.076 6.95 12.15 9.15
5/12/2021 8:30:00 PM 10.78 51.404 0.075 7.07 62.52 9.79
5/12/2021 8:45:00 PM 10.67 51.206 0.076 7.07 129.34 9.89
5/12/2021 9:00:00 PM 10.6 51.08 0.076 7.02 69.92 9.53
5/12/2021 9:15:00 PM 10.51 50.918 0.076 6.92 26.37 9.04
5/12/2021 9:30:00 PM 10.4 50.72 0.076 6.91 92.11 9.05
5/12/2021 9:45:00 PM 10.3 50.54 0.076 6.9 18.35 8.75
5/12/2021 10:00:00 PM 10.18 50.324 0.076 6.92 59.17 8.93
5/12/2021 10:15:00 PM 10.07 50.126 0.076 6.92 16.82 8.92
5/12/2021 10:30:00 PM 9.97 49.946 0.076 6.89 15.38 9.08
5/12/2021 10:45:00 PM 9.85 49.73 0.076 6.88 35.67 9.14
5/12/2021 11:00:00 PM 9.75 49.55 0.076 6.88 12.75 8.97
5/12/2021 11:15:00 PM 9.64 49.352 0.076 6.9 12.91 9.03
5/12/2021 11:30:00 PM 9.54 49.172 0.076 6.93 11.74 9.53
5/12/2021 11:45:00 PM 9.43 48.974 0.076 6.92 14.8 9.51
5/13/2021 12:00:00 AM 9.31 48.758 0.076 6.95 284.65 9.5
5/13/2021 12:15:00 AM 9.23 48.614 0.076 6.94 20 9.74
5/13/2021 12:30:00 AM 9.13 48.434 0.076 6.94 17 9.74
5/13/2021 12:45:00 AM 9.01 48.218 0.076 6.98 92.2 10.2
5/13/2021 1:00:00 AM 8.91 48.038 0.076 7.01 60.63 10.14
5/13/2021 1:15:00 AM 8.82 47.876 0.076 6.94 78.84 9.57
5/13/2021 1:30:00 AM 8.75 47.75 0.076 6.99 59.52 10.1
5/13/2021 1:45:00 AM 8.66 47.588 0.076 7.02 28.15 10.27
5/13/2021 2:00:00 AM 8.57 47.426 0.076 7.02 41.22 10.37
5/13/2021 2:15:00 AM 8.48 47.264 0.077 7.02 20.76 10.45
5/13/2021 2:30:00 AM 8.38 47.084 0.076 7.03 44.02 10.58
5/13/2021 2:45:00 AM 8.3 46.94 0.076 7.02 36.64 10.45
5/13/2021 3:00:00 AM 8.22 46.796 0.077 6.99 52.79 10.39
5/13/2021 3:15:00 AM 8.13 46.634 0.077 7 144.1 10.48
5/13/2021 3:30:00 AM 8.07 46.526 0.077 7.02 122.7 10.51
5/13/2021 3:45:00 AM 7.98 46.364 0.076 7.02 64.37 10.68
5/13/2021 4:00:00 AM 7.9 46.22 0.076 7.01 63.15 10.55
5/13/2021 4:15:00 AM 7.83 46.094 0.077 7.01 20.16 10.6
5/13/2021 4:30:00 AM 7.74 45.932 0.077 7.02 18.28 10.78
5/13/2021 4:45:00 AM 7.66 45.788 0.076 7.01 9.29 10.63
5/13/2021 5:00:00 AM 7.61 45.698 0.077 6.99 69.29 10.54
5/13/2021 5:15:00 AM 7.52 45.536 0.077 7.01 125.97 10.81
5/13/2021 5:30:00 AM 7.45 45.41 0.077 7 83.21 10.82
5/13/2021 5:45:00 AM 7.41 45.338 0.077 6.95 71.99 10.53
5/13/2021 6:00:00 AM 7.34 45.212 0.077 6.99 76.41 10.67
5/13/2021 6:15:00 AM 7.29 45.122 0.077 6.99 17.99 10.63
5/13/2021 6:30:00 AM 7.21 44.978 0.077 6.95 70.34 10.68
5/13/2021 6:45:00 AM 7.18 44.924 0.077 6.97 120.28 10.63
5/13/2021 7:00:00 AM 7.13 44.834 0.077 6.96 14.32 10.55
5/13/2021 7:15:00 AM 7.09 44.762 0.077 6.95 188.58 10.38
5/13/2021 7:30:00 AM 7.06 44.708 0.077 6.97 16.5 10.57
5/13/2021 7:45:00 AM 7.04 44.672 0.077 6.99 10.48 10.78
5/13/2021 8:00:00 AM 7.02 44.636 0.077 6.99 10.71 10.67
5/13/2021 8:15:00 AM 7.03 44.654 0.077 7 9.61 10.72
5/13/2021 8:30:00 AM 7.05 44.69 0.077 7.03 9.13 10.91
5/13/2021 8:45:00 AM 7.1 44.78 0.076 7.1 9.23 11.23
5/13/2021 9:00:00 AM 7.18 44.924 0.076 7.11 9.47 11.31
5/13/2021 9:15:00 AM 7.28 45.104 0.076 7.14 9.41 11.33
5/13/2021 9:30:00 AM 7.42 45.356 0.076 7.16 11.76 11.31
5/13/2021 9:45:00 AM 7.59 45.662 0.076 7.18 9.87 11.35
5/13/2021 10:00:00 AM 7.77 45.986 0.076 7.19 9.04 11.38
5/13/2021 10:15:00 AM 7.98 46.364 0.076 7.21 8.14 11.37
5/13/2021 10:30:00 AM 8.22 46.796 0.076 7.22 9.02 11.32
5/13/2021 10:45:00 AM 8.47 47.246 0.076 7.23 8.21 11.25
5/13/2021 11:00:00 AM 8.82 47.876 0.076 7.22 8.11 11.07
5/13/2021 11:15:00 AM 9.13 48.434 0.076 7.24 7.84 11.08
5/13/2021 11:30:00 AM 9.45 49.01 0.076 7.25 7.77 11.08
5/13/2021 11:45:00 AM 9.81 49.658 0.075 7.26 8.03 10.97
5/13/2021 12:00:00 PM 10.13 50.234 0.075 7.27 7.54 10.93
5/13/2021 12:15:00 PM 10.49 50.882 0.075 7.29 7.71 10.89
5/13/2021 12:30:00 PM 10.78 51.404 0.075 7.28 7.3 10.77
5/13/2021 12:45:00 PM 11.07 51.926 0.075 7.31 7.46 10.66
5/13/2021 1:00:00 PM 11.32 52.376 0.075 7.31 7.38 10.62
5/13/2021 1:15:00 PM 11.46 52.628 0.075 7.27 7.77 10.35
5/13/2021 1:30:00 PM 11.57 52.826 0.075 7.27 9.49 10.2
5/13/2021 1:45:00 PM 11.69 53.042 0.074 7.29 7.9 10.36
5/13/2021 2:00:00 PM 11.78 53.204 0.074 7.27 8.61 10.22
5/13/2021 2:15:00 PM 11.85 53.33 0.074 7.31 8.18 10.4
5/13/2021 2:30:00 PM 11.83 53.294 0.074 7.29 7.72 9.95
5/13/2021 2:45:00 PM 11.82 53.276 0.074 7.26 7.67 10.17
5/13/2021 3:00:00 PM 11.84 53.312 0.074 7.28 7.87 9.96
5/13/2021 3:15:00 PM 11.91 53.438 0.074 7.29 7.69 10.05
5/13/2021 3:30:00 PM 12.02 53.636 0.074 7.31 7.69 10.32
5/13/2021 3:45:00 PM 12.12 53.816 0.075 7.35 7.65 10.03
5/13/2021 4:00:00 PM 12.25 54.05 0.075 7.37 7.49 10.13
5/13/2021 4:15:00 PM 12.28 54.104 0.074 7.32 7.4 9.95
5/13/2021 4:30:00 PM 12.37 54.266 0.075 7.36 7.88 10.01
5/13/2021 4:45:00 PM 12.43 54.374 0.075 7.32 7.48 9.78
5/13/2021 5:00:00 PM 12.44 54.392 0.075 7.31 8.2 9.66
5/13/2021 5:15:00 PM 12.41 54.338 0.075 7.16 9.24 9.64
5/13/2021 5:30:00 PM 12.39 54.302 0.075 7.21 7.84 9.73
5/13/2021 5:45:00 PM 12.34 54.212 0.075 7.12 7.46 9.37
5/13/2021 6:00:00 PM 12.26 54.068 0.075 7.06 7.78 9.3
5/13/2021 6:15:00 PM 12.16 53.888 0.075 7.11 9.21 9.56
5/13/2021 6:30:00 PM 12.1 53.78 0.075 7.12 7.81 9.4
5/13/2021 6:45:00 PM 12.06 53.708 0.076 7.09 7.74 9.34
5/13/2021 7:00:00 PM 12.02 53.636 0.076 7.16 7.99 9.56
5/13/2021 7:15:00 PM 11.96 53.528 0.076 7.1 7.9 9.32
5/13/2021 7:30:00 PM 11.87 53.366 0.076 7.05 11.74 9.39
5/13/2021 7:45:00 PM 11.73 53.114 0.076 7.08 19.77 9.73
5/13/2021 8:00:00 PM 11.64 52.952 0.076 7.04 31.51 9.38
5/13/2021 8:15:00 PM 11.52 52.736 0.077 7 65.8 9.22
5/13/2021 8:30:00 PM 11.36 52.448 0.077 7.05 87.94 9.76
5/13/2021 8:45:00 PM 11.22 52.196 0.077 7.05 173.98 9.58
5/13/2021 9:00:00 PM 11.14 52.052 0.077 7.03 23.95 9.59
5/13/2021 9:15:00 PM 11.02 51.836 0.077 6.98 10.93 8.89
5/13/2021 9:30:00 PM 10.91 51.638 0.077 6.96 18.14 8.96
5/13/2021 9:45:00 PM 10.79 51.422 0.078 6.96 14.63 8.77
5/13/2021 10:00:00 PM 10.67 51.206 0.078 6.94 15.74 8.88
5/13/2021 10:15:00 PM 10.56 51.008 0.078 6.96 11.04 9.03
5/13/2021 10:30:00 PM 10.44 50.792 0.078 6.94 14.64 8.93
5/13/2021 10:45:00 PM 10.32 50.576 0.078 6.94 11.92 9.06
5/13/2021 11:00:00 PM 10.21 50.378 0.078 6.94 14.13 9.26
5/13/2021 11:15:00 PM 10.09 50.162 0.079 6.97 58.89 9.67
5/13/2021 11:30:00 PM 9.99 49.982 0.078 6.99 11.11 9.58
5/13/2021 11:45:00 PM 9.88 49.784 0.079 6.98 12.26 9.62
5/14/2021 12:00:00 AM 9.78 49.604 0.079 6.96 10.92 9.38
5/14/2021 12:15:00 AM 9.68 49.424 0.079 6.99 8.55 9.65
5/14/2021 12:30:00 AM 9.56 49.208 0.079 7 11.28 9.73
5/14/2021 12:45:00 AM 9.47 49.046 0.079 6.99 57.47 9.95
5/14/2021 1:00:00 AM 9.39 48.902 0.079 6.99 17.96 9.78
5/14/2021 1:15:00 AM 9.29 48.722 0.079 6.99 12.57 9.84
5/14/2021 1:30:00 AM 9.21 48.578 0.079 6.99 8.47 9.69
5/14/2021 1:45:00 AM 9.13 48.434 0.079 6.98 9 9.78
5/14/2021 2:00:00 AM 9.04 48.272 0.079 6.99 7.7 9.82
5/14/2021 2:15:00 AM 8.93 48.074 0.079 7 14.02 10.19
5/14/2021 2:30:00 AM 8.86 47.948 0.079 7.01 10.86 10.22
5/14/2021 2:45:00 AM 8.76 47.768 0.08 7 43.1 10.38
5/14/2021 3:00:00 AM 8.68 47.624 0.079 7.01 25.12 10.25
5/14/2021 3:15:00 AM 8.6 47.48 0.08 7.02 125.74 10.44
5/14/2021 3:30:00 AM 8.54 47.372 0.08 6.99 45.27 10.02
5/14/2021 3:45:00 AM 8.46 47.228 0.08 7.01 18.1 10.3
5/14/2021 4:00:00 AM 8.37 47.066 0.08 7.02 12.82 10.44
5/14/2021 4:15:00 AM 8.31 46.958 0.08 7 15.86 10.32
5/14/2021 4:30:00 AM 8.23 46.814 0.08 7.03 7161.04 10.63
5/14/2021 4:45:00 AM 8.14 46.652 0.079 7.02 124.1 10.55
5/14/2021 5:00:00 AM 8.11 46.598 0.08 6.95 100.59 10
5/14/2021 5:15:00 AM 8.03 46.454 0.08 7.01 20.29 10.41
5/14/2021 5:30:00 AM 7.97 46.346 0.079 6.98 11.61 10.28
5/14/2021 5:45:00 AM 7.9 46.22 0.08 7 8.62 10.39
5/14/2021 6:00:00 AM 7.84 46.112 0.08 7 7.89 10.42
5/14/2021 6:15:00 AM 7.78 46.004 0.08 7.01 10.27 10.32
5/14/2021 6:30:00 AM 7.72 45.896 0.08 7.03 6.82 10.63
5/14/2021 6:45:00 AM 7.67 45.806 0.08 7.03 7.65 10.56
5/14/2021 7:00:00 AM 7.63 45.734 0.08 7.04 7.32 10.61
5/14/2021 7:15:00 AM 7.59 45.662 0.08 7.04 8.2 10.69
5/14/2021 7:30:00 AM 7.56 45.608 0.08 7.06 7.84 10.85
5/14/2021 7:45:00 AM 7.54 45.572 0.08 7.06 7.97 10.86
5/14/2021 8:00:00 AM 7.53 45.554 0.08 7.08 6.97 10.95
5/14/2021 8:15:00 AM 7.54 45.572 0.08 7.1 6.88 10.95
5/14/2021 8:30:00 AM 7.57 45.626 0.08 7.11 5.85 11.09
5/14/2021 8:45:00 AM 7.62 45.716 0.08 7.13 5.97 11
5/14/2021 9:00:00 AM 7.7 45.86 0.08 7.15 5.84 11.15
5/14/2021 9:15:00 AM 7.8 46.04 0.08 7.17 5.79 11.2
5/14/2021 9:30:00 AM 7.92 46.256 0.079 7.21 5.69 11.24
5/14/2021 9:45:00 AM 8.08 46.544 0.079 7.21 5.91 11.23
5/14/2021 10:00:00 AM 8.26 46.868 0.079 7.22 5.61 11.24
5/14/2021 10:15:00 AM 8.46 47.228 0.079 7.24 5.69 11.25
5/14/2021 10:30:00 AM 8.71 47.678 0.079 7.26 5.45 11.25
5/14/2021 10:45:00 AM 8.96 48.128 0.079 7.26 5.57 11.16
5/14/2021 11:00:00 AM 9.25 48.65 0.079 7.26 5.49 11.1
5/14/2021 11:15:00 AM 9.56 49.208 0.079 7.26 5.38 11.05
5/14/2021 11:30:00 AM 9.89 49.802 0.079 7.28 5.38 10.98
5/14/2021 11:45:00 AM 10.25 50.45 0.079 7.29 5.53 10.89
5/14/2021 12:00:00 PM 10.61 51.098 0.079 7.3 5.43 10.84
5/14/2021 12:15:00 PM 11.02 51.836 0.078 7.33 5.34 10.82
5/14/2021 12:30:00 PM 11.4 52.52 0.078 7.33 6.35 10.74
5/14/2021 12:45:00 PM 11.74 53.132 0.078 7.37 5.43 10.73
5/14/2021 1:00:00 PM 11.95 53.51 0.079 7.36 5.45 10.61
5/14/2021 1:15:00 PM 12.23 54.014 0.078 7.37 5.44 10.21
5/14/2021 1:30:00 PM 12.47 54.446 0.078 7.34 5.61 10.38
5/14/2021 1:45:00 PM 12.56 54.608 0.078 7.33 5.53 10.29
5/14/2021 2:00:00 PM 12.61 54.698 0.078 7.33 5.47 10.18
5/14/2021 2:15:00 PM 12.66 54.788 0.078 7.36 5.77 9.92
5/14/2021 2:30:00 PM 12.74 54.932 0.078 7.37 5.54 9.94
5/14/2021 2:45:00 PM 12.87 55.166 0.078 7.38 5.27 9.94
5/14/2021 3:00:00 PM 13.1 55.58 0.078 7.4 5.75 10.26
5/14/2021 3:15:00 PM 13.36 56.048 0.078 7.42 5.31 10.29
5/14/2021 3:30:00 PM 13.55 56.39 0.078 7.41 5.44 9.93
5/14/2021 3:45:00 PM 13.69 56.642 0.078 7.39 5.83 9.83
5/14/2021 4:00:00 PM 13.7 56.66 0.078 7.34 9.98 9.73
5/14/2021 4:15:00 PM 13.59 56.462 0.078 7.16 12.67 9.28
5/14/2021 4:30:00 PM 13.54 56.372 0.078 7.2 16.35 9.65
5/14/2021 4:45:00 PM 13.51 56.318 0.077 7.2 11.06 9.58
5/14/2021 5:00:00 PM 13.53 56.354 0.077 7.24 10.71 9.67
5/14/2021 5:15:00 PM 13.56 56.408 0.077 7.23 7.74 9.42
5/14/2021 5:30:00 PM 13.61 56.498 0.078 7.29 7.92 9.47
5/14/2021 5:45:00 PM 13.67 56.606 0.078 7.3 7.84 9.51
5/14/2021 6:00:00 PM 13.69 56.642 0.077 7.29 6.93 9.45
5/14/2021 6:15:00 PM 13.64 56.552 0.077 7.17 6.76 9.3
5/14/2021 6:30:00 PM 13.59 56.462 0.078 7.17 7.23 9.03
5/14/2021 6:45:00 PM 13.55 56.39 0.077 7.21 9.21 9.58
5/14/2021 7:00:00 PM 13.52 56.336 0.077 7.16 7.56 9.24
5/14/2021 7:15:00 PM 13.43 56.174 0.077 7.14 8.37 9.6
5/14/2021 7:30:00 PM 13.31 55.958 0.078 7.04 7.55 8.82
5/14/2021 7:45:00 PM 13.17 55.706 0.078 7.06 9.25 9.06
5/14/2021 8:00:00 PM 13 55.4 0.078 7.13 182.95 9.39
5/14/2021 8:15:00 PM 12.89 55.202 0.078 7.1 213.1 9.25
5/14/2021 8:30:00 PM 12.75 54.95 0.078 7.03 83.55 8.88
5/14/2021 8:45:00 PM 12.6 54.68 0.078 7.01 133.6 9.02
5/14/2021 9:00:00 PM 12.5 54.5 0.078 7 268.73 8.81
5/14/2021 9:15:00 PM 12.39 54.302 0.079 6.9 49.93 8.36
5/14/2021 9:30:00 PM 12.26 54.068 0.079 6.9 34.87 8.16
5/14/2021 9:45:00 PM 12.12 53.816 0.079 6.89 19.37 8.52
5/14/2021 10:00:00 PM 12 53.6 0.079 6.89 10.49 8.57
5/14/2021 10:15:00 PM 11.87 53.366 0.079 6.84 18.24 7.83
5/14/2021 10:30:00 PM 11.72 53.096 0.08 6.86 12.01 7.61
5/14/2021 10:45:00 PM 11.59 52.862 0.08 6.87 17.74 7.98
5/14/2021 11:00:00 PM 11.46 52.628 0.08 6.82 16.2 8.02
5/14/2021 11:15:00 PM 11.33 52.394 0.08 6.86 16.27 8.05
5/14/2021 11:30:00 PM 11.21 52.178 0.08 6.87 12.8 8.09
5/14/2021 11:45:00 PM 11.09 51.962 0.08 6.89 12.28 8.5
5/15/2021 12:00:00 AM 10.97 51.746 0.08 6.9 11.14 8.62
5/15/2021 12:15:00 AM 10.85 51.53 0.081 6.89 11.85 8.95
5/15/2021 12:30:00 AM 10.74 51.332 0.081 6.94 10.23 9
5/15/2021 12:45:00 AM 10.63 51.134 0.081 6.93 9.21 9.08
5/15/2021 1:00:00 AM 10.52 50.936 0.081 6.92 9.54 9.08
5/15/2021 1:15:00 AM 10.42 50.756 0.081 6.95 13.16 9.29
5/15/2021 1:30:00 AM 10.32 50.576 0.081 6.95 174.08 9.43
5/15/2021 1:45:00 AM 10.23 50.414 0.081 6.99 11.37 9.51
5/15/2021 2:00:00 AM 10.14 50.252 0.081 6.94 11.49 9.11
5/15/2021 2:15:00 AM 10.04 50.072 0.081 6.94 10.03 9.29
5/15/2021 2:30:00 AM 9.95 49.91 0.082 6.96 11.94 9.4
5/15/2021 2:45:00 AM 9.83 49.694 0.081 7 71 10.08
5/15/2021 3:00:00 AM 9.77 49.586 0.081 6.98 28.81 9.72
5/15/2021 3:15:00 AM 9.67 49.406 0.082 6.98 18.05 9.55
5/15/2021 3:30:00 AM 9.59 49.262 0.082 6.99 27.35 9.35
5/15/2021 3:45:00 AM 9.51 49.118 0.082 6.99 13.02 9.4
5/15/2021 4:00:00 AM 9.42 48.956 0.082 6.98 14.27 9.76
5/15/2021 4:15:00 AM 9.34 48.812 0.082 7 10.97 10
5/15/2021 4:30:00 AM 9.25 48.65 0.082 6.99 12.65 10.01
5/15/2021 4:45:00 AM 9.16 48.488 0.082 7 101.07 10.18
5/15/2021 5:00:00 AM 9.09 48.362 0.082 7.01 293.63 10.15
5/15/2021 5:15:00 AM 9.02 48.236 0.082 7 68.25 10.11
5/15/2021 5:30:00 AM 8.96 48.128 0.082 7 15.15 10.08
5/15/2021 5:45:00 AM 8.88 47.984 0.082 6.99 7.12 10.01
5/15/2021 6:00:00 AM 8.81 47.858 0.082 6.99 11.3 10
5/15/2021 6:15:00 AM 8.74 47.732 0.082 7 9.55 9.8
5/15/2021 6:30:00 AM 8.68 47.624 0.082 7.02 11.06 10.24
5/15/2021 6:45:00 AM 8.62 47.516 0.082 7.01 11.12 9.95
5/15/2021 7:00:00 AM 8.57 47.426 0.082 7.04 9.15 10.37
5/15/2021 7:15:00 AM 8.52 47.336 0.082 7.05 8.49 10.45
5/15/2021 7:30:00 AM 8.48 47.264 0.082 7.07 8.47 10.57
5/15/2021 7:45:00 AM 8.46 47.228 0.082 7.09 8.24 10.69
5/15/2021 8:00:00 AM 8.44 47.192 0.082 7.1 9.15 10.34
5/15/2021 8:15:00 AM 8.44 47.192 0.082 7.13 7.23 10.44
5/15/2021 8:30:00 AM 8.46 47.228 0.082 7.12 8.02 10.8
5/15/2021 8:45:00 AM 8.51 47.318 0.082 7.14 7.31 10.55
5/15/2021 9:00:00 AM 8.58 47.444 0.082 7.17 7.69 10.93
5/15/2021 9:15:00 AM 8.68 47.624 0.082 7.19 7.5 10.61
5/15/2021 9:30:00 AM 8.8 47.84 0.082 7.21 7.19 10.95
5/15/2021 9:45:00 AM 8.95 48.11 0.082 7.22 7.78 10.99
5/15/2021 10:00:00 AM 9.12 48.416 0.082 7.23 8.49 10.61
5/15/2021 10:15:00 AM 9.33 48.794 0.081 7.26 7.28 11.01
5/15/2021 10:30:00 AM 9.55 49.19 0.081 7.27 7.13 10.92
5/15/2021 10:45:00 AM 9.79 49.622 0.081 7.29 6.85 10.9
5/15/2021 11:00:00 AM 10.07 50.126 0.081 7.3 7.52 10.89
5/15/2021 11:15:00 AM 10.36 50.648 0.081 7.31 8.14 10.55
5/15/2021 11:30:00 AM 10.67 51.206 0.081 7.3 6.84 10.83
5/15/2021 11:45:00 AM 10.96 51.728 0.081 7.34 7.46 10.45
5/15/2021 12:00:00 PM 11.16 52.088 0.081 7.34 7.53 10.72
5/15/2021 12:15:00 PM 11.35 52.43 0.081 7.34 7.35 10.55
5/15/2021 12:30:00 PM 11.51 52.718 0.08 7.35 6.95 10.24
5/15/2021 12:45:00 PM 11.68 53.024 0.081 7.37 7.44 10.55
5/15/2021 1:00:00 PM 11.82 53.276 0.08 7.36 8.08 10.14
5/15/2021 1:15:00 PM 12.05 53.69 0.08 7.38 6.58 10.09
5/15/2021 1:30:00 PM 12.31 54.158 0.08 7.38 7.06 10.37
5/15/2021 1:45:00 PM 12.47 54.446 0.08 7.37 6.55 9.92
5/15/2021 2:00:00 PM 12.57 54.626 0.08 7.33 6.92 9.79
5/15/2021 2:15:00 PM 12.68 54.824 0.08 7.34 6.61 9.77
5/15/2021 2:30:00 PM 12.77 54.986 0.08 7.34 6.94 9.78
5/15/2021 2:45:00 PM 12.9 55.22 0.08 7.36 17.23 9.84
5/15/2021 3:00:00 PM 13.06 55.508 0.08 7.39 13.97 9.72
5/15/2021 3:15:00 PM 13.21 55.778 0.08 7.42 9.53 9.89
5/15/2021 3:30:00 PM 13.36 56.048 0.08 7.4 8.85 9.79
5/15/2021 3:45:00 PM 13.52 56.336 0.079 7.42 7.91 10.21
5/15/2021 4:00:00 PM 13.65 56.57 0.079 7.45 8.15 9.86
5/15/2021 4:15:00 PM 13.78 56.804 0.079 7.41 7.75 9.74
5/15/2021 4:30:00 PM 13.92 57.056 0.079 7.41 8.49 9.76
5/15/2021 4:45:00 PM 14.09 57.362 0.079 7.36 8 9.5
5/15/2021 5:00:00 PM 14.25 57.65 0.079 7.38 11.69 9.59
5/15/2021 5:15:00 PM 14.3 57.74 0.079 7.44 18.22 9.75
5/15/2021 5:30:00 PM 14.28 57.704 0.079 7.33 14.78 9.23
5/15/2021 5:45:00 PM 14.21 57.578 0.079 7.2 12.49 9.31
5/15/2021 6:00:00 PM 14.09 57.362 0.079 7.11 18.25 9.37
5/15/2021 6:15:00 PM 14.01 57.218 0.079 7.15 15.8 8.38
5/15/2021 6:30:00 PM 13.93 57.074 0.079 7.11 13.75 8.66
5/15/2021 6:45:00 PM 13.84 56.912 0.079 7.07 13.29 8.1
5/15/2021 7:00:00 PM 13.73 56.714 0.079 7.06 12.98 8.09
5/15/2021 7:15:00 PM 13.62 56.516 0.079 7.09 12.51 8.32
5/15/2021 7:30:00 PM 13.51 56.318 0.079 7.06 11.29 8.21
5/15/2021 7:45:00 PM 13.41 56.138 0.079 6.97 10.33 8.3
5/15/2021 8:00:00 PM 13.31 55.958 0.079 7.03 11.01 8.2
5/15/2021 8:15:00 PM 13.21 55.778 0.08 6.93 15.01 8.41
5/15/2021 8:30:00 PM 13.05 55.49 0.08 7.09 14.39 9.25
5/15/2021 8:45:00 PM 12.96 55.328 0.08 7.1 111.3 9.43
5/15/2021 9:00:00 PM 12.87 55.166 0.08 7.07 253.49 8.87
5/15/2021 9:15:00 PM 12.76 54.968 0.08 7.01 108.16 8.69
5/15/2021 9:30:00 PM 12.64 54.752 0.081 6.98 21.05 8.37
5/15/2021 9:45:00 PM 12.52 54.536 0.081 6.93 33.58 8.31
5/15/2021 10:00:00 PM 12.4 54.32 0.081 6.94 69.52 8.39
5/15/2021 10:15:00 PM 12.28 54.104 0.081 6.95 13.82 8.32
5/15/2021 10:30:00 PM 12.19 53.942 0.081 6.94 18.86 8.53
5/15/2021 10:45:00 PM 12.1 53.78 0.081 6.91 9.58 8.69
5/15/2021 11:00:00 PM 12 53.6 0.081 6.93 13.79 8.61
5/15/2021 11:15:00 PM 11.91 53.438 0.082 6.92 16.53 8.56
5/15/2021 11:30:00 PM 11.83 53.294 0.082 6.91 11.32 8.61
5/15/2021 11:45:00 PM 11.74 53.132 0.082 6.89 11.83 8.45
5/16/2021 12:00:00 AM 11.65 52.97 0.082 6.9 10.59 8.74
5/16/2021 12:15:00 AM 11.55 52.79 0.082 6.87 11.43 8.65
5/16/2021 12:30:00 AM 11.46 52.628 0.082 6.86 9.45 8.44
5/16/2021 12:45:00 AM 11.38 52.484 0.082 6.94 9.69 8.86
5/16/2021 1:00:00 AM 11.3 52.34 0.082 6.89 9.11 8.78
5/16/2021 1:15:00 AM 11.23 52.214 0.083 6.92 9.46 8.8
5/16/2021 1:30:00 AM 11.16 52.088 0.083 6.94 11.14 9.08
5/16/2021 1:45:00 AM 11.1 51.98 0.083 6.94 10.41 9.09
5/16/2021 2:00:00 AM 11.04 51.872 0.083 6.92 10.39 8.79
5/16/2021 2:15:00 AM 10.97 51.746 0.083 6.98 9.5 9.32
5/16/2021 2:30:00 AM 10.91 51.638 0.083 6.97 9.59 9.21
5/16/2021 2:45:00 AM 10.84 51.512 0.083 6.97 10.17 9.31
5/16/2021 3:00:00 AM 10.79 51.422 0.083 6.98 9.86 9.36
5/16/2021 3:15:00 AM 10.74 51.332 0.083 6.94 10.04 9.21
5/16/2021 3:30:00 AM 10.69 51.242 0.083 6.97 10 9.3
5/16/2021 3:45:00 AM 10.64 51.152 0.083 6.98 11.08 9.41
5/16/2021 4:00:00 AM 10.59 51.062 0.084 6.99 11.06 9.45
5/16/2021 4:15:00 AM 10.53 50.954 0.083 7 12.25 9.14
5/16/2021 4:30:00 AM 10.47 50.846 0.084 7 10.88 9.56
5/16/2021 4:45:00 AM 10.4 50.72 0.084 7.03 48.39 9.84
5/16/2021 5:00:00 AM 10.34 50.612 0.084 7.01 38.58 9.64
5/16/2021 5:15:00 AM 10.27 50.486 0.084 6.99 16.4 9.46
5/16/2021 5:30:00 AM 10.22 50.396 0.084 7.01 35.87 9.74
5/16/2021 5:45:00 AM 10.15 50.27 0.084 7 12.83 9.65
5/16/2021 6:00:00 AM 10.09 50.162 0.084 6.98 14.77 9.16
5/16/2021 6:15:00 AM 10.04 50.072 0.084 6.99 12.25 9.22
5/16/2021 6:30:00 AM 9.98 49.964 0.084 7.01 8.74 9.78
5/16/2021 6:45:00 AM 9.93 49.874 0.084 7.01 11.99 9.71
5/16/2021 7:00:00 AM 9.89 49.802 0.084 7.05 10.76 9.92
5/16/2021 7:15:00 AM 9.85 49.73 0.084 7.07 9.83 10.02
5/16/2021 7:30:00 AM 9.81 49.658 0.084 7.09 9.21 10.19
5/16/2021 7:45:00 AM 9.79 49.622 0.084 7.11 9 10.22
5/16/2021 8:00:00 AM 9.79 49.622 0.084 7.1 9.32 10.22
5/16/2021 8:15:00 AM 9.78 49.604 0.084 7.13 9.37 10.43
5/16/2021 8:30:00 AM 9.8 49.64 0.084 7.15 9 10.43
5/16/2021 8:45:00 AM 9.85 49.73 0.084 7.18 9.06 10.54
5/16/2021 9:00:00 AM 9.9 49.82 0.084 7.2 8.83 10.63
5/16/2021 9:15:00 AM 9.98 49.964 0.083 7.23 9.12 10.73
5/16/2021 9:30:00 AM 10.09 50.162 0.083 7.27 9.37 10.44
5/16/2021 9:45:00 AM 10.21 50.378 0.083 7.27 8.64 10.47
5/16/2021 10:00:00 AM 10.34 50.612 0.083 7.29 8.56 10.47
5/16/2021 10:15:00 AM 10.49 50.882 0.083 7.31 9.05 10.9
5/16/2021 10:30:00 AM 10.66 51.188 0.083 7.33 8.35 10.55
5/16/2021 10:45:00 AM 10.88 51.584 0.083 7.36 8.4 10.52
5/16/2021 11:00:00 AM 11.11 51.998 0.083 7.37 8.16 10.49
5/16/2021 11:15:00 AM 11.32 52.376 0.083 7.33 8.47 10.35
5/16/2021 11:30:00 AM 11.48 52.664 0.083 7.39 8.4 10.32
5/16/2021 11:45:00 AM 11.61 52.898 0.083 7.32 8.71 10.2
5/16/2021 12:00:00 PM 11.72 53.096 0.083 7.32 8.48 10.19
5/16/2021 12:15:00 PM 11.83 53.294 0.082 7.37 8.28 10.1
5/16/2021 12:30:00 PM 12.03 53.654 0.082 7.34 8 10.17
5/16/2021 12:45:00 PM 12.36 54.248 0.083 7.35 8.11 10.16
5/16/2021 1:00:00 PM 12.71 54.878 0.083 7.4 8.61 10.1
5/16/2021 1:15:00 PM 12.97 55.346 0.083 7.37 8.4 9.99
5/16/2021 1:30:00 PM 13.22 55.796 0.082 7.39 9.23 9.97
5/16/2021 1:45:00 PM 13.46 56.228 0.082 7.47 11.2 9.98
5/16/2021 2:00:00 PM 13.73 56.714 0.082 7.46 10.36 9.83
5/16/2021 2:15:00 PM 13.94 57.092 0.082 7.42 9.32 9.8
5/16/2021 2:30:00 PM 14.25 57.65 0.082 7.46 10.86 9.79
5/16/2021 2:45:00 PM 14.69 58.442 0.082 7.52 12.98 9.88
5/16/2021 3:00:00 PM 15.07 59.126 0.082 7.5 212.59 10.08
5/16/2021 3:15:00 PM 15.21 59.378 0.082 7.47 38.05 9.6
5/16/2021 3:30:00 PM 15.33 59.594 0.082 7.39 10.89 9.58
5/16/2021 3:45:00 PM 15.36 59.648 0.082 7.36 15.02 9.28
5/16/2021 4:00:00 PM 15.4 59.72 0.082 7.3 2484.35 9.29
5/16/2021 4:15:00 PM 15.36 59.648 0.082 7.23 13.79 8.92
5/16/2021 4:30:00 PM 15.3 59.54 0.082 7.2 21.89 8.86
5/16/2021 4:45:00 PM 15.22 59.396 0.082 7.18 53.53 8.92
5/16/2021 5:00:00 PM 15.12 59.216 0.082 7.17 18.15 8.39
5/16/2021 5:15:00 PM 14.99 58.982 0.082 7.13 17.26 8
5/16/2021 5:30:00 PM 14.86 58.748 0.082 7.05 13.43 7.94
5/16/2021 5:45:00 PM 14.73 58.514 0.082 7.12 11.58 7.71
5/16/2021 6:00:00 PM 14.58 58.244 0.082 7.08 10.29 7.92
5/16/2021 6:15:00 PM 14.46 58.028 0.082 7.02 10.23 7.85
5/16/2021 6:30:00 PM 14.33 57.794 0.082 7.02 9.46 7.73
5/16/2021 6:45:00 PM 14.22 57.596 0.082 7 9.5 7.99
5/16/2021 7:00:00 PM 14.11 57.398 0.082 7.02 9.68 7.92
5/16/2021 7:15:00 PM 14.01 57.218 0.082 7.03 9.9 8.34
5/16/2021 7:30:00 PM 13.92 57.056 0.082 6.94 10.23 7.97
5/16/2021 7:45:00 PM 13.82 56.876 0.083 6.93 9.27 8.2
5/16/2021 8:00:00 PM 13.71 56.678 0.083 7.03 9.64 8.71
5/16/2021 8:15:00 PM 13.6 56.48 0.083 7.03 79.19 8.8
5/16/2021 8:30:00 PM 13.46 56.228 0.083 7.04 368.88 8.98
5/16/2021 8:45:00 PM 13.36 56.048 0.083 7 171.22 8.86
5/16/2021 9:00:00 PM 13.29 55.922 0.083 7 40.67 8.44
5/16/2021 9:15:00 PM 13.21 55.778 0.083 6.99 24.68 8.07
5/16/2021 9:30:00 PM 13.11 55.598 0.083 6.95 19.19 8.3
5/16/2021 9:45:00 PM 13.02 55.436 0.083 6.96 13.01 8.37
5/16/2021 10:00:00 PM 12.92 55.256 0.083 6.98 15.24 8.24
5/16/2021 10:15:00 PM 12.83 55.094 0.083 6.94 30.58 8.32
5/16/2021 10:30:00 PM 12.73 54.914 0.084 6.98 68.72 8.32
5/16/2021 10:45:00 PM 12.64 54.752 0.084 6.97 17.79 8.22
5/16/2021 11:00:00 PM 12.55 54.59 0.084 6.98 17.17 8.35
5/16/2021 11:15:00 PM 12.47 54.446 0.084 6.95 13.96 8.28
5/16/2021 11:30:00 PM 12.39 54.302 0.084 6.96 12.76 8.36
5/16/2021 11:45:00 PM 12.3 54.14 0.084 6.94 16.21 8.12
5/17/2021 12:00:00 AM 12.2 53.96 0.084 6.94 9.61 8.08
5/17/2021 12:15:00 AM 12.11 53.798 0.084 6.93 9.65 8.47
5/17/2021 12:30:00 AM 12.02 53.636 0.084 6.89 8.45 8.35
5/17/2021 12:45:00 AM 11.93 53.474 0.084 6.91 8.16 8.42
5/17/2021 1:00:00 AM 11.84 53.312 0.084 6.89 8.27 8.19
5/17/2021 1:15:00 AM 11.76 53.168 0.084 6.91 8.24 8.49
5/17/2021 1:30:00 AM 11.69 53.042 0.084 6.91 8.93 8.71
5/17/2021 1:45:00 AM 11.61 52.898 0.084 6.92 7.77 8.74
5/17/2021 2:00:00 AM 11.54 52.772 0.085 6.91 7.67 8.65
5/17/2021 2:15:00 AM 11.46 52.628 0.084 6.97 7.67 8.92
5/17/2021 2:30:00 AM 11.39 52.502 0.085 6.95 7.49 8.75
5/17/2021 2:45:00 AM 11.31 52.358 0.085 6.92 7.51 8.78
5/17/2021 3:00:00 AM 11.24 52.232 0.085 6.96 7.19 8.97
5/17/2021 3:15:00 AM 11.16 52.088 0.084 6.93 7.53 8.95
5/17/2021 3:30:00 AM 11.08 51.944 0.085 6.93 9.35 9.06
5/17/2021 3:45:00 AM 11.02 51.836 0.085 6.91 7.79 8.77
5/17/2021 4:00:00 AM 10.95 51.71 0.085 6.9 7.03 8.22
5/17/2021 4:15:00 AM 10.86 51.548 0.085 6.9 9 8.44
5/17/2021 4:30:00 AM 10.76 51.368 0.085 7.02 101.08 9.56
5/17/2021 4:45:00 AM 10.66 51.188 0.085 7.01 77.12 9.7
5/17/2021 5:00:00 AM 10.6 51.08 0.085 7 91.27 9.55
5/17/2021 5:15:00 AM 10.52 50.936 0.085 6.98 152.37 9.39
5/17/2021 5:30:00 AM 10.46 50.828 0.085 7 71.73 9.56
5/17/2021 5:45:00 AM 10.41 50.738 0.085 6.98 24.25 9.05
5/17/2021 6:00:00 AM 10.34 50.612 0.085 6.87 14.64 8.47
5/17/2021 6:15:00 AM 10.27 50.486 0.085 6.96 12.59 9.24
5/17/2021 6:30:00 AM 10.21 50.378 0.085 6.92 9.79 9.25
5/17/2021 6:45:00 AM 10.15 50.27 0.086 6.9 9.54 8.9
5/17/2021 7:00:00 AM 10.1 50.18 0.085 6.93 6.78 9.23
5/17/2021 7:15:00 AM 10.06 50.108 0.086 6.91 8.27 9.13
5/17/2021 7:30:00 AM 10.02 50.036 0.086 6.9 6.48 9.41
5/17/2021 7:45:00 AM 9.99 49.982 0.085 6.93 7.03 9.46
5/17/2021 8:00:00 AM 9.96 49.928 0.085 7.06 7.34 10
5/17/2021 8:15:00 AM 9.96 49.928 0.085 7.02 14.31 9.72
5/17/2021 8:30:00 AM 9.96 49.928 0.085 7.06 9.3 9.96
5/17/2021 8:45:00 AM 9.98 49.964 0.085 7.12 7.92 10.06
5/17/2021 9:00:00 AM 10.02 50.036 0.085 7.14 6.31 10.22
5/17/2021 9:15:00 AM 10.1 50.18 0.085 7.18 6.57 10
5/17/2021 9:30:00 AM 10.19 50.342 0.085 7.21 6.41 10.11
5/17/2021 9:45:00 AM 10.32 50.576 0.085 7.24 6.28 10.52
5/17/2021 10:00:00 AM 10.47 50.846 0.085 7.26 5.85 10.54
5/17/2021 10:15:00 AM 10.65 51.17 0.085 7.28 7.15 10.27
5/17/2021 10:30:00 AM 10.86 51.548 0.085 7.29 6.03 10.12
5/17/2021 10:45:00 AM 11.1 51.98 0.085 7.27 6.82 10.07
5/17/2021 11:00:00 AM 11.36 52.448 0.085 7.33 5.96 10.22
5/17/2021 11:15:00 AM 11.64 52.952 0.085 7.36 5.69 10.29
5/17/2021 11:30:00 AM 11.91 53.438 0.085 7.37 6.22 10.17
5/17/2021 11:45:00 AM 12.24 54.032 0.085 7.38 5.96 10.09
5/17/2021 12:00:00 PM 12.52 54.536 0.085 7.39 5.55 10.04
5/17/2021 12:15:00 PM 12.83 55.094 0.084 7.39 5.59 10.03
5/17/2021 12:30:00 PM 13.09 55.562 0.084 7.41 5.6 9.98
5/17/2021 12:45:00 PM 13.43 56.174 0.084 7.42 5.59 9.92
5/17/2021 1:00:00 PM 13.8 56.84 0.084 7.43 5.77 9.81
5/17/2021 1:15:00 PM 14.11 57.398 0.084 7.41 5.65 9.78
5/17/2021 1:30:00 PM 14.29 57.722 0.084 7.4 28.9 9.62
5/17/2021 1:45:00 PM 14.48 58.064 0.084 7.3 14.54 9.61
5/17/2021 2:00:00 PM 14.86 58.748 0.084 7.44 16.14 9.82
5/17/2021 2:15:00 PM 15.2 59.36 0.084 7.49 9.01 9.68
5/17/2021 2:30:00 PM 15.67 60.206 0.084 7.46 14.65 9.51
5/17/2021 2:45:00 PM 16.04 60.872 0.083 7.42 8.78 9.66
5/17/2021 3:00:00 PM 16.42 61.556 0.083 7.52 31.73 9.96
5/17/2021 3:15:00 PM 16.65 61.97 0.083 7.3 101.22 9.22
5/17/2021 3:30:00 PM 16.9 62.42 0.083 7.5 22.79 9.38
5/17/2021 3:45:00 PM 17.12 62.816 0.084 7.47 91.85 9.14
5/17/2021 4:00:00 PM 17.29 63.122 0.083 7.46 15.47 9.06
5/17/2021 4:15:00 PM 17.5 63.5 0.084 7.38 72.75 9.17
5/17/2021 4:30:00 PM 17.57 63.626 0.083 7.49 111.69 9.18
5/17/2021 4:45:00 PM 17.6 63.68 0.083 7.37 10.4 9.07
5/17/2021 5:00:00 PM 17.6 63.68 0.083 7.31 17.2 8.98
5/17/2021 5:15:00 PM 17.56 63.608 0.083 7.25 11.77 8.73
5/17/2021 5:30:00 PM 17.51 63.518 0.083 7.09 11.44 8.1
5/17/2021 5:45:00 PM 17.43 63.374 0.083 7.13 10.19 7.67
5/17/2021 6:00:00 PM 17.31 63.158 0.084 7.07 9.89 7.75
5/17/2021 6:15:00 PM 17.17 62.906 0.084 7.15 8.55 7.27
5/17/2021 6:30:00 PM 17.02 62.636 0.083 7.06 7.13 7.68
5/17/2021 6:45:00 PM 16.86 62.348 0.084 7.03 7.03 7.35
5/17/2021 7:00:00 PM 16.68 62.024 0.084 7.05 7.59 6.86
5/17/2021 7:15:00 PM 16.47 61.646 0.084 7.13 8.28 7.82
5/17/2021 7:30:00 PM 16.34 61.412 0.084 7.11 8.45 7.82
5/17/2021 7:45:00 PM 16.18 61.124 0.084 7.12 7.7 8.05
5/17/2021 8:00:00 PM 16.01 60.818 0.084 7.11 9.66 7.9
5/17/2021 8:15:00 PM 15.78 60.404 0.084 7.13 40.45 8.48
5/17/2021 8:30:00 PM 15.61 60.098 0.085 7.07 47.76 8.58
5/17/2021 8:45:00 PM 15.42 59.756 0.084 7.08 182.01 8.67
5/17/2021 9:00:00 PM 15.33 59.594 0.085 7.07 52.75 7.42
5/17/2021 9:15:00 PM 15.18 59.324 0.085 7.02 39.8 7.06
5/17/2021 9:30:00 PM 15.04 59.072 0.085 7.01 17 7.26
5/17/2021 9:45:00 PM 14.92 58.856 0.086 7.02 15.12 7.14
5/17/2021 10:00:00 PM 14.8 58.64 0.088 7.03 10.79 7.05
5/17/2021 10:15:00 PM 14.67 58.406 0.088 6.97 10.23 7.18
5/17/2021 10:30:00 PM 14.53 58.154 0.089 6.97 11.81 7.29
5/17/2021 10:45:00 PM 14.41 57.938 0.09 7 9.76 7.32
5/17/2021 11:00:00 PM 14.26 57.668 0.09 7.01 7.99 7.14
5/17/2021 11:15:00 PM 14.11 57.398 0.083 7.01 8 7.37
5/17/2021 11:30:00 PM 13.97 57.146 0.084 7.01 9.51 7.41
5/17/2021 11:45:00 PM 13.82 56.876 0.087 7.01 9.48 7.68
5/18/2021 12:00:00 AM 13.68 56.624 0.095 6.98 9.38 7.66
5/18/2021 12:15:00 AM 13.55 56.39 0.091 7.01 7.83 7.64
5/18/2021 12:30:00 AM 13.42 56.156 0.095 6.99 7.71 7.4
5/18/2021 12:45:00 AM 13.29 55.922 0.102 6.98 8.26 7.61
5/18/2021 1:00:00 AM 13.15 55.67 0.1 6.9 8.62 7.65
5/18/2021 1:15:00 AM 13.04 55.472 0.084 6.96 11.65 7.83
5/18/2021 1:30:00 AM 12.93 55.274 0.096 6.96 9.94 8.02
5/18/2021 1:45:00 AM 12.82 55.076 0.093 6.97 10.18 8.12
5/18/2021 2:00:00 AM 12.71 54.878 0.092 6.95 10.32 8.32
5/18/2021 2:15:00 AM 12.6 54.68 0.09 6.95 11.53 8.3
5/18/2021 2:30:00 AM 12.5 54.5 0.089 6.95 9.52 8.32
5/18/2021 2:45:00 AM 12.4 54.32 0.088 6.93 9.38 8.47
5/18/2021 3:00:00 AM 12.28 54.104 0.087 6.92 10.56 8.39
5/18/2021 3:15:00 AM 12.2 53.96 0.086 6.92 9.51 8.48
5/18/2021 3:30:00 AM 12.11 53.798 0.086 6.88 9.21 8.2
5/18/2021 3:45:00 AM 12.01 53.618 0.086 6.93 9.63 8.72
5/18/2021 4:00:00 AM 11.92 53.456 0.085 6.89 8.82 8.28
5/18/2021 4:15:00 AM 11.83 53.294 0.085 6.85 8.58 8.31
5/18/2021 4:30:00 AM 11.71 53.078 0.084 7.01 32.64 9.26
5/18/2021 4:45:00 AM 11.62 52.916 0.085 6.99 38.63 9.05
5/18/2021 5:00:00 AM 11.56 52.808 0.084 7.01 16.65 9.2
5/18/2021 5:15:00 AM 11.49 52.682 0.084 6.96 10.59 8.57
5/18/2021 5:30:00 AM 11.41 52.538 0.084 6.88 9.73 8.21
5/18/2021 5:45:00 AM 11.34 52.412 0.084 6.93 9.53 8.48
5/18/2021 6:00:00 AM 11.26 52.268 0.084 6.88 8.04 8.24
5/18/2021 6:15:00 AM 11.19 52.142 0.084 6.92 7.28 8.39
5/18/2021 6:30:00 AM 11.12 52.016 0.084 6.89 7.14 8.41
5/18/2021 6:45:00 AM 11.07 51.926 0.084 6.92 7.41 8.49
5/18/2021 7:00:00 AM 11.02 51.836 0.084 6.93 7.51 8.48
5/18/2021 7:15:00 AM 10.97 51.746 0.084 6.97 6.87 8.88
5/18/2021 7:30:00 AM 10.93 51.674 0.083 6.97 7.39 8.95
5/18/2021 7:45:00 AM 10.91 51.638 0.083 7.04 6.76 8.92
5/18/2021 8:00:00 AM 10.89 51.602 0.083 7.09 6.15 9.09
5/18/2021 8:15:00 AM 10.89 51.602 0.083 7.09 6.41 9.17
5/18/2021 8:30:00 AM 10.89 51.602 0.083 7.1 6.53 9.26
5/18/2021 8:45:00 AM 10.92 51.656 0.083 7.1 6.34 9.48
5/18/2021 9:00:00 AM 10.97 51.746 0.083 7.16 6.67 9.64
5/18/2021 9:15:00 AM 11.05 51.89 0.083 7.2 6.74 9.83
5/18/2021 9:30:00 AM 11.15 52.07 0.083 7.22 6.34 9.8
5/18/2021 9:45:00 AM 11.29 52.322 0.083 7.24 6.3 9.89
5/18/2021 10:00:00 AM 11.47 52.646 0.082 7.27 6.51 9.96
5/18/2021 10:15:00 AM 11.65 52.97 0.082 7.3 5.84 10
5/18/2021 10:30:00 AM 11.86 53.348 0.082 7.33 6.15 10.43
5/18/2021 10:45:00 AM 12.1 53.78 0.082 7.34 5.78 10.44
5/18/2021 11:00:00 AM 12.35 54.23 0.082 7.33 5.72 10.05
5/18/2021 11:15:00 AM 12.66 54.788 0.082 7.35 7.59 10.05
5/18/2021 11:30:00 AM 12.94 55.292 0.082 7.38 5.74 10.01
5/18/2021 11:45:00 AM 13.25 55.85 0.082 7.38 5.64 9.98
5/18/2021 12:00:00 PM 13.59 56.462 0.082 7.39 5.65 9.97
5/18/2021 12:15:00 PM 13.96 57.128 0.082 7.42 5.9 9.92
5/18/2021 12:30:00 PM 14.34 57.812 0.082 7.42 6.11 9.8
5/18/2021 12:45:00 PM 14.71 58.478 0.082 7.37 5.78 9.92
5/18/2021 1:00:00 PM 15.1 59.18 0.081 7.38 8.11 9.69
5/18/2021 1:15:00 PM 15.46 59.828 0.081 7.35 5.93 9.58
5/18/2021 1:30:00 PM 15.85 60.53 0.081 7.39 5.47 9.53
5/18/2021 1:45:00 PM 16.28 61.304 0.081 7.4 9.53 9.38
5/18/2021 2:00:00 PM 16.61 61.898 0.081 7.43 13.09 9.63
5/18/2021 2:15:00 PM 16.94 62.492 0.081 7.49 11.69 9.47
5/18/2021 2:30:00 PM 17.16 62.888 0.081 7.47 7.36 9.25
5/18/2021 2:45:00 PM 17.37 63.266 0.081 7.44 8.26 9.26
5/18/2021 3:00:00 PM 17.52 63.536 0.081 7.44 7.57 9.39
5/18/2021 3:15:00 PM 17.61 63.698 0.081 7.46 9.49 9.18
5/18/2021 3:30:00 PM 17.66 63.788 0.081 7.4 20.74 9.02
5/18/2021 3:45:00 PM 17.72 63.896 0.081 7.38 8.88 8.96
5/18/2021 4:00:00 PM 17.78 64.004 0.081 7.3 11.02 8.88
5/18/2021 4:15:00 PM 17.86 64.148 0.081 7.35 6.18 8.78
5/18/2021 4:30:00 PM 17.96 64.328 0.081 7.34 5.88 8.81
5/18/2021 4:45:00 PM 18.02 64.436 0.081 7.39 6.86 8.8
5/18/2021 5:00:00 PM 18.08 64.544 0.081 7.33 5.56 8.75
5/18/2021 5:15:00 PM 18.15 64.67 0.081 7.4 11.27 9.21
5/18/2021 5:30:00 PM 18.18 64.724 0.081 7.46 6.24 8.97
5/18/2021 5:45:00 PM 18.18 64.724 0.081 7.23 5.56 8.42
5/18/2021 6:00:00 PM 18.14 64.652 0.081 7.45 8.02 8.83
5/18/2021 6:15:00 PM 18.06 64.508 0.081 7.33 6.87 8.8
5/18/2021 6:30:00 PM 17.94 64.292 0.081 7.35 7.28 8.25
5/18/2021 6:45:00 PM 17.8 64.04 0.081 7.38 6.47 8.39
5/18/2021 7:00:00 PM 17.63 63.734 0.081 7.3 5.72 8.07
5/18/2021 7:15:00 PM 17.42 63.356 0.081 7.19 7.36 7.97
5/18/2021 7:30:00 PM 17.21 62.978 0.081 7.26 8.13 8.03
5/18/2021 7:45:00 PM 16.98 62.564 0.082 7.19 94.44 8.86
5/18/2021 8:00:00 PM 16.83 62.294 0.082 7.16 48.38 8.1
5/18/2021 8:15:00 PM 16.67 62.006 0.082 7 13.38 7.07
5/18/2021 8:30:00 PM 16.44 61.592 0.083 7.06 20.57 7.95
5/18/2021 8:45:00 PM 16.25 61.25 0.082 7.07 109.87 8.01
5/18/2021 9:00:00 PM 16.17 61.106 0.082 6.93 19.51 7.14
5/18/2021 9:15:00 PM 16.02 60.836 0.082 6.88 15.64 6.36
5/18/2021 9:30:00 PM 15.88 60.584 0.083 6.82 10.98 6.02
5/18/2021 9:45:00 PM 15.73 60.314 0.083 6.85 12.38 6.15
5/18/2021 10:00:00 PM 15.59 60.062 0.083 6.83 8.97 6.36
5/18/2021 10:15:00 PM 15.44 59.792 0.083 6.82 9.32 6.36
5/18/2021 10:30:00 PM 15.31 59.558 0.083 6.82 8.05 6.76
5/18/2021 10:45:00 PM 15.18 59.324 0.083 6.82 6.95 6.56
5/18/2021 11:00:00 PM 15.04 59.072 0.083 6.82 8.72 6.55
5/18/2021 11:15:00 PM 14.91 58.838 0.084 6.83 9.75 6.74
5/18/2021 11:30:00 PM 14.77 58.586 0.083 6.86 8.4 6.73
5/18/2021 11:45:00 PM 14.64 58.352 0.084 6.85 8.56 6.84
5/19/2021 12:00:00 AM 14.51 58.118 0.083 6.88 7.1 7.06
5/19/2021 12:15:00 AM 14.38 57.884 0.084 6.84 6.64 7.02
5/19/2021 12:30:00 AM 14.25 57.65 0.084 6.85 6.21 7
5/19/2021 12:45:00 AM 14.14 57.452 0.084 6.84 5.96 7.18
5/19/2021 1:00:00 AM 14.01 57.218 0.084 6.86 6.06 6.62
5/19/2021 1:15:00 AM 13.89 57.002 0.084 6.85 5.76 6.67
5/19/2021 1:30:00 AM 13.77 56.786 0.084 6.85 6.12 6.68
5/19/2021 1:45:00 AM 13.66 56.588 0.084 6.86 5.97 6.61
5/19/2021 2:00:00 AM 13.55 56.39 0.085 6.85 6.15 6.74
5/19/2021 2:15:00 AM 13.44 56.192 0.085 6.86 5.83 6.74
5/19/2021 2:30:00 AM 13.33 55.994 0.085 6.84 5.68 6.67
5/19/2021 2:45:00 AM 13.23 55.814 0.085 6.87 6.03 6.68
5/19/2021 3:00:00 AM 13.13 55.634 0.085 6.85 5.72 6.71
5/19/2021 3:15:00 AM 13.03 55.454 0.085 6.84 5.85 6.9
5/19/2021 3:30:00 AM 12.92 55.256 0.085 6.86 6.46 7.15
5/19/2021 3:45:00 AM 12.83 55.094 0.085 6.9 13.99 7.85
5/19/2021 4:00:00 AM 12.75 54.95 0.086 6.87 8.25 7.42
5/19/2021 4:15:00 AM 12.62 54.716 0.086 6.99 40.58 8.66
5/19/2021 4:30:00 AM 12.53 54.554 0.086 6.96 14.1 7.91
5/19/2021 4:45:00 AM 12.44 54.392 0.086 7.01 42.73 8.98
5/19/2021 5:00:00 AM 12.39 54.302 0.086 6.91 11.3 8.17
5/19/2021 5:15:00 AM 12.3 54.14 0.086 6.92 11.67 8.51
5/19/2021 5:30:00 AM 12.23 54.014 0.086 6.92 10.97 8.14
5/19/2021 5:45:00 AM 12.16 53.888 0.087 6.89 9.76 7.88
5/19/2021 6:00:00 AM 12.08 53.744 0.087 6.89 6.81 7.92
5/19/2021 6:15:00 AM 12.02 53.636 0.087 6.9 6.3 8.17
5/19/2021 6:30:00 AM 11.95 53.51 0.087 6.92 6.8 8.35
5/19/2021 6:45:00 AM 11.9 53.42 0.087 6.92 5.42 8.38
5/19/2021 7:00:00 AM 11.85 53.33 0.087 6.92 5.57 8.38
5/19/2021 7:15:00 AM 11.81 53.258 0.087 6.94 5.69 8.43
5/19/2021 7:30:00 AM 11.77 53.186 0.087 6.94 5.31 8.62
5/19/2021 7:45:00 AM 11.75 53.15 0.087 6.99 5.85 8.55
5/19/2021 8:00:00 AM 11.73 53.114 0.087 7.02 5.42 8.96
5/19/2021 8:15:00 AM 11.73 53.114 0.087 7.04 5.52 9.22
5/19/2021 8:30:00 AM 11.74 53.132 0.087 7.1 5.24 9.18
5/19/2021 8:45:00 AM 11.76 53.168 0.087 7.14 5.12 9.24
5/19/2021 9:00:00 AM 11.8 53.24 0.087 7.18 5.02 9.51
5/19/2021 9:15:00 AM 11.86 53.348 0.087 7.2 5.23 9.6
5/19/2021 9:30:00 AM 11.95 53.51 0.087 7.23 5.16 9.75
5/19/2021 9:45:00 AM 12.07 53.726 0.087 7.25 5.22 10.14
5/19/2021 10:00:00 AM 12.22 53.996 0.087 7.28 5.06 10.22
5/19/2021 10:15:00 AM 12.39 54.302 0.087 7.3 5.09 10.25
5/19/2021 10:30:00 AM 12.6 54.68 0.087 7.32 5.07 9.92
5/19/2021 10:45:00 AM 12.82 55.076 0.087 7.33 4.98 9.88
5/19/2021 11:00:00 AM 13.07 55.526 0.087 7.35 5.27 9.89
5/19/2021 11:15:00 AM 13.35 56.03 0.087 7.36 5.04 9.82
5/19/2021 11:30:00 AM 13.63 56.534 0.087 7.37 5.17 9.83
5/19/2021 11:45:00 AM 13.94 57.092 0.087 7.38 5.01 10.14
5/19/2021 12:00:00 PM 14.29 57.722 0.087 7.39 5.79 9.77
5/19/2021 12:15:00 PM 14.63 58.334 0.086 7.4 5.15 9.73
5/19/2021 12:30:00 PM 15.04 59.072 0.086 7.4 5.12 9.69
5/19/2021 12:45:00 PM 15.44 59.792 0.086 7.42 4.89 9.61
5/19/2021 1:00:00 PM 15.85 60.53 0.086 7.39 5.64 9.6
5/19/2021 1:15:00 PM 16.26 61.268 0.086 7.32 6.6 9.47
5/19/2021 1:30:00 PM 16.63 61.934 0.086 7.39 5.64 9.45
5/19/2021 1:45:00 PM 17.02 62.636 0.083 7.43 11.54 9.21
5/19/2021 2:00:00 PM 17.44 63.392 0.086 7.38 6.86 9.27
5/19/2021 2:15:00 PM 17.81 64.058 0.084 7.48 7.79 9.28
5/19/2021 2:30:00 PM 18.14 64.652 0.085 7.52 7.45 9.27
5/19/2021 2:45:00 PM 18.45 65.21 0.082 7.49 7.77 9.01
5/19/2021 3:00:00 PM 18.74 65.732 0.084 7.47 7.16 9.06
5/19/2021 3:15:00 PM 18.99 66.182 0.084 7.51 8.36 8.9
5/19/2021 3:30:00 PM 19.22 66.596 0.082 7.48 7.52 9.22
5/19/2021 3:45:00 PM 19.44 66.992 0.083 7.5 8.39 8.91
5/19/2021 4:00:00 PM 19.55 67.19 0.091 7.48 11.56 8.89
5/19/2021 4:15:00 PM 19.62 67.316 0.091 7.43 10.66 8.7
5/19/2021 4:30:00 PM 19.7 67.46 0.082 7.43 7.27 8.61
5/19/2021 4:45:00 PM 19.78 67.604 0.081 7.51 7.65 9.14
5/19/2021 5:00:00 PM 19.79 67.622 0.082 7.23 10.52 8.69
5/19/2021 5:15:00 PM 19.79 67.622 0.084 7.28 8.2 8.3
5/19/2021 5:30:00 PM 19.78 67.604 0.084 7.31 9.45 8.36
5/19/2021 5:45:00 PM 19.71 67.478 0.084 7.35 6.31 8.3
5/19/2021 6:00:00 PM 19.61 67.298 0.084 7.21 6.75 7.9
5/19/2021 6:15:00 PM 19.44 66.992 0.081 7.17 9.29 7.84
5/19/2021 6:30:00 PM 19.27 66.686 0.092 7.23 12.16 8.09
5/19/2021 6:45:00 PM 19.07 66.326 0.092 7.14 10.5 7.52
5/19/2021 7:00:00 PM 18.91 66.038 0.083 7.04 6.87 6.78
5/19/2021 7:15:00 PM 18.76 65.768 0.083 6.94 6.54 6.5
5/19/2021 7:30:00 PM 18.63 65.534 0.085 6.94 7.13 6.97
5/19/2021 7:45:00 PM 18.5 65.3 0.086 6.93 6.88 6.75
5/19/2021 8:00:00 PM 18.35 65.03 0.083 7.07 7.97 7.82
5/19/2021 8:15:00 PM 18.19 64.742 0.082 7.12 12.95 7.78
5/19/2021 8:30:00 PM 17.98 64.364 0.083 7.13 9.73 8.34
5/19/2021 8:45:00 PM 17.82 64.076 0.084 7.13 20.8 8.22
5/19/2021 9:00:00 PM 17.71 63.878 0.081 7.03 12.45 7.21
5/19/2021 9:15:00 PM 17.57 63.626 0.084 6.85 8.56 6.16
5/19/2021 9:30:00 PM 17.43 63.374 0.084 6.85 8.48 6.09
5/19/2021 9:45:00 PM 17.28 63.104 0.093 6.86 8.16 6.13
5/19/2021 10:00:00 PM 17.14 62.852 0.084 6.82 6.69 6.5
5/19/2021 10:15:00 PM 17 62.6 0.082 6.84 7.32 6.44
5/19/2021 10:30:00 PM 16.86 62.348 0.085 6.88 6.8 6.24
5/19/2021 10:45:00 PM 16.73 62.114 0.083 6.86 6.96 6.5
5/19/2021 11:00:00 PM 16.61 61.898 0.083 6.85 6.75 6.15
5/19/2021 11:15:00 PM 16.48 61.664 0.088 6.88 6.19 6.19
5/19/2021 11:30:00 PM 16.35 61.43 0.088 6.88 6.41 6.18
5/19/2021 11:45:00 PM 16.22 61.196 0.084 6.88 6.46 6.22
5/20/2021 12:00:00 AM 16.1 60.98 0.083 6.89 6.4 6.17
5/20/2021 12:15:00 AM 15.98 60.764 0.082 6.84 5.91 6.18
5/20/2021 12:30:00 AM 15.84 60.512 0.083 6.85 6.16 6.35
5/20/2021 12:45:00 AM 15.72 60.296 0.086 6.85 6.26 6.28
5/20/2021 1:00:00 AM 15.6 60.08 0.09 6.88 6.21 6.47
5/20/2021 1:15:00 AM 15.47 59.846 0.09 6.86 6.34 6.56
5/20/2021 1:30:00 AM 15.35 59.63 0.09 6.85 6.11 6.43
5/20/2021 1:45:00 AM 15.23 59.414 0.09 6.84 6.04 6.43
5/20/2021 2:00:00 AM 15.12 59.216 0.09 6.85 6.14 6.62
5/20/2021 2:15:00 AM 15 59 0.09 6.88 5.74 7.02
5/20/2021 2:30:00 AM 14.89 58.802 0.09 6.84 5.96 6.78
5/20/2021 2:45:00 AM 14.79 58.622 0.082 6.86 5.95 6.71
5/20/2021 3:00:00 AM 14.69 58.442 0.09 6.88 6.1 6.94
5/20/2021 3:15:00 AM 14.59 58.262 0.083 6.85 5.84 6.53
5/20/2021 3:30:00 AM 14.5 58.1 0.091 6.85 5.97 6.76
5/20/2021 3:45:00 AM 14.41 57.938 0.091 6.85 6.03 6.83
5/20/2021 4:00:00 AM 14.32 57.776 0.091 6.88 5.98 6.89
5/20/2021 4:15:00 AM 14.23 57.614 0.091 6.86 6.03 6.7
5/20/2021 4:30:00 AM 14.15 57.47 0.091 6.89 6.37 6.99
5/20/2021 4:45:00 AM 14.06 57.308 0.091 6.95 9.85 8.09
5/20/2021 5:00:00 AM 13.97 57.146 0.09 7 10.79 7.97
5/20/2021 5:15:00 AM 13.9 57.02 0.09 6.99 48.08 8.48
5/20/2021 5:30:00 AM 13.85 56.93 0.091 7.01 12.93 8.13
5/20/2021 5:45:00 AM 13.78 56.804 0.091 7 18.12 8.24
5/20/2021 6:00:00 AM 13.73 56.714 0.09 7.01 44.11 8.32
5/20/2021 6:15:00 AM 13.67 56.606 0.091 7 13.61 8.35
5/20/2021 6:30:00 AM 13.6 56.48 0.091 7.03 12.28 8.62
5/20/2021 6:45:00 AM 13.56 56.408 0.091 6.88 8.52 7.17
5/20/2021 7:00:00 AM 13.5 56.3 0.091 7.02 10.95 8.6
5/20/2021 7:15:00 AM 13.47 56.246 0.091 7 10.06 8.18
5/20/2021 7:30:00 AM 13.43 56.174 0.091 6.98 6.82 8.24
5/20/2021 7:45:00 AM 13.4 56.12 0.091 7.02 7.13 7.87
5/20/2021 8:00:00 AM 13.38 56.084 0.091 7.05 8.55 7.65
5/20/2021 8:15:00 AM 13.37 56.066 0.09 7.08 11.71 8.71
5/20/2021 8:30:00 AM 13.37 56.066 0.091 7.1 5.78 8.43
5/20/2021 8:45:00 AM 13.39 56.102 0.091 6.95 5.29 7.93
5/20/2021 9:00:00 AM 13.42 56.156 0.091 7.1 5.17 8.66
5/20/2021 9:15:00 AM 13.47 56.246 0.091 7.15 5.23 8.68
5/20/2021 9:30:00 AM 13.53 56.354 0.091 7.2 19.18 9.64
5/20/2021 9:45:00 AM 13.63 56.534 0.09 7.22 8.38 9.77
5/20/2021 10:00:00 AM 13.72 56.696 0.09 7.22 7.28 9.25
5/20/2021 10:15:00 AM 13.87 56.966 0.09 7.25 5.58 9.27
5/20/2021 10:30:00 AM 14.06 57.308 0.09 7.3 5.42 9.49
5/20/2021 10:45:00 AM 14.25 57.65 0.09 7.35 5.65 9.62
5/20/2021 11:00:00 AM 14.48 58.064 0.09 7.28 5.41 9.64
5/20/2021 11:15:00 AM 14.75 58.55 0.09 7.42 4.9 9.72
5/20/2021 11:30:00 AM 15.03 59.054 0.083 7.39 4.99 9.63
5/20/2021 11:45:00 AM 15.32 59.576 0.082 7.36 7.12 9.84
5/20/2021 12:00:00 PM 15.63 60.134 0.082 7.43 130.41 10.14
5/20/2021 12:15:00 PM 15.9 60.62 0.086 7.44 6.87 9.94
5/20/2021 12:30:00 PM 16.27 61.286 0.083 7.44 8.17 9.87
5/20/2021 12:45:00 PM 16.6 61.88 0.084 7.5 15.93 9.97
5/20/2021 1:00:00 PM 16.95 62.51 0.082 7.51 8.3 9.46
5/20/2021 1:15:00 PM 17.37 63.266 0.086 7.52 10.48 9.71
5/20/2021 1:30:00 PM 17.84 64.112 0.085 7.45 31.25 9.54
5/20/2021 1:45:00 PM 18.11 64.598 0.09 7.51 14.66 9.27
5/20/2021 2:00:00 PM 18.5 65.3 0.084 7.53 20.27 9.27
5/20/2021 2:15:00 PM 18.87 65.966 0.084 7.43 16 9.1
5/20/2021 2:30:00 PM 19.21 66.578 0.087 7.51 10.52 9.06
5/20/2021 2:45:00 PM 19.6 67.28 0.086 7.56 18.47 9.42
5/20/2021 3:00:00 PM 19.83 67.694 0.083 7.58 47.54 9.31
5/20/2021 3:15:00 PM 20.06 68.108 0.085 7.58 16.44 9.31
5/20/2021 3:30:00 PM 20.3 68.54 0.085 7.51 12.59 9.28
5/20/2021 3:45:00 PM 20.48 68.864 0.086 7.52 44.64 8.9
5/20/2021 4:00:00 PM 20.55 68.99 0.087 7.48 14.94 8.71
5/20/2021 4:15:00 PM 20.58 69.044 0.087 7.26 14.75 8.58
5/20/2021 4:30:00 PM 20.62 69.116 0.088 7.27 11.11 8.22
5/20/2021 4:45:00 PM 20.62 69.116 0.087 7.21 13.63 8.19
5/20/2021 5:00:00 PM 20.6 69.08 0.088 7.29 9.91 8.28
5/20/2021 5:15:00 PM 20.64 69.152 0.09 7.31 8.98 8.26
5/20/2021 5:30:00 PM 20.67 69.206 0.087 7.31 11.11 8.07
5/20/2021 5:45:00 PM 20.69 69.242 0.088 7.25 12.6 8.05
5/20/2021 6:00:00 PM 20.68 69.224 0.089 7.27 6.34 7.94
5/20/2021 6:15:00 PM 20.64 69.152 0.088 7.08 6.21 7.47
5/20/2021 6:30:00 PM 20.56 69.008 0.088 6.97 6.14 6.94
5/20/2021 6:45:00 PM 20.42 68.756 0.088 7.02 5.87 7.12
5/20/2021 7:00:00 PM 20.28 68.504 0.087 6.94 5.75 6.73
5/20/2021 7:15:00 PM 20.09 68.162 0.087 6.91 6.15 6.31
5/20/2021 7:30:00 PM 19.85 67.73 0.088 7.06 7.08 6.92
5/20/2021 7:45:00 PM 19.71 67.478 0.096 7.15 9.87 6.46
5/20/2021 8:00:00 PM 19.5 67.1 0.088 7.02 8.39 7.28
5/20/2021 8:15:00 PM 19.28 66.704 0.088 7.04 8.11 7.19
5/20/2021 8:30:00 PM 19.03 66.254 0.087 7.14 8.85 7.92
5/20/2021 8:45:00 PM 18.91 66.038 0.087 7.08 8.46 7.71
5/20/2021 9:00:00 PM 18.78 65.804 0.087 6.82 8.84 5.96
5/20/2021 9:15:00 PM 18.63 65.534 0.087 6.95 6.45 5.86
5/20/2021 9:30:00 PM 18.49 65.282 0.09 6.79 5.92 5.78
5/20/2021 9:45:00 PM 18.35 65.03 0.089 6.79 6.5 5.64
5/20/2021 10:00:00 PM 18.22 64.796 0.088 6.78 6.65 5.51
5/20/2021 10:15:00 PM 18.09 64.562 0.093 6.8 5.84 5.74
5/20/2021 10:30:00 PM 17.97 64.346 0.088 6.83 6.85 5.61
5/20/2021 10:45:00 PM 17.84 64.112 0.089 6.83 5.83 5.79
5/20/2021 11:00:00 PM 17.73 63.914 0.09 6.8 5.9 5.51
5/20/2021 11:15:00 PM 17.62 63.716 0.091 6.89 5.62 5.93
5/20/2021 11:30:00 PM 17.5 63.5 0.088 6.85 5.58 5.73
5/20/2021 11:45:00 PM 17.38 63.284 0.09 6.8 5.65 5.8
5/21/2021 12:00:00 AM 17.26 63.068 0.095 6.82 5.81 5.83
5/21/2021 12:15:00 AM 17.14 62.852 0.089 6.84 5.53 5.78
5/21/2021 12:30:00 AM 17.03 62.654 0.091 6.84 5.45 5.79
5/21/2021 12:45:00 AM 16.91 62.438 0.092 6.86 5.67 5.81
5/21/2021 1:00:00 AM 16.8 62.24 0.094 6.84 6.1 5.85
5/21/2021 1:15:00 AM 16.69 62.042 0.095 6.81 5.59 5.85
5/21/2021 1:30:00 AM 16.57 61.826 0.089 6.8 5.46 5.9
5/21/2021 1:45:00 AM 16.46 61.628 0.09 6.81 5.51 5.85
5/21/2021 2:00:00 AM 16.35 61.43 0.087 6.81 5.53 5.75
5/21/2021 2:15:00 AM 16.24 61.232 0.094 6.81 5.58 5.96
5/21/2021 2:30:00 AM 16.13 61.034 0.089 6.81 5.82 6.09
5/21/2021 2:45:00 AM 16.02 60.836 0.094 6.81 5.36 5.68
5/21/2021 3:00:00 AM 15.91 60.638 0.089 6.82 6.05 6.14
5/21/2021 3:15:00 AM 15.82 60.476 0.091 6.83 5.79 6.14
5/21/2021 3:30:00 AM 15.72 60.296 0.089 6.79 5.58 5.93
5/21/2021 3:45:00 AM 15.61 60.098 0.09 6.81 5.67 6.09
5/21/2021 4:00:00 AM 15.52 59.936 0.088 6.81 5.33 6.04
5/21/2021 4:15:00 AM 15.42 59.756 0.094 6.83 5.55 5.95
5/21/2021 4:30:00 AM 15.33 59.594 0.086 6.83 5.56 6.19
5/21/2021 4:45:00 AM 15.23 59.414 0.098 6.93 6.38 7.3
5/21/2021 5:00:00 AM 15.12 59.216 0.085 6.98 10.34 8
5/21/2021 5:15:00 AM 15.01 59.018 0.087 6.98 54.55 8.09
5/21/2021 5:30:00 AM 14.94 58.892 0.098 7 61.1 8.03
5/21/2021 5:45:00 AM 14.86 58.748 0.088 7 14.69 7.99
5/21/2021 6:00:00 AM 14.78 58.604 0.087 6.98 20.88 7.94
5/21/2021 6:15:00 AM 14.73 58.514 0.083 7 19.77 8.04
5/21/2021 6:30:00 AM 14.69 58.442 0.087 6.9 11.72 6.83
5/21/2021 6:45:00 AM 14.62 58.316 0.085 7.01 11.99 7.84
5/21/2021 7:00:00 AM 14.57 58.226 0.093 6.94 9.25 7.19
5/21/2021 7:15:00 AM 14.52 58.136 0.093 6.95 9.51 7.12
5/21/2021 7:30:00 AM 14.48 58.064 0.088 6.95 7.8 7.35
5/21/2021 7:45:00 AM 14.45 58.01 0.09 6.94 6.7 7.15
5/21/2021 8:00:00 AM 14.42 57.956 0.093 6.99 6.56 7.23
5/21/2021 8:15:00 AM 14.41 57.938 0.093 7.02 6.07 7.83
5/21/2021 8:30:00 AM 14.42 57.956 0.088 7.11 7.04 8.89
5/21/2021 8:45:00 AM 14.44 57.992 0.088 7.16 5.86 8.98
5/21/2021 9:00:00 AM 14.46 58.028 0.098 7.19 6.67 8.78
5/21/2021 9:15:00 AM 14.49 58.082 0.089 7.19 5.68 8.82
5/21/2021 9:30:00 AM 14.54 58.172 0.087 7.24 5.75 8.89
5/21/2021 9:45:00 AM 14.61 58.298 0.086 7.27 5.65 9.03
5/21/2021 10:00:00 AM 14.72 58.496 0.086 7.19 6.07 8.82
5/21/2021 10:15:00 AM 14.85 58.73 0.094 7.24 5.39 8.99
5/21/2021 10:30:00 AM 15.01 59.018 0.084 7.26 5.21 9.05
5/21/2021 10:45:00 AM 15.19 59.342 0.084 7.32 6.58 9.11
5/21/2021 11:00:00 AM 15.42 59.756 0.089 7.27 5.16 9.01
5/21/2021 11:15:00 AM 15.68 60.224 0.088 7.3 5.28 9.19
5/21/2021 11:30:00 AM 15.93 60.674 0.088 7.35 5.52 9.1
5/21/2021 11:45:00 AM 16.28 61.304 0.084 7.4 17.1 9.79
5/21/2021 12:00:00 PM 16.55 61.79 0.087 7.43 8.36 9.23
5/21/2021 12:15:00 PM 16.87 62.366 0.086 7.41 17.3 9.32
5/21/2021 12:30:00 PM 17.22 62.996 0.087 7.43 60.92 9.23
5/21/2021 12:45:00 PM 17.58 63.644 0.086 7.48 6.92 9.2
5/21/2021 1:00:00 PM 18.05 64.49 0.083 7.5 15.61 9.72
5/21/2021 1:15:00 PM 18.45 65.21 0.085 7.49 31.3 9.19
5/21/2021 1:30:00 PM 18.81 65.858 0.087 7.52 13.28 9.42
5/21/2021 1:45:00 PM 19.2 66.56 0.096 7.44 137.45 9.07
5/21/2021 2:00:00 PM 19.59 67.262 0.088 7.5 85.75 8.92
5/21/2021 2:15:00 PM 19.95 67.91 0.087 7.46 348.3 9.05
5/21/2021 2:30:00 PM 20.24 68.432 0.088 7.45 207.26 9.19
5/21/2021 2:45:00 PM 20.5 68.9 0.088 7.52 93.36 8.93
5/21/2021 3:00:00 PM 20.74 69.332 0.089 7.56 238.5 9.07
5/21/2021 3:15:00 PM 20.93 69.674 0.087 7.51 35.89 8.77
5/21/2021 3:30:00 PM 21.09 69.962 0.093 7.43 21.51 8.43
5/21/2021 3:45:00 PM 21.25 70.25 0.089 7.55 70.86 8.78
5/21/2021 4:00:00 PM 21.37 70.466 0.088 7.53 61.98 8.61
5/21/2021 4:15:00 PM 21.46 70.628 0.089 7.46 41.14 8.05
5/21/2021 4:30:00 PM 21.53 70.754 0.09 7.45 13.72 7.92
5/21/2021 4:45:00 PM 21.6 70.88 0.089 7.41 45.91 8.82
5/21/2021 5:00:00 PM 21.62 70.916 0.088 7.38 112.59 8.51
5/21/2021 5:15:00 PM 21.59 70.862 0.089 7.24 270.52 7.92
5/21/2021 5:30:00 PM 21.56 70.808 0.089 7.44 21.39 8.42
5/21/2021 5:45:00 PM 21.51 70.718 0.09 7.26 18.42 7.55
5/21/2021 6:00:00 PM 21.46 70.628 0.09 7.25 20.53 7.93
5/21/2021 6:15:00 PM 21.41 70.538 0.089 7.22 14.63 8.04
5/21/2021 6:30:00 PM 21.3 70.34 0.096 7.31 11.71 7.77
5/21/2021 6:45:00 PM 21.2 70.16 0.088 7.16 7.14 6.93
5/21/2021 7:00:00 PM 21.07 69.926 0.088 7.1 6.74 6.77
5/21/2021 7:15:00 PM 20.9 69.62 0.089 7.19 6.39 6.4
5/21/2021 7:30:00 PM 20.73 69.314 0.096 7.11 6.62 6.49
5/21/2021 7:45:00 PM 20.54 68.972 0.096 7.09 9.79 7.48
5/21/2021 8:00:00 PM 20.37 68.666 0.088 7.16 8.31 6.7
5/21/2021 8:15:00 PM 20.18 68.324 0.088 7.18 24.43 7.98
5/21/2021 8:30:00 PM 19.98 67.964 0.089 7.14 61.23 7.7
5/21/2021 8:45:00 PM 19.83 67.694 0.088 7.16 16.73 7.85
5/21/2021 9:00:00 PM 19.7 67.46 0.09 6.97 10.86 6.44
5/21/2021 9:15:00 PM 19.53 67.154 0.091 6.95 7.48 6.14
5/21/2021 9:30:00 PM 19.36 66.848 0.09 6.98 5.41 5.7
5/21/2021 9:45:00 PM 19.21 66.578 0.089 7.01 5.88 5.76
5/21/2021 10:00:00 PM 19.06 66.308 0.091 6.99 5.53 6.07
5/21/2021 10:15:00 PM 18.92 66.056 0.09 7 4.97 5.69
5/21/2021 10:30:00 PM 18.79 65.82201 0.089 6.9 4.83 5.81
5/21/2021 10:45:00 PM 18.66 65.588 0.09 6.87 5.16 5.86
5/21/2021 11:00:00 PM 18.54 65.372 0.088 6.94 4.85 6.36
5/21/2021 11:15:00 PM 18.43 65.174 0.089 6.93 4.62 5.69
5/21/2021 11:30:00 PM 18.31 64.958 0.089 6.93 4.61 5.73
5/21/2021 11:45:00 PM 18.2 64.76 0.089 6.93 4.85 5.94
5/22/2021 12:00:00 AM 18.09 64.562 0.089 6.92 4.83 6.38
5/22/2021 12:15:00 AM 17.98 64.364 0.089 6.92 5.01 6.15
5/22/2021 12:30:00 AM 17.88 64.184 0.099 6.9 4.91 6.41
5/22/2021 12:45:00 AM 17.78 64.004 0.09 6.9 5.35 6.42
5/22/2021 1:00:00 AM 17.68 63.824 0.099 6.91 5.49 6.32
5/22/2021 1:15:00 AM 17.57 63.626 0.091 6.88 4.88 6.12
5/22/2021 1:30:00 AM 17.47 63.446 0.096 6.83 4.78 6.14
5/22/2021 1:45:00 AM 17.37 63.266 0.09 6.86 4.97 6.06
5/22/2021 2:00:00 AM 17.27 63.086 0.091 6.87 4.49 6.25
5/22/2021 2:15:00 AM 17.17 62.906 0.093 6.89 4.43 6.58
5/22/2021 2:30:00 AM 17.08 62.744 0.089 6.87 4.76 6.27
5/22/2021 2:45:00 AM 16.99 62.582 0.099 6.84 4.62 6.4
5/22/2021 3:00:00 AM 16.9 62.42 0.091 6.85 5.78 6.35
5/22/2021 3:15:00 AM 16.82 62.276 0.092 6.91 5.08 6.63
5/22/2021 3:30:00 AM 16.73 62.114 0.09 6.89 4.84 6.33
5/22/2021 3:45:00 AM 16.65 61.97 0.088 6.91 5.18 6.36
5/22/2021 4:00:00 AM 16.58 61.844 0.095 6.9 4.54 6.48
5/22/2021 4:15:00 AM 16.5 61.7 0.097 6.91 4.73 6.65
5/22/2021 4:30:00 AM 16.43 61.574 0.091 6.88 4.99 6.71
5/22/2021 4:45:00 AM 16.3 61.34 0.09 6.95 22.16 7.36
5/22/2021 5:00:00 AM 16.24 61.232 0.087 6.94 8.4 7.39
5/22/2021 5:15:00 AM 16.14 61.052 0.088 6.97 16.12 7.73
5/22/2021 5:30:00 AM 16.07 60.926 0.089 6.95 9.72 7.18
5/22/2021 5:45:00 AM 16 60.8 0.086 6.94 8.05 7.54
5/22/2021 6:00:00 AM 15.94 60.692 0.088 6.85 5.59 6.47
5/22/2021 6:15:00 AM 15.88 60.584 0.095 6.9 5.19 6.43
5/22/2021 6:30:00 AM 15.81 60.458 0.095 6.92 5.1 6.25
5/22/2021 6:45:00 AM 15.75 60.35 0.088 6.9 5.08 6.69
5/22/2021 7:00:00 AM 15.7 60.26 0.088 6.91 4.48 6.76
5/22/2021 7:15:00 AM 15.66 60.188 0.089 6.95 5 6.99
5/22/2021 7:30:00 AM 15.63 60.134 0.088 7.02 5.36 7.29
5/22/2021 7:45:00 AM 15.62 60.116 0.086 7.01 4.57 7.52
5/22/2021 8:00:00 AM 15.62 60.116 0.087 6.97 4.68 7.3
5/22/2021 8:15:00 AM 15.62 60.116 0.085 6.99 4.4 7.54
5/22/2021 8:30:00 AM 15.64 60.152 0.086 7.03 4.45 7.7
5/22/2021 8:45:00 AM 15.67 60.206 0.098 7.08 4.43 8.06
5/22/2021 9:00:00 AM 15.7 60.26 0.087 7.11 4.54 8.13
5/22/2021 9:15:00 AM 15.75 60.35 0.087 7.14 4.25 8.35
5/22/2021 9:30:00 AM 15.81 60.458 0.084 7.22 4.65 8.56
5/22/2021 9:45:00 AM 15.9 60.62 0.082 7.22 4.58 8.87
5/22/2021 10:00:00 AM 15.98 60.764 0.082 7.33 4.06 8.92
5/22/2021 10:15:00 AM 16.09 60.962 0.087 7.38 4.5 9.15
5/22/2021 10:30:00 AM 16.21 61.178 0.084 7.32 4.14 9.19
5/22/2021 10:45:00 AM 16.33 61.394 0.083 7.43 4.23 9.26
5/22/2021 11:00:00 AM 16.48 61.664 0.088 7.48 4.2 9.36
5/22/2021 11:15:00 AM 16.63 61.934 0.084 7.44 4.1 9.39
5/22/2021 11:30:00 AM 16.8 62.24 0.085 7.47 3.91 9.46
5/22/2021 11:45:00 AM 16.95 62.51 0.086 7.51 3.99 9.46
5/22/2021 12:00:00 PM 17.1 62.78 0.093 7.56 4.02 9.31
5/22/2021 12:15:00 PM 17.26 63.068 0.083 7.56 3.98 9.43
5/22/2021 12:30:00 PM 17.44 63.392 0.087 7.58 3.92 9.33
5/22/2021 12:45:00 PM 17.64 63.752 0.087 7.57 4.46 9.33
5/22/2021 1:00:00 PM 17.88 64.184 0.085 7.65 4.31 9.41
5/22/2021 1:15:00 PM 18.14 64.652 0.096 7.67 4.05 9.39
5/22/2021 1:30:00 PM 18.39 65.102 0.088 7.65 4.14 9.36
5/22/2021 1:45:00 PM 18.64 65.552 0.087 7.59 18.29 9.21
5/22/2021 2:00:00 PM 18.83 65.894 0.087 7.77 4.71 9.33
5/22/2021 2:15:00 PM 18.99 66.182 0.088 7.66 4.98 9.22
5/22/2021 2:30:00 PM 19.08 66.344 0.096 7.66 4.13 8.97
5/22/2021 2:45:00 PM 19.15 66.47 0.084 7.63 4.26 9
5/22/2021 3:00:00 PM 19.2 66.56 0.086 7.59 4.09 8.92
5/22/2021 3:15:00 PM 19.27 66.686 0.086 7.57 4.22 8.77
5/22/2021 3:30:00 PM 19.33 66.794 0.087 7.6 3.95 8.8
5/22/2021 3:45:00 PM 19.41 66.938 0.087 7.59 4.83 8.74
5/22/2021 4:00:00 PM 19.5 67.1 0.087 7.65 4.06 8.62
5/22/2021 4:15:00 PM 19.59 67.262 0.085 7.59 4.48 8.68
5/22/2021 4:30:00 PM 19.63 67.334 0.086 7.53 5.26 8.58
5/22/2021 4:45:00 PM 19.66 67.388 0.087 7.53 4.49 8.63
5/22/2021 5:00:00 PM 19.67 67.406 0.088 7.56 7.27 8.71
5/22/2021 5:15:00 PM 19.67 67.406 0.087 7.47 6.35 8.37
5/22/2021 5:30:00 PM 19.66 67.388 0.086 7.41 4.53 8.29
5/22/2021 5:45:00 PM 19.67 67.406 0.086 7.39 4.81 8.12
5/22/2021 6:00:00 PM 19.61 67.298 0.086 7.19 5.09 7.55
5/22/2021 6:15:00 PM 19.56 67.208 0.086 7.38 5.31 7.46
5/22/2021 6:30:00 PM 19.5 67.1 0.087 7.34 4.5 7.67
5/22/2021 6:45:00 PM 19.45 67.01 0.088 7.1 4.72 7.71
5/22/2021 7:00:00 PM 19.37 66.866 0.087 7.1 5.11 7.07
5/22/2021 7:15:00 PM 19.29 66.722 0.084 7.11 4.68 7.16
5/22/2021 7:30:00 PM 19.17 66.506 0.096 7.21 6.71 7.75
5/22/2021 7:45:00 PM 19.06 66.308 0.088 7.02 4.79 7.06
5/22/2021 8:00:00 PM 18.94 66.092 0.093 7.2 11.48 8.22
5/22/2021 8:15:00 PM 18.82 65.876 0.088 7.23 9.57 8.06
5/22/2021 8:30:00 PM 18.72 65.696 0.088 7.2 28.84 7.67
5/22/2021 8:45:00 PM 18.64 65.552 0.088 7.18 10.93 7.77
5/22/2021 9:00:00 PM 18.58 65.444 0.087 6.94 10.13 6.23
5/22/2021 9:15:00 PM 18.51 65.318 0.085 7.03 7.01 6.02
5/22/2021 9:30:00 PM 18.43 65.174 0.086 6.97 5.24 5.76
5/22/2021 9:45:00 PM 18.35 65.03 0.097 7 6.13 6.07
5/22/2021 10:00:00 PM 18.27 64.886 0.088 7 4.8 5.83
5/22/2021 10:15:00 PM 18.2 64.76 0.086 6.9 4.87 6.21
5/22/2021 10:30:00 PM 18.13 64.634 0.084 6.99 5 6.15
5/22/2021 10:45:00 PM 18.06 64.508 0.084 6.95 5.12 6.48
5/22/2021 11:00:00 PM 18 64.4 0.086 6.96 4.71 6.09
5/22/2021 11:15:00 PM 17.94 64.292 0.087 6.96 4.9 6.37
5/22/2021 11:30:00 PM 17.88 64.184 0.085 6.98 5.61 6.35
5/22/2021 11:45:00 PM 17.82 64.076 0.085 6.98 4.54 6.4
5/23/2021 12:00:00 AM 17.77 63.986 0.087 6.91 4.74 6.18
5/23/2021 12:15:00 AM 17.71 63.878 0.084 6.93 4.56 6.11
5/23/2021 12:30:00 AM 17.65 63.77 0.085 6.97 4.93 6.42
5/23/2021 12:45:00 AM 17.6 63.68 0.087 6.95 4.75 6.39
5/23/2021 1:00:00 AM 17.55 63.59 0.086 6.94 4.76 6.57
5/23/2021 1:15:00 AM 17.5 63.5 0.084 6.98 4.65 6.54
5/23/2021 1:30:00 AM 17.44 63.392 0.084 6.95 4.38 6.47
5/23/2021 1:45:00 AM 17.39 63.302 0.085 6.96 4.81 6.41
5/23/2021 2:00:00 AM 17.34 63.212 0.096 6.97 4.91 6.64
5/23/2021 2:15:00 AM 17.3 63.14 0.087 6.96 4.78 6.57
5/23/2021 2:30:00 AM 17.24 63.032 0.086 6.93 5.47 6.69
5/23/2021 2:45:00 AM 17.2 62.96 0.092 6.96 4.63 6.6
5/23/2021 3:00:00 AM 17.14 62.852 0.084 6.91 6.32 6.61
5/23/2021 3:15:00 AM 17.09 62.762 0.085 6.95 6.79 7.12
5/23/2021 3:30:00 AM 17.06 62.708 0.084 6.87 5.57 6.89
5/23/2021 3:45:00 AM 17.02 62.636 0.084 6.96 5.23 6.93
5/23/2021 4:00:00 AM 16.97 62.546 0.086 6.97 5.38 6.92
5/23/2021 4:15:00 AM 16.92 62.456 0.084 6.96 4.91 6.89
5/23/2021 4:30:00 AM 16.88 62.384 0.091 6.93 4.92 6.94
5/23/2021 4:45:00 AM 16.82 62.276 0.084 6.95 5.49 6.85
5/23/2021 5:00:00 AM 16.75 62.15 0.092 6.99 8.55 7.37
5/23/2021 5:15:00 AM 16.7 62.06 0.087 7 16.67 7.59
5/23/2021 5:30:00 AM 16.66 61.988 0.084 6.98 14.96 7.43
5/23/2021 5:45:00 AM 16.62 61.916 0.091 6.96 8.09 7.12
5/23/2021 6:00:00 AM 16.57 61.826 0.084 6.89 6.15 6.61
5/23/2021 6:15:00 AM 16.52 61.736 0.087 6.95 6.36 6.85
5/23/2021 6:30:00 AM 16.48 61.664 0.085 6.96 5.94 6.77
5/23/2021 6:45:00 AM 16.44 61.592 0.085 6.95 5.29 6.45
5/23/2021 7:00:00 AM 16.4 61.52 0.093 6.93 6.21 6.87
5/23/2021 7:15:00 AM 16.38 61.484 0.088 6.95 4.93 6.72
5/23/2021 7:30:00 AM 16.36 61.448 0.084 7 5.23 6.98
5/23/2021 7:45:00 AM 16.36 61.448 0.085 6.97 5.55 6.86
5/23/2021 8:00:00 AM 16.36 61.448 0.085 6.96 5.01 6.78
5/23/2021 8:15:00 AM 16.38 61.484 0.087 7.01 4.82 7.14
5/23/2021 8:30:00 AM 16.41 61.538 0.089 7.06 4.77 7.45
5/23/2021 8:45:00 AM 16.44 61.592 0.086 7.1 4.57 7.68
5/23/2021 9:00:00 AM 16.48 61.664 0.092 7.15 4.52 7.96
5/23/2021 9:15:00 AM 16.52 61.736 0.084 7.18 4.48 7.94
5/23/2021 9:30:00 AM 16.57 61.826 0.092 7.21 4.32 8.15
5/23/2021 9:45:00 AM 16.63 61.934 0.087 7.21 24.14 8.31
5/23/2021 10:00:00 AM 16.71 62.078 0.085 7.27 5.29 8.38
5/23/2021 10:15:00 AM 16.81 62.258 0.092 7.33 4.4 8.42
5/23/2021 10:30:00 AM 16.91 62.438 0.085 7.27 4.9 8.59
5/23/2021 10:45:00 AM 17.05 62.69 0.087 7.4 4.09 8.84
5/23/2021 11:00:00 AM 17.19 62.942 0.086 7.43 4.5 8.89
5/23/2021 11:15:00 AM 17.43 63.374 0.094 7.4 51.53 9.24
5/23/2021 11:30:00 AM 17.61 63.698 0.082 7.42 14.63 9.33
5/23/2021 11:45:00 AM 17.71 63.878 0.081 7.44 8.93 9.11
5/23/2021 12:00:00 PM 17.89 64.202 0.085 7.49 6.14 9.1
5/23/2021 12:15:00 PM 18.04 64.472 0.089 7.43 5.36 8.75
5/23/2021 12:30:00 PM 18.17 64.706 0.087 7.48 5.13 8.79
5/23/2021 12:45:00 PM 18.31 64.958 0.088 7.56 5.15 8.85
5/23/2021 1:00:00 PM 18.48 65.264 0.086 7.55 5.79 8.94
5/23/2021 1:15:00 PM 18.62 65.516 0.086 7.61 5.2 8.95
5/23/2021 1:30:00 PM 18.89 66.002 0.083 7.68 5.56 8.96
5/23/2021 1:45:00 PM 19.11 66.398 0.084 7.66 4.33 9.03
5/23/2021 2:00:00 PM 19.51 67.118 0.094 7.64 8.24 8.83
5/23/2021 2:15:00 PM 19.72 67.496 0.085 7.7 8.14 9.25
5/23/2021 2:30:00 PM 19.91 67.838 0.09 7.69 7.01 8.74
5/23/2021 2:45:00 PM 20.13 68.234 0.084 7.8 12.18 9.35
5/23/2021 3:00:00 PM 20.24 68.432 0.084 7.7 21.98 9.12
5/23/2021 3:15:00 PM 20.27 68.486 0.083 7.7 11.7 9.18
5/23/2021 3:30:00 PM 20.31 68.558 0.093 7.63 70.48 9.01
5/23/2021 3:45:00 PM 20.33 68.594 0.084 7.6 16.51 8.91
5/23/2021 4:00:00 PM 20.36 68.648 0.086 7.57 28.75 8.92
5/23/2021 4:15:00 PM 20.42 68.756 0.086 7.54 9.56 8.35
5/23/2021 4:30:00 PM 20.46 68.828 0.09 7.48 12.41 8.26
5/23/2021 4:45:00 PM 0 32 0 0 0 0
5/23/2021 5:00:00 PM 20.52 68.936 0.086 7.38 7.64 8.48
5/23/2021 5:15:00 PM 20.53 68.954 0.085 7.55 6.53 8.41
5/23/2021 5:30:00 PM 20.52 68.936 0.085 7.35 5.43 8.04
5/23/2021 5:45:00 PM 20.48 68.864 0.085 7.26 6.97 7.73
5/23/2021 6:00:00 PM 20.41 68.738 0.091 7.16 6.04 7.7
5/23/2021 6:15:00 PM 20.34 68.612 0.085 7.21 5.35 6.87
5/23/2021 6:30:00 PM 20.17 68.306 0.085 7.3 30.32 8.21
5/23/2021 6:45:00 PM 20.08 68.144 0.086 7.29 13.9 7.87
5/23/2021 7:00:00 PM 19.93 67.874 0.083 7.24 13.57 7.58
5/23/2021 7:15:00 PM 19.8 67.64 0.086 7.22 14.32 7.85
5/23/2021 7:30:00 PM 19.71 67.478 0.086 7.15 8.39 6.83
5/23/2021 7:45:00 PM 19.57 67.226 0.086 7.07 9.84 6.87
5/23/2021 8:00:00 PM 19.48 67.064 0.087 6.95 6.14 6.25
5/23/2021 8:15:00 PM 19.33 66.794 0.087 7.03 6.11 7.07
5/23/2021 8:30:00 PM 19.2 66.56 0.086 7.1 10.23 7.59
5/23/2021 8:45:00 PM 19.04 66.272 0.086 7.09 18.19 7.06
5/23/2021 9:00:00 PM 18.95 66.11 0.087 6.95 8.81 6.65
5/23/2021 9:15:00 PM 18.82 65.876 0.085 6.96 9.57 6.17
5/23/2021 9:30:00 PM 18.68 65.624 0.087 6.94 6.94 6.24
5/23/2021 9:45:00 PM 18.56 65.408 0.097 6.89 6.6 6.24
5/23/2021 10:00:00 PM 18.44 65.192 0.087 6.92 5.27 6.37
5/23/2021 10:15:00 PM 18.32 64.976 0.089 6.88 5.14 6.43
5/23/2021 10:30:00 PM 18.2 64.76 0.087 6.83 5.88 6.14
5/23/2021 10:45:00 PM 18.09 64.562 0.086 6.89 5.17 6.63
5/23/2021 11:00:00 PM 17.96 64.328 0.087 6.83 5.6 6.07
5/23/2021 11:15:00 PM 17.84 64.112 0.085 6.87 5.31 6.09
5/23/2021 11:30:00 PM 17.72 63.896 0.092 6.96 5.64 6.6
5/23/2021 11:45:00 PM 17.59 63.662 0.087 6.88 5.04 6.28
5/24/2021 12:00:00 AM 17.49 63.482 0.089 6.94 4.57 6.27
5/24/2021 12:15:00 AM 17.38 63.284 0.083 6.96 4.87 6.29
5/24/2021 12:30:00 AM 17.27 63.086 0.083 6.99 4.68 6.17
5/24/2021 12:45:00 AM 17.17 62.906 0.089 6.98 4.51 6.23
5/24/2021 1:00:00 AM 17.06 62.708 0.086 6.96 4.44 7.05
5/24/2021 1:15:00 AM 16.95 62.51 0.087 6.95 5.23 6.68
5/24/2021 1:30:00 AM 16.85 62.33 0.086 6.98 4.67 7.23
5/24/2021 1:45:00 AM 16.76 62.168 0.083 6.97 4.56 6.69
5/24/2021 2:00:00 AM 16.67 62.006 0.087 6.97 4.67 7.14
5/24/2021 2:15:00 AM 16.58 61.844 0.088 6.97 4.38 6.81
5/24/2021 2:30:00 AM 16.49 61.682 0.087 6.95 4.72 6.42
5/24/2021 2:45:00 AM 16.4 61.52 0.086 6.96 5.29 6.26
5/24/2021 3:00:00 AM 16.31 61.358 0.086 6.98 4.69 7.07
5/24/2021 3:15:00 AM 16.22 61.196 0.086 6.98 4.69 6.91
5/24/2021 3:30:00 AM 16.13 61.034 0.088 6.98 5.1 7
5/24/2021 3:45:00 AM 16.05 60.89 0.09 6.96 4.86 7.41
5/24/2021 4:00:00 AM 15.96 60.728 0.09 6.97 4.83 7.29
5/24/2021 4:15:00 AM 15.88 60.584 0.091 6.99 4.62 7.38
5/24/2021 4:30:00 AM 15.8 60.44 0.088 6.98 4.74 7.25
5/24/2021 4:45:00 AM 15.71 60.278 0.086 6.97 4.84 7.35
5/24/2021 5:00:00 AM 15.62 60.116 0.09 6.96 7.46 7.67
5/24/2021 5:15:00 AM 15.55 59.99 0.089 7 8.64 7.53
5/24/2021 5:30:00 AM 15.49 59.882 0.09 6.96 5.65 7.27
5/24/2021 5:45:00 AM 15.44 59.792 0.087 6.93 5.79 7.54
5/24/2021 6:00:00 AM 15.38 59.684 0.094 6.97 4.76 7.6
5/24/2021 6:15:00 AM 15.32 59.576 0.085 6.97 5.01 7.52
5/24/2021 6:30:00 AM 15.27 59.486 0.093 6.94 4.25 7.42
5/24/2021 6:45:00 AM 15.22 59.396 0.088 6.93 4.5 7.49
5/24/2021 7:00:00 AM 15.17 59.306 0.089 6.96 4.67 7.38
5/24/2021 7:15:00 AM 15.14 59.252 0.087 6.98 4.17 7.3
5/24/2021 7:30:00 AM 15.11 59.198 0.087 7 4.52 7.23
5/24/2021 7:45:00 AM 15.08 59.144 0.095 7 4.54 7.44
5/24/2021 8:00:00 AM 15.07 59.126 0.092 7.02 4.23 7.46
5/24/2021 8:15:00 AM 15.08 59.144 0.087 7.04 4.77 7.68
5/24/2021 8:30:00 AM 15.1 59.18 0.085 7.06 4.13 8.01
5/24/2021 8:45:00 AM 15.12 59.216 0.085 7.12 4.45 8.26
5/24/2021 9:00:00 AM 15.14 59.252 0.093 7.16 4.13 8.38
5/24/2021 9:15:00 AM 15.17 59.306 0.085 7.2 4.01 8.59
5/24/2021 9:30:00 AM 15.21 59.378 0.087 7.25 4.21 8.8
5/24/2021 9:45:00 AM 15.26 59.468 0.086 7.28 4.41 8.86
5/24/2021 10:00:00 AM 15.3 59.54 0.093 7.3 4.14 8.96
5/24/2021 10:15:00 AM 15.35 59.63 0.092 7.32 4.81 8.96
5/24/2021 10:30:00 AM 15.42 59.756 0.083 7.36 3.86 9.15
5/24/2021 10:45:00 AM 15.52 59.936 0.085 7.39 4.23 9.29
5/24/2021 11:00:00 AM 15.68 60.224 0.083 7.17 4.18 9.48
5/24/2021 11:15:00 AM 15.89 60.602 0.084 7.27 3.91 9.51
5/24/2021 11:30:00 AM 16.09 60.962 0.096 7.44 3.99 9.5
5/24/2021 11:45:00 AM 16.27 61.286 0.086 7.28 4.03 9.56
5/24/2021 12:00:00 PM 16.46 61.628 0.085 7.5 4.3 9.53
5/24/2021 12:15:00 PM 16.64 61.952 0.097 7.46 3.72 9.51
5/24/2021 12:30:00 PM 16.86 62.348 0.084 7.54 4.19 9.5
5/24/2021 12:45:00 PM 17.14 62.852 0.084 7.5 4.02 9.54
5/24/2021 1:00:00 PM 17.44 63.392 0.096 7.5 4 9.51
5/24/2021 1:15:00 PM 17.78 64.004 0.084 7.4 4.07 9.63
5/24/2021 1:30:00 PM 18.11 64.598 0.085 7.69 3.81 9.62
5/24/2021 1:45:00 PM 18.54 65.372 0.085 7.79 4.67 9.53
5/24/2021 2:00:00 PM 18.9 66.02 0.086 7.77 4.26 9.47
5/24/2021 2:15:00 PM 19.2 66.56 0.096 7.88 4.25 9.68
5/24/2021 2:30:00 PM 19.44 66.992 0.096 7.91 4.19 9.28
5/24/2021 2:45:00 PM 19.74 67.532 0.085 7.84 11.04 9.46
5/24/2021 3:00:00 PM 19.85 67.73 0.094 7.85 5.02 9.12
5/24/2021 3:15:00 PM 20.03 68.054 0.083 7.78 4.84 9.08
5/24/2021 3:30:00 PM 20.09 68.162 0.082 7.91 3.92 9.08
5/24/2021 3:45:00 PM 20.09 68.162 0.081 7.51 3.94 8.76
5/24/2021 4:00:00 PM 20.09 68.162 0.083 7.5 4.27 8.43
5/24/2021 4:15:00 PM 20.05 68.09 0.085 7.43 4.5 8.18
5/24/2021 4:30:00 PM 19.98 67.964 0.084 7.39 4.04 7.94
5/24/2021 4:45:00 PM 19.88 67.784 0.085 7.3 4.13 8.2
5/24/2021 5:00:00 PM 19.76 67.568 0.082 7.24 4.17 7.7
5/24/2021 5:15:00 PM 19.63 67.334 0.083 7.11 4.37 7.59
5/24/2021 5:30:00 PM 19.49 67.082 0.085 7.08 4 7.59
5/24/2021 5:45:00 PM 19.33 66.794 0.086 7.2 4.14 7.99
5/24/2021 6:00:00 PM 19.17 66.506 0.086 7.09 4.19 7.31
5/24/2021 6:15:00 PM 19.01 66.218 0.085 7.16 4.27 7.58
5/24/2021 6:30:00 PM 18.87 65.966 0.085 6.97 4.28 7.16
5/24/2021 6:45:00 PM 18.73 65.714 0.083 7.11 4.92 6.99
5/24/2021 7:00:00 PM 18.6 65.48 0.084 7.07 4.85 7.06
5/24/2021 7:15:00 PM 18.47 65.246 0.084 6.99 5.22 7.95
5/24/2021 7:30:00 PM 18.32 64.976 0.096 7.18 5.34 7.59
5/24/2021 7:45:00 PM 18.17 64.706 0.084 7.07 6.86 7.66
5/24/2021 8:00:00 PM 18.02 64.436 0.092 7.19 6.58 8.14
5/24/2021 8:15:00 PM 17.88 64.184 0.083 7.16 11.38 7.98
5/24/2021 8:30:00 PM 17.78 64.004 0.085 7.1 9.89 7.66
5/24/2021 8:45:00 PM 17.64 63.752 0.085 7.12 8.68 7.95
5/24/2021 9:00:00 PM 17.56 63.608 0.085 7.08 7.24 6.89
5/24/2021 9:15:00 PM 17.44 63.392 0.085 7.05 7.85 6.69
5/24/2021 9:30:00 PM 17.34 63.212 0.094 7.06 7.02 6.77
5/24/2021 9:45:00 PM 17.23 63.014 0.087 7.05 7.36 6.65
5/24/2021 10:00:00 PM 17.13 62.834 0.088 7.01 6.65 6.87
5/24/2021 10:15:00 PM 17.04 62.672 0.099 6.97 7.21 6.48
5/24/2021 10:30:00 PM 16.95 62.51 0.084 6.99 6.59 6.57
5/24/2021 10:45:00 PM 16.86 62.348 0.088 6.97 7.14 6.62
5/24/2021 11:00:00 PM 16.78 62.204 0.088 6.99 6.47 6.63
5/24/2021 11:15:00 PM 16.7 62.06 0.088 6.98 6.72 6.51
5/24/2021 11:30:00 PM 16.62 61.916 0.085 7.02 6.76 6.65
5/24/2021 11:45:00 PM 16.54 61.772 0.095 7.01 6.16 6.42
5/25/2021 12:00:00 AM 16.48 61.664 0.09 7.03 6.16 6.37
5/25/2021 12:15:00 AM 16.42 61.556 0.087 7.03 6.07 6.55
5/25/2021 12:30:00 AM 16.36 61.448 0.086 7.02 6.17 6.87
5/25/2021 12:45:00 AM 16.3 61.34 0.084 7.03 5.89 6.71
5/25/2021 1:00:00 AM 16.23 61.214 0.095 7.03 5.92 6.71
5/25/2021 1:15:00 AM 16.16 61.088 0.088 7.01 5.99 6.63
5/25/2021 1:30:00 AM 16.11 60.998 0.091 7.01 5.72 6.69
5/25/2021 1:45:00 AM 16.06 60.908 0.088 7 6.13 6.8
5/25/2021 2:00:00 AM 16 60.8 0.097 7.01 5.54 6.88
5/25/2021 2:15:00 AM 15.95 60.71 0.101 7 5.81 6.86
5/25/2021 2:30:00 AM 15.9 60.62 0.091 6.98 5.56 6.68
5/25/2021 2:45:00 AM 15.85 60.53 0.089 7.01 5.66 6.87
5/25/2021 3:00:00 AM 15.8 60.44 0.089 7 5.32 6.45
5/25/2021 3:15:00 AM 15.75 60.35 0.088 6.97 5.33 6.31
5/25/2021 3:30:00 AM 15.69 60.242 0.09 7 5.61 6.56
5/25/2021 3:45:00 AM 15.63 60.134 0.092 6.96 5.36 7.28
5/25/2021 4:00:00 AM 15.59 60.062 0.089 6.97 5.24 6.66
5/25/2021 4:15:00 AM 15.54 59.972 0.086 6.96 4.96 6.7
5/25/2021 4:30:00 AM 15.49 59.882 0.089 6.95 5.04 6.98
5/25/2021 4:45:00 AM 15.43 59.774 0.09 6.99 6.01 7.31
5/25/2021 5:00:00 AM 15.36 59.648 0.09 7.01 7.93 7.82
5/25/2021 5:15:00 AM 15.32 59.576 0.085 7.02 8.43 7.87
5/25/2021 5:30:00 AM 15.27 59.486 0.088 7 7.66 7.8
5/25/2021 5:45:00 AM 15.23 59.414 0.102 7.01 13.21 7.73
5/25/2021 6:00:00 AM 15.21 59.378 0.09 6.97 6.5 7.42
5/25/2021 6:15:00 AM 15.18 59.324 0.089 6.97 5.82 7.2
5/25/2021 6:30:00 AM 15.14 59.252 0.086 6.96 6.05 7.2
5/25/2021 6:45:00 AM 15.11 59.198 0.087 6.99 5.49 7.36
5/25/2021 7:00:00 AM 15.07 59.126 0.088 6.97 5.2 7.51
5/25/2021 7:15:00 AM 15.04 59.072 0.084 6.97 5.45 7.18
5/25/2021 7:30:00 AM 15.01 59.018 0.084 6.99 5.26 7.45
5/25/2021 7:45:00 AM 14.99 58.982 0.096 6.99 4.7 7.09
5/25/2021 8:00:00 AM 14.97 58.946 0.088 6.99 4.46 7.21
5/25/2021 8:15:00 AM 14.96 58.928 0.087 7.02 5.12 7.34
5/25/2021 8:30:00 AM 14.97 58.946 0.097 7.03 4.43 7.55
5/25/2021 8:45:00 AM 14.99 58.982 0.087 7.03 4.28 7.85
5/25/2021 9:00:00 AM 15.03 59.054 0.087 7.13 4.34 8.32
5/25/2021 9:15:00 AM 15.1 59.18 0.09 7.2 4.39 8.67
5/25/2021 9:30:00 AM 15.19 59.342 0.088 7.24 4.15 8.93
5/25/2021 9:45:00 AM 15.26 59.468 0.088 7.28 4.25 8.97
5/25/2021 10:00:00 AM 15.32 59.576 0.095 7.31 4.71 9.09
5/25/2021 10:15:00 AM 15.38 59.684 0.087 7.34 4.39 9.3
5/25/2021 10:30:00 AM 15.45 59.81 0.095 7.37 4.22 9.29
5/25/2021 10:45:00 AM 15.59 60.062 0.088 7.38 4.1 9.44
5/25/2021 11:00:00 AM 15.8 60.44 0.083 7.51 3.98 9.55
5/25/2021 11:15:00 AM 16.04 60.872 0.086 7.58 3.92 9.64
5/25/2021 11:30:00 AM 16.28 61.304 0.094 7.62 5.53 9.75
5/25/2021 11:45:00 AM 16.43 61.574 0.094 7.63 4.92 9.84
5/25/2021 12:00:00 PM 16.54 61.772 0.094 7.69 4.28 10.14
5/25/2021 12:15:00 PM 16.7 62.06 0.084 7.72 4.28 9.85
5/25/2021 12:30:00 PM 16.94 62.492 0.093 7.78 3.99 9.83
5/25/2021 12:45:00 PM 17.29 63.122 0.089 7.87 5.55 9.87
5/25/2021 1:00:00 PM 17.65 63.77 0.087 7.9 4.1 10.06
5/25/2021 1:15:00 PM 18.02 64.436 0.095 7.99 4.02 10.07
5/25/2021 1:30:00 PM 18.34 65.012 0.089 8 4.02 9.7
5/25/2021 1:45:00 PM 18.77 65.786 0.09 7.98 5.46 10.01
5/25/2021 2:00:00 PM 19.12 66.416 0.089 7.94 6.46 9.98
5/25/2021 2:15:00 PM 19.46 67.028 0.09 8.07 4.71 9.6
5/25/2021 2:30:00 PM 19.76 67.568 0.089 8.03 3.97 9.56
5/25/2021 2:45:00 PM 20.05 68.09 0.091 7.83 10.07 9.67
5/25/2021 3:00:00 PM 20.28 68.504 0.089 8.06 4.33 9.31
5/25/2021 3:15:00 PM 20.58 69.044 0.089 8.03 5.16 9.13
5/25/2021 3:30:00 PM 20.78 69.404 0.089 8.14 4.19 9.31
5/25/2021 3:45:00 PM 20.96 69.728 0.089 8.11 4.29 9.21
5/25/2021 4:00:00 PM 21.19 70.142 0.09 8.04 4.97 9.2
5/25/2021 4:15:00 PM 21.33 70.394 0.091 8.05 5.06 9.15
5/25/2021 4:30:00 PM 21.4 70.52 0.091 7.95 8.91 9.03
5/25/2021 4:45:00 PM 21.4 70.52 0.092 7.87 5.34 8.7
5/25/2021 5:00:00 PM 21.44 70.592 0.089 7.93 4.65 8.63
5/25/2021 5:15:00 PM 21.46 70.628 0.098 7.82 4.71 8.58
5/25/2021 5:30:00 PM 21.46 70.628 0.088 7.69 4.43 8.31
5/25/2021 5:45:00 PM 21.42 70.556 0.09 7.8 5 8.68
5/25/2021 6:00:00 PM 21.37 70.466 0.091 7.23 14.28 8.52
5/25/2021 6:15:00 PM 21.32 70.376 0.091 7.56 5.43 7.86
5/25/2021 6:30:00 PM 21.25 70.25 0.09 7.48 5.18 7.62
5/25/2021 6:45:00 PM 21.17 70.106 0.099 7.6 4.58 7.61
5/25/2021 7:00:00 PM 21.07 69.926 0.093 7.54 4.53 7.16
5/25/2021 7:15:00 PM 20.93 69.674 0.091 7.47 4.49 6.93
5/25/2021 7:30:00 PM 20.75 69.35 0.095 7.57 11.79 8.13
5/25/2021 7:45:00 PM 20.64 69.152 0.09 7.29 5.23 7.62
5/25/2021 8:00:00 PM 20.46 68.828 0.09 7.44 5.27 6.95
5/25/2021 8:15:00 PM 20.27 68.486 0.095 7.36 4.71 6.83
5/25/2021 8:30:00 PM 20.06 68.108 0.09 7.23 6.72 8.07
5/25/2021 8:45:00 PM 19.91 67.838 0.09 7.23 5.71 7.38
5/25/2021 9:00:00 PM 19.76 67.568 0.097 7.19 5.17 6.9
5/25/2021 9:15:00 PM 19.61 67.298 0.092 7.18 4.84 6.3
5/25/2021 9:30:00 PM 19.47 67.046 0.091 7.11 4.77 6.06
5/25/2021 9:45:00 PM 19.34 66.812 0.091 7.1 4.84 5.91
5/25/2021 10:00:00 PM 19.21 66.578 0.091 7.08 5.28 6.09
5/25/2021 10:15:00 PM 19.09 66.362 0.093 7.06 4.8 5.99
5/25/2021 10:30:00 PM 18.97 66.146 0.091 7 4.98 5.78
5/25/2021 10:45:00 PM 18.86 65.948 0.091 6.98 4.9 5.46
5/25/2021 11:00:00 PM 18.76 65.768 0.092 6.97 4.77 5.61
5/25/2021 11:15:00 PM 18.66 65.588 0.093 6.91 4.79 5.73
5/25/2021 11:30:00 PM 18.57 65.426 0.091 6.98 4.93 5.7
5/25/2021 11:45:00 PM 18.48 65.264 0.092 6.99 5.38 5.77
5/26/2021 12:00:00 AM 18.39 65.102 0.093 6.98 4.95 5.65
5/26/2021 12:15:00 AM 18.31 64.958 0.091 6.97 5.21 5.66
5/26/2021 12:30:00 AM 18.23 64.814 0.091 6.97 4.73 5.74
5/26/2021 12:45:00 AM 18.16 64.688 0.097 6.95 4.71 5.8
5/26/2021 1:00:00 AM 18.09 64.562 0.092 6.9 4.88 5.74
5/26/2021 1:15:00 AM 18.01 64.418 0.099 6.95 5.22 5.82
5/26/2021 1:30:00 AM 17.94 64.292 0.093 6.94 4.98 5.94
5/26/2021 1:45:00 AM 17.87 64.166 0.093 6.92 5.01 5.86
5/26/2021 2:00:00 AM 17.8 64.04 0.089 6.93 5.18 5.69
5/26/2021 2:15:00 AM 17.72 63.896 0.09 6.94 4.79 5.81
5/26/2021 2:30:00 AM 17.65 63.77 0.091 6.94 4.82 5.76
5/26/2021 2:45:00 AM 17.56 63.608 0.09 6.94 5.32 6.47
5/26/2021 3:00:00 AM 17.5 63.5 0.089 6.93 4.96 6.01
5/26/2021 3:15:00 AM 17.44 63.392 0.089 6.9 5.05 5.9
5/26/2021 3:30:00 AM 17.34 63.212 0.088 6.95 5.21 6.55
5/26/2021 3:45:00 AM 17.3 63.14 0.103 6.93 4.89 5.78
5/26/2021 4:00:00 AM 17.23 63.014 0.091 6.93 4.93 5.91
5/26/2021 4:15:00 AM 17.16 62.888 0.088 6.93 4.87 5.97
5/26/2021 4:30:00 AM 17.09 62.762 0.088 6.94 5.47 6.23
5/26/2021 4:45:00 AM 17.02 62.636 0.091 6.94 5.18 6.71
5/26/2021 5:00:00 AM 16.93 62.474 0.094 6.96 6.52 7.08
5/26/2021 5:15:00 AM 16.87 62.366 0.088 6.94 5.47 6.74
5/26/2021 5:30:00 AM 16.82 62.276 0.085 6.9 5.45 6.73
5/26/2021 5:45:00 AM 16.77 62.186 0.098 6.96 4.88 6.23
5/26/2021 6:00:00 AM 16.7 62.06 0.088 6.89 5.45 6.2
5/26/2021 6:15:00 AM 16.65 61.97 0.09 6.92 4.88 6.18
5/26/2021 6:30:00 AM 16.6 61.88 0.087 6.96 4.79 6.44
5/26/2021 6:45:00 AM 16.56 61.808 0.089 6.96 4.55 6.38
5/26/2021 7:00:00 AM 16.53 61.754 0.09 6.93 4.25 6.39
5/26/2021 7:15:00 AM 16.5 61.7 0.099 6.93 4.29 6.32
5/26/2021 7:30:00 AM 16.48 61.664 0.088 6.94 4.44 6.44
5/26/2021 7:45:00 AM 16.47 61.646 0.088 6.95 4.38 6.66
5/26/2021 8:00:00 AM 16.47 61.646 0.089 6.93 4.44 6.73
5/26/2021 8:15:00 AM 16.49 61.682 0.09 6.98 4.18 7.14
5/26/2021 8:30:00 AM 16.52 61.736 0.093 7 6.12 7.52
5/26/2021 8:45:00 AM 16.55 61.79 0.097 7.07 4.85 7.83
5/26/2021 9:00:00 AM 16.6 61.88 0.089 7.13 4.31 8.08
5/26/2021 9:15:00 AM 16.67 62.006 0.087 6.97 4.12 8.25
5/26/2021 9:30:00 AM 16.74 62.132 0.089 7.01 4.19 8.31
5/26/2021 9:45:00 AM 16.83 62.294 0.091 7.18 4.03 8.51
5/26/2021 10:00:00 AM 16.92 62.456 0.092 7.19 4.29 8.7
5/26/2021 10:15:00 AM 17.08 62.744 0.088 7.17 3.97 8.82
5/26/2021 10:30:00 AM 17.28 63.104 0.095 7.22 4.29 8.9
5/26/2021 10:45:00 AM 17.46 63.428 0.09 7.33 4.27 9.12
5/26/2021 11:00:00 AM 17.6 63.68 0.089 7.3 4.06 8.94
5/26/2021 11:15:00 AM 17.77 63.986 0.087 7.32 4.08 9.09
5/26/2021 11:30:00 AM 17.99 64.382 0.088 7.4 3.99 9.24
5/26/2021 11:45:00 AM 18.23 64.814 0.096 7.45 4.03 9.18
5/26/2021 12:00:00 PM 18.51 65.318 0.087 7.51 3.85 9.35
5/26/2021 12:15:00 PM 18.8 65.84 0.089 7.51 4.01 9.36
5/26/2021 12:30:00 PM 19.08 66.344 0.1 7.65 3.89 9.31
5/26/2021 12:45:00 PM 19.46 67.028 0.087 7.65 4.27 9.52
5/26/2021 1:00:00 PM 19.78 67.604 0.088 7.62 6.9 9.41
5/26/2021 1:15:00 PM 20.07 68.126 0.089 7.71 4.91 9.49
5/26/2021 1:30:00 PM 20.31 68.558 0.09 7.72 4.12 9.09
5/26/2021 1:45:00 PM 20.69 69.242 0.091 7.7 9.06 8.97
5/26/2021 2:00:00 PM 20.95 69.71 0.089 7.86 4.65 9.15
5/26/2021 2:15:00 PM 21.29 70.32201 0.09 7.75 4.13 9.19
5/26/2021 2:30:00 PM 21.65 70.97 0.088 7.93 5.17 9.34
5/26/2021 2:45:00 PM 21.95 71.51 0.091 7.92 5.48 9.31
5/26/2021 3:00:00 PM 22.19 71.942 0.09 7.92 5.72 9.24
5/26/2021 3:15:00 PM 22.29 72.122 0.096 7.89 5.19 9.1
5/26/2021 3:30:00 PM 22.39 72.302 0.093 7.93 5.26 9.07
5/26/2021 3:45:00 PM 22.47 72.446 0.092 7.96 8.45 8.69
5/26/2021 4:00:00 PM 22.46 72.42799 0.091 7.89 6.6 8.47
5/26/2021 4:15:00 PM 22.43 72.374 0.096 7.83 20.02 8.77
5/26/2021 4:30:00 PM 22.38 72.284 0.093 7.63 7.22 8.08
5/26/2021 4:45:00 PM 22.29 72.122 0.099 7.36 5.84 7.91
5/26/2021 5:00:00 PM 22.16 71.888 0.092 7.48 13.87 7.99
5/26/2021 5:15:00 PM 22.11 71.798 0.092 7.28 6.86 7.25
5/26/2021 5:30:00 PM 22.09 71.762 0.09 7.35 5.52 7.09
5/26/2021 5:45:00 PM 22.06 71.708 0.091 7.31 8.28 7.37
5/26/2021 6:00:00 PM 22.03 71.654 0.1 7.29 6.85 7.37
5/26/2021 6:15:00 PM 21.98 71.564 0.097 7.26 6.59 7.54
5/26/2021 6:30:00 PM 21.89 71.402 0.093 7.33 5.97 7.9
5/26/2021 6:45:00 PM 21.83 71.294 0.092 7.29 5.61 7.94
5/26/2021 7:00:00 PM 21.71 71.078 0.09 7.14 8.44 7.59
5/26/2021 7:15:00 PM 21.6 70.88 0.093 7.26 13.35 7.81
5/26/2021 7:30:00 PM 21.48 70.664 0.093 7.24 10.27 7.54
5/26/2021 7:45:00 PM 21.34 70.412 0.093 6.96 7.58 7.22
5/26/2021 8:00:00 PM 21.14 70.052 0.094 7.16 6.68 6.83
5/26/2021 8:15:00 PM 20.93 69.674 0.091 7.09 5.8 7.1
5/26/2021 8:30:00 PM 20.74 69.332 0.089 7.12 6.78 6.97
5/26/2021 8:45:00 PM 20.58 69.044 0.099 7.02 92.22 6.29
5/26/2021 9:00:00 PM 20.45 68.81 0.089 6.95 14.09 5.64
5/26/2021 9:15:00 PM 20.34 68.612 0.09 7 15.65 5.63
5/26/2021 9:30:00 PM 20.22 68.396 0.092 7.02 15.23 5.78
5/26/2021 9:45:00 PM 20.1 68.18 0.093 6.86 13.92 5.55
5/26/2021 10:00:00 PM 20 68 0.092 6.75 11.68 5.31
5/26/2021 10:15:00 PM 19.89 67.802 0.093 6.72 11.7 5.53
5/26/2021 10:30:00 PM 19.79 67.622 0.094 6.83 12.46 5.68
5/26/2021 10:45:00 PM 19.69 67.442 0.093 6.79 13.41 5.54
5/26/2021 11:00:00 PM 19.6 67.28 0.09 6.82 13.31 5.33
5/26/2021 11:15:00 PM 19.51 67.118 0.09 6.79 12.38 5.16
5/26/2021 11:30:00 PM 19.42 66.956 0.089 6.92 12.24 5.36
5/26/2021 11:45:00 PM 19.33 66.794 0.096 6.92 11.29 5.5
5/27/2021 12:00:00 AM 19.24 66.632 0.09 6.99 11.27 5.35
5/27/2021 12:15:00 AM 19.16 66.488 0.093 6.74 10.97 5.47
5/27/2021 12:30:00 AM 19.08 66.344 0.101 6.82 10.32 5.5
5/27/2021 12:45:00 AM 18.99 66.182 0.091 6.83 9.25 5.6
5/27/2021 1:00:00 AM 18.91 66.038 0.092 6.89 8.45 5.58
5/27/2021 1:15:00 AM 18.82 65.876 0.092 6.89 7.85 5.58
5/27/2021 1:30:00 AM 18.73 65.714 0.092 6.87 7.28 5.69
5/27/2021 1:45:00 AM 18.63 65.534 0.091 6.77 6.83 5.79
5/27/2021 2:00:00 AM 18.53 65.354 0.097 6.87 6.58 5.7
5/27/2021 2:15:00 AM 18.44 65.192 0.09 6.78 6.33 5.76
5/27/2021 2:30:00 AM 18.34 65.012 0.088 6.99 6.24 5.74
5/27/2021 2:45:00 AM 18.24 64.832 0.089 6.82 6.29 5.75
5/27/2021 3:00:00 AM 18.14 64.652 0.091 6.96 5.79 5.9
5/27/2021 3:15:00 AM 18.04 64.472 0.088 7 11.19 5.97
5/27/2021 3:30:00 AM 17.96 64.328 0.089 6.92 6.89 5.96
5/27/2021 3:45:00 AM 17.88 64.184 0.095 6.82 6.38 5.92
5/27/2021 4:00:00 AM 17.8 64.04 0.092 6.94 5.85 5.93
5/27/2021 4:15:00 AM 17.72 63.896 0.091 6.98 5.55 6.07
5/27/2021 4:30:00 AM 17.64 63.752 0.089 6.86 5.4 5.97
5/27/2021 4:45:00 AM 17.56 63.608 0.089 6.9 5.86 5.95
5/27/2021 5:00:00 AM 17.45 63.41 0.088 6.99 9.87 7.15
5/27/2021 5:15:00 AM 17.39 63.302 0.09 6.97 5.53 6.96
5/27/2021 5:30:00 AM 17.32 63.176 0.095 6.93 5.29 6.25
5/27/2021 5:45:00 AM 17.25 63.05 0.087 6.87 5.13 6.19
5/27/2021 6:00:00 AM 17.17 62.906 0.091 6.93 5.4 6.01
5/27/2021 6:15:00 AM 17.09 62.762 0.097 6.97 5.49 6.91
5/27/2021 6:30:00 AM 17.01 62.618 0.087 6.98 4.83 6.31
5/27/2021 6:45:00 AM 16.94 62.492 0.087 7.01 4.72 6.27
5/27/2021 7:00:00 AM 16.88 62.384 0.085 6.94 4.75 6.32
5/27/2021 7:15:00 AM 16.82 62.276 0.087 6.94 4.5 6.51
5/27/2021 7:30:00 AM 16.77 62.186 0.09 6.99 4.46 6.53
5/27/2021 7:45:00 AM 16.73 62.114 0.101 7.03 4.86 6.72
5/27/2021 8:00:00 AM 16.69 62.042 0.086 7.03 4.48 6.83
5/27/2021 8:15:00 AM 16.67 62.006 0.087 7.01 4.29 7.07
5/27/2021 8:30:00 AM 16.66 61.988 0.091 6.96 4.41 7.17
5/27/2021 8:45:00 AM 16.65 61.97 0.087 6.95 4.37 7.13
5/27/2021 9:00:00 AM 16.64 61.952 0.089 6.96 4.32 7.26
5/27/2021 9:15:00 AM 16.65 61.97 0.088 6.93 4.46 7.47
5/27/2021 9:30:00 AM 16.65 61.97 0.089 7.02 4.42 7.79
5/27/2021 9:45:00 AM 16.67 62.006 0.095 6.96 4.13 7.9
5/27/2021 10:00:00 AM 16.7 62.06 0.087 7.05 4.14 8.11
5/27/2021 10:15:00 AM 16.76 62.168 0.088 7.19 4.16 8.31
5/27/2021 10:30:00 AM 16.84 62.312 0.088 7.28 4.1 8.4
5/27/2021 10:45:00 AM 16.94 62.492 0.09 7.3 3.98 8.62
5/27/2021 11:00:00 AM 17.09 62.762 0.091 7.36 4.11 8.69
5/27/2021 11:15:00 AM 17.23 63.014 0.087 7.39 4.05 8.77
5/27/2021 11:30:00 AM 17.39 63.302 0.089 7.42 4.13 8.79
5/27/2021 11:45:00 AM 17.53 63.554 0.088 7.44 3.94 8.86
5/27/2021 12:00:00 PM 17.7 63.86 0.088 7.45 3.86 8.93
5/27/2021 12:15:00 PM 17.89 64.202 0.09 7.44 3.91 8.95
5/27/2021 12:30:00 PM 18.12 64.616 0.09 7.49 3.77 9.35
5/27/2021 12:45:00 PM 18.36 65.048 0.088 7.54 3.87 9.15
5/27/2021 1:00:00 PM 18.56 65.408 0.086 7.58 3.88 9.19
5/27/2021 1:15:00 PM 18.78 65.804 0.086 7.55 3.96 9.13
5/27/2021 1:30:00 PM 18.98 66.164 0.088 7.61 10.23 9.08
5/27/2021 1:45:00 PM 19.19 66.542 0.088 7.45 4.29 9.12
5/27/2021 2:00:00 PM 19.43 66.974 0.086 7.44 3.86 9.15
5/27/2021 2:15:00 PM 19.72 67.496 0.088 7.35 4.01 9.12
5/27/2021 2:30:00 PM 20.16 68.288 0.088 7.73 18.41 9.53
5/27/2021 2:45:00 PM 20.36 68.648 0.086 7.66 6.15 9.4
5/27/2021 3:00:00 PM 20.68 69.224 0.09 7.78 4.57 9.39
5/27/2021 3:15:00 PM 20.94 69.692 0.088 7.79 4.45 9.05
5/27/2021 3:30:00 PM 21.14 70.052 0.094 7.61 4.65 8.86
5/27/2021 3:45:00 PM 21.29 70.32201 0.088 7.68 4.22 8.95
5/27/2021 4:00:00 PM 21.39 70.502 0.098 7.95 4.84 9.09
5/27/2021 4:15:00 PM 21.44 70.592 0.088 7.92 4.16 8.97
5/27/2021 4:30:00 PM 21.48 70.664 0.088 7.82 4.5 8.77
5/27/2021 4:45:00 PM 21.46 70.628 0.086 7.65 4.38 8.29
5/27/2021 5:00:00 PM 21.42 70.556 0.088 7.27 4.3 8.11
5/27/2021 5:15:00 PM 21.4 70.52 0.088 7.23 4.94 8.18
5/27/2021 5:30:00 PM 21.34 70.412 0.091 7.35 4.22 7.9
5/27/2021 5:45:00 PM 21.26 70.268 0.098 6.98 4.14 7.92
5/27/2021 6:00:00 PM 21.15 70.07 0.088 7.22 4.37 8.02
5/27/2021 6:15:00 PM 21.04 69.872 0.089 7.13 5.26 7.67
5/27/2021 6:30:00 PM 20.92 69.656 0.088 7.1 4.51 7.47
5/27/2021 6:45:00 PM 20.8 69.44 0.088 7.08 3.98 7.68
5/27/2021 7:00:00 PM 20.62 69.116 0.094 7.31 4.06 7.94
5/27/2021 7:15:00 PM 20.42 68.756 0.087 7.03 6.35 7.82
5/27/2021 7:30:00 PM 20.21 68.378 0.088 7.11 6.27 7.58
5/27/2021 7:45:00 PM 19.98 67.964 0.088 7.37 4.46 7.38
5/27/2021 8:00:00 PM 19.72 67.496 0.089 7.35 9.48 7.56
5/27/2021 8:15:00 PM 19.51 67.118 0.091 7.3 6.07 7.29
5/27/2021 8:30:00 PM 19.27 66.686 0.09 7.27 9.05 8.04
5/27/2021 8:45:00 PM 19.04 66.272 0.088 7.22 9.08 7.73
5/27/2021 9:00:00 PM 18.85 65.93 0.087 7.2 10.8 7.65
5/27/2021 9:15:00 PM 18.65 65.57 0.087 7.16 5.56 6.88
5/27/2021 9:30:00 PM 18.46 65.228 0.088 7.15 5.87 6.67
5/27/2021 9:45:00 PM 18.29 64.922 0.09 7.12 4.72 6.35
5/27/2021 10:00:00 PM 18.13 64.634 0.09 7.01 5.74 6.55
5/27/2021 10:15:00 PM 17.97 64.346 0.09 7.04 5.17 6.49
5/27/2021 10:30:00 PM 17.81 64.058 0.09 7.06 4.57 6.44
5/27/2021 10:45:00 PM 17.66 63.788 0.086 7.05 4.91 6.41
5/27/2021 11:00:00 PM 17.53 63.554 0.096 7.06 4.64 6.42
5/27/2021 11:15:00 PM 17.39 63.302 0.089 7.01 4.53 6.24
5/27/2021 11:30:00 PM 17.25 63.05 0.09 7.01 4.39 6.45
5/27/2021 11:45:00 PM 17.11 62.798 0.101 7.04 5.08 6.37
5/28/2021 12:00:00 AM 16.99 62.582 0.092 6.96 4.4 6.45
5/28/2021 12:15:00 AM 16.86 62.348 0.09 7.03 4.86 6.34
5/28/2021 12:30:00 AM 16.73 62.114 0.098 7.03 4.26 6.21
5/28/2021 12:45:00 AM 16.61 61.898 0.088 7.03 5.09 6.4
5/28/2021 1:00:00 AM 16.48 61.664 0.088 7.01 4.48 6.28
5/28/2021 1:15:00 AM 16.38 61.484 0.089 6.9 4.64 6.36
5/28/2021 1:30:00 AM 16.26 61.268 0.089 6.95 4.26 6.47
5/28/2021 1:45:00 AM 16.16 61.088 0.092 6.91 4.27 6.55
5/28/2021 2:00:00 AM 16.05 60.89 0.096 6.97 4.6 6.66
5/28/2021 2:15:00 AM 15.93 60.674 0.097 7.01 4.3 6.48
5/28/2021 2:30:00 AM 15.85 60.53 0.098 6.99 4.63 6.8
5/28/2021 2:45:00 AM 15.76 60.368 0.098 6.98 4.45 6.92
5/28/2021 3:00:00 AM 15.65 60.17 0.1 7.01 4.17 6.81
5/28/2021 3:15:00 AM 15.58 60.044 0.097 6.99 4.21 6.91
5/28/2021 3:30:00 AM 15.48 59.864 0.098 7.01 5.52 6.95
5/28/2021 3:45:00 AM 15.43 59.774 0.099 6.99 4.73 7.19
5/28/2021 4:00:00 AM 15.32 59.576 0.098 6.99 4.64 7.34
5/28/2021 4:15:00 AM 15.24 59.432 0.098 6.99 4.73 6.98
5/28/2021 4:30:00 AM 15.18 59.324 0.098 6.98 4.14 7.47
5/28/2021 4:45:00 AM 15.07 59.126 0.097 6.98 13.62 7.58
5/28/2021 5:00:00 AM 15.04 59.072 0.097 6.99 5.15 7.37
5/28/2021 5:15:00 AM 14.98 58.964 0.099 6.97 4.69 7.32
5/28/2021 5:30:00 AM 14.92 58.856 0.1 6.97 5.03 7.26
5/28/2021 5:45:00 AM 14.85 58.73 0.101 6.96 3.89 7.26
5/28/2021 6:00:00 AM 14.78 58.604 0.1 6.97 3.98 7.33
5/28/2021 6:15:00 AM 14.69 58.442 0.099 6.97 4.54 7.06
5/28/2021 6:30:00 AM 14.65 58.37 0.099 6.95 4.31 7.47
5/28/2021 6:45:00 AM 14.6 58.28 0.1 6.97 4.13 7.51
5/28/2021 7:00:00 AM 14.54 58.172 0.099 6.97 3.73 7.59
5/28/2021 7:15:00 AM 14.5 58.1 0.099 6.97 3.94 7.62
5/28/2021 7:30:00 AM 14.46 58.028 0.101 6.99 3.67 7.43
5/28/2021 7:45:00 AM 14.44 57.992 0.099 7 3.87 7.81
5/28/2021 8:00:00 AM 14.41 57.938 0.101 7.02 3.92 7.65
5/28/2021 8:15:00 AM 14.39 57.902 0.103 7 4.28 7.67
5/28/2021 8:30:00 AM 14.38 57.884 0.101 7 4.19 7.76
5/28/2021 8:45:00 AM 14.38 57.884 0.099 7.03 3.86 7.92
5/28/2021 9:00:00 AM 14.38 57.884 0.098 7.06 4.35 8.02
5/28/2021 9:15:00 AM 14.39 57.902 0.1 7.08 3.75 8.52
5/28/2021 9:30:00 AM 14.39 57.902 0.099 7.13 4.23 8.36
5/28/2021 9:45:00 AM 14.4 57.92 0.102 7.11 3.84 8.5
5/28/2021 10:00:00 AM 14.42 57.956 0.1 7.14 3.69 8.67
5/28/2021 10:15:00 AM 14.43 57.974 0.098 7.16 3.79